St. Margarethen - Festspielgelnde
Wetterdaten: Samstag, 07.01.2012
Datum Zeit Temp. A. Feuchte A. Regen Wind Richtung Richtung Windben
07.01.2012 00:00 4,2 C 60 % 0,0 l/m 20,6 km/h (4 Bft) W 267 41,8 km/h (6 Bft)
07.01.2012 00:01 4,2 C 60 % 0,0 l/m 25,8 km/h (4 Bft) N-NW 332 33,8 km/h (5 Bft)
07.01.2012 00:02 4,2 C 60 % 0,0 l/m 30,6 km/h (5 Bft) N 349 51,5 km/h (7 Bft)
07.01.2012 00:03 4,2 C 60 % 0,0 l/m 20,5 km/h (4 Bft) W-NW 297 43,5 km/h (6 Bft)
07.01.2012 00:04 4,2 C 60 % 0,0 l/m 21,2 km/h (4 Bft) W 274 33,8 km/h (5 Bft)
07.01.2012 00:05 4,2 C 60 % 0,0 l/m 18,0 km/h (3 Bft) NW 313 29,0 km/h (5 Bft)
07.01.2012 00:06 4,2 C 60 % 0,0 l/m 19,3 km/h (3 Bft) W-NW 290 32,2 km/h (5 Bft)
07.01.2012 00:07 4,2 C 60 % 0,0 l/m 14,0 km/h (3 Bft) W-NW 295 25,7 km/h (4 Bft)
07.01.2012 00:08 4,1 C 60 % 0,0 l/m 23,3 km/h (4 Bft) W-NW 290 32,2 km/h (5 Bft)
07.01.2012 00:09 4,1 C 60 % 0,0 l/m 15,1 km/h (3 Bft) NW 322 25,7 km/h (4 Bft)
07.01.2012 00:10 4,1 C 60 % 0,0 l/m 15,2 km/h (3 Bft) NW 312 30,6 km/h (5 Bft)
07.01.2012 00:11 4,1 C 60 % 0,0 l/m 15,6 km/h (3 Bft) W 271 25,7 km/h (4 Bft)
07.01.2012 00:12 4,1 C 60 % 0,0 l/m 15,0 km/h (3 Bft) W-NW 291 25,7 km/h (4 Bft)
07.01.2012 00:13 4,1 C 60 % 0,0 l/m 17,4 km/h (3 Bft) NW 307 30,6 km/h (5 Bft)
07.01.2012 00:14 4,0 C 60 % 0,0 l/m 12,6 km/h (3 Bft) NW 325 27,4 km/h (4 Bft)
07.01.2012 00:15 4,0 C 60 % 0,0 l/m 16,8 km/h (3 Bft) W-NW 300 29,0 km/h (5 Bft)
07.01.2012 00:16 4,0 C 60 % 0,0 l/m 12,3 km/h (3 Bft) W-NW 285 27,4 km/h (4 Bft)
07.01.2012 00:17 3,9 C 60 % 0,0 l/m 20,5 km/h (4 Bft) W-NW 298 35,4 km/h (5 Bft)
07.01.2012 00:18 3,9 C 60 % 0,0 l/m 18,2 km/h (3 Bft) W-NW 293 27,4 km/h (4 Bft)
07.01.2012 00:19 3,9 C 60 % 0,0 l/m 19,7 km/h (3 Bft) W-NW 300 29,0 km/h (5 Bft)
07.01.2012 00:20 3,9 C 61 % 0,0 l/m 19,3 km/h (3 Bft) W 267 32,2 km/h (5 Bft)
07.01.2012 00:21 3,9 C 61 % 0,0 l/m 16,7 km/h (3 Bft) W-NW 300 32,2 km/h (5 Bft)
07.01.2012 00:22 3,8 C 61 % 0,0 l/m 12,8 km/h (3 Bft) NW 308 24,1 km/h (4 Bft)
07.01.2012 00:23 3,8 C 61 % 0,0 l/m 12,6 km/h (3 Bft) N-NW 330 24,1 km/h (4 Bft)
07.01.2012 00:24 3,8 C 61 % 0,0 l/m 11,9 km/h (2 Bft) W-NW 283 19,3 km/h (3 Bft)
07.01.2012 00:25 3,8 C 61 % 0,0 l/m 10,0 km/h (2 Bft) W-NW 295 14,5 km/h (3 Bft)
07.01.2012 00:26 3,8 C 61 % 0,0 l/m 17,7 km/h (3 Bft) W 273 29,0 km/h (5 Bft)
07.01.2012 00:27 3,8 C 61 % 0,0 l/m 16,1 km/h (3 Bft) N-NW 329 27,4 km/h (4 Bft)
07.01.2012 00:28 3,8 C 61 % 0,0 l/m 14,4 km/h (3 Bft) W-NW 284 27,4 km/h (4 Bft)
07.01.2012 00:29 3,8 C 61 % 0,0 l/m 16,0 km/h (3 Bft) W 278 29,0 km/h (5 Bft)
07.01.2012 00:30 3,8 C 61 % 0,0 l/m 17,8 km/h (3 Bft) W-NW 300 35,4 km/h (5 Bft)
07.01.2012 00:31 3,8 C 61 % 0,0 l/m 20,1 km/h (4 Bft) W-NW 288 38,6 km/h (5 Bft)
07.01.2012 00:32 3,8 C 61 % 0,0 l/m 25,2 km/h (4 Bft) SW 221 29,0 km/h (5 Bft)
07.01.2012 00:33 3,8 C 61 % 0,0 l/m 19,3 km/h (3 Bft) W-NW 295 25,7 km/h (4 Bft)
07.01.2012 00:34 3,8 C 61 % 0,0 l/m 14,1 km/h (3 Bft) NW 308 22,5 km/h (4 Bft)
07.01.2012 00:35 3,8 C 62 % 0,0 l/m 10,2 km/h (2 Bft) NW 321 14,5 km/h (3 Bft)
07.01.2012 00:36 3,7 C 62 % 0,0 l/m 10,6 km/h (2 Bft) W 263 17,7 km/h (3 Bft)
07.01.2012 00:37 3,7 C 62 % 0,0 l/m 16,3 km/h (3 Bft) W-NW 301 30,6 km/h (5 Bft)
07.01.2012 00:38 3,7 C 62 % 0,0 l/m 15,8 km/h (3 Bft) N-NW 339 30,6 km/h (5 Bft)
07.01.2012 00:39 3,7 C 62 % 0,0 l/m 8,1 km/h (2 Bft) W-NW 283 17,7 km/h (3 Bft)
07.01.2012 00:40 3,7 C 62 % 0,0 l/m 14,2 km/h (3 Bft) W-NW 293 29,0 km/h (5 Bft)
07.01.2012 00:41 3,7 C 62 % 0,0 l/m 15,9 km/h (3 Bft) W-NW 300 29,0 km/h (5 Bft)
07.01.2012 00:42 3,7 C 62 % 0,0 l/m 11,1 km/h (2 Bft) N-NW 328 22,5 km/h (4 Bft)
07.01.2012 00:43 3,7 C 62 % 0,0 l/m 21,9 km/h (4 Bft) NW 304 35,4 km/h (5 Bft)
07.01.2012 00:44 3,7 C 63 % 0,0 l/m 19,6 km/h (3 Bft) W 271 33,8 km/h (5 Bft)
07.01.2012 00:45 3,7 C 63 % 0,0 l/m 14,3 km/h (3 Bft) W-NW 297 25,7 km/h (4 Bft)
07.01.2012 00:46 3,7 C 63 % 0,0 l/m 15,0 km/h (3 Bft) W 273 24,1 km/h (4 Bft)
07.01.2012 00:47 3,7 C 63 % 0,0 l/m 11,0 km/h (2 Bft) W-NW 301 24,1 km/h (4 Bft)
07.01.2012 00:48 3,7 C 63 % 0,0 l/m 12,3 km/h (3 Bft) W-NW 297 19,3 km/h (3 Bft)
07.01.2012 00:49 3,7 C 63 % 0,0 l/m 11,1 km/h (2 Bft) NW 307 20,9 km/h (4 Bft)
07.01.2012 00:50 3,7 C 63 % 0,0 l/m 12,5 km/h (3 Bft) SW 218 32,2 km/h (5 Bft)
07.01.2012 00:51 3,7 C 63 % 0,0 l/m 12,7 km/h (3 Bft) NW 312 17,7 km/h (3 Bft)
07.01.2012 00:52 3,7 C 63 % 0,0 l/m 12,7 km/h (3 Bft) O-NO 60 19,3 km/h (3 Bft)
07.01.2012 00:53 3,7 C 63 % 0,0 l/m 15,6 km/h (3 Bft) NW 305 30,6 km/h (5 Bft)
07.01.2012 00:54 3,7 C 63 % 0,0 l/m 18,1 km/h (3 Bft) NW 305 32,2 km/h (5 Bft)
07.01.2012 00:55 3,7 C 63 % 0,0 l/m 17,0 km/h (3 Bft) W-NW 293 29,0 km/h (5 Bft)
07.01.2012 00:56 3,7 C 64 % 0,0 l/m 8,6 km/h (2 Bft) NW 305 14,5 km/h (3 Bft)
07.01.2012 00:57 3,7 C 64 % 0,0 l/m 10,3 km/h (2 Bft) NW 315 17,7 km/h (3 Bft)
07.01.2012 00:58 3,7 C 64 % 0,0 l/m 11,7 km/h (2 Bft) W-SW 242 17,7 km/h (3 Bft)
07.01.2012 00:59 3,6 C 64 % 0,0 l/m 11,0 km/h (2 Bft) W-NW 297 24,1 km/h (4 Bft)
07.01.2012 01:00 3,6 C 64 % 0,0 l/m 11,6 km/h (2 Bft) W 271 20,9 km/h (4 Bft)
07.01.2012 01:01 3,6 C 64 % 0,0 l/m 15,8 km/h (3 Bft) W-NW 288 22,5 km/h (4 Bft)
07.01.2012 01:02 3,6 C 64 % 0,0 l/m 11,3 km/h (2 Bft) W-NW 291 16,1 km/h (3 Bft)
07.01.2012 01:03 3,6 C 64 % 0,0 l/m 8,4 km/h (2 Bft) N-NW 328 19,3 km/h (3 Bft)
07.01.2012 01:04 3,5 C 64 % 0,0 l/m 15,8 km/h (3 Bft) W-NW 284 25,7 km/h (4 Bft)
07.01.2012 01:05 3,6 C 64 % 0,0 l/m 13,7 km/h (3 Bft) W-NW 301 27,4 km/h (4 Bft)
07.01.2012 01:06 3,5 C 64 % 0,0 l/m 17,3 km/h (3 Bft) W-NW 297 27,4 km/h (4 Bft)
07.01.2012 01:07 3,5 C 64 % 0,0 l/m 16,2 km/h (3 Bft) W 278 27,4 km/h (4 Bft)
07.01.2012 01:08 3,5 C 64 % 0,0 l/m 16,7 km/h (3 Bft) W-NW 302 25,7 km/h (4 Bft)
07.01.2012 01:09 3,5 C 65 % 0,0 l/m 17,5 km/h (3 Bft) W-NW 297 27,4 km/h (4 Bft)
07.01.2012 01:10 3,5 C 65 % 0,0 l/m 11,7 km/h (2 Bft) NW 315 17,7 km/h (3 Bft)
07.01.2012 01:11 3,5 C 65 % 0,0 l/m 14,1 km/h (3 Bft) W-NW 293 22,5 km/h (4 Bft)
07.01.2012 01:12 3,4 C 65 % 0,0 l/m 16,1 km/h (3 Bft) W-NW 290 20,9 km/h (4 Bft)
07.01.2012 01:13 3,4 C 65 % 0,0 l/m 11,1 km/h (2 Bft) W 276 19,3 km/h (3 Bft)
07.01.2012 01:14 3,4 C 65 % 0,0 l/m 7,2 km/h (2 Bft) W-NW 295 20,9 km/h (4 Bft)
07.01.2012 01:15 3,4 C 65 % 0,0 l/m 12,4 km/h (3 Bft) W-NW 293 14,5 km/h (3 Bft)
07.01.2012 01:16 3,3 C 65 % 0,0 l/m 12,1 km/h (2 Bft) NW 319 22,5 km/h (4 Bft)
07.01.2012 01:17 3,3 C 66 % 0,0 l/m 10,7 km/h (2 Bft) W-NW 293 17,7 km/h (3 Bft)
07.01.2012 01:18 3,3 C 66 % 0,0 l/m 9,1 km/h (2 Bft) N-NW 333 16,1 km/h (3 Bft)
07.01.2012 01:19 3,2 C 66 % 0,0 l/m 14,5 km/h (3 Bft) W-SW 249 20,9 km/h (4 Bft)
07.01.2012 01:20 3,2 C 66 % 0,0 l/m 11,5 km/h (2 Bft) NW 312 16,1 km/h (3 Bft)
07.01.2012 01:21 3,2 C 66 % 0,0 l/m 10,3 km/h (2 Bft) W-NW 297 16,1 km/h (3 Bft)
07.01.2012 01:22 3,2 C 66 % 0,0 l/m 10,3 km/h (2 Bft) NW 310 17,7 km/h (3 Bft)
07.01.2012 01:23 3,2 C 66 % 0,0 l/m 23,4 km/h (4 Bft) NW 305 32,2 km/h (5 Bft)
07.01.2012 01:24 3,2 C 66 % 0,0 l/m 15,6 km/h (3 Bft) W-NW 295 20,9 km/h (4 Bft)
07.01.2012 01:25 3,2 C 66 % 0,0 l/m 13,7 km/h (3 Bft) NW 316 17,7 km/h (3 Bft)
07.01.2012 01:26 3,2 C 66 % 0,0 l/m 10,8 km/h (2 Bft) W-NW 298 16,1 km/h (3 Bft)
07.01.2012 01:27 3,2 C 66 % 0,0 l/m 14,0 km/h (3 Bft) NW 304 25,7 km/h (4 Bft)
07.01.2012 01:28 3,2 C 66 % 0,0 l/m 15,4 km/h (3 Bft) SW 235 22,5 km/h (4 Bft)
07.01.2012 01:29 3,2 C 66 % 0,0 l/m 19,3 km/h (3 Bft) W-NW 300 27,4 km/h (4 Bft)
07.01.2012 01:30 3,2 C 66 % 0,0 l/m 20,5 km/h (4 Bft) W-NW 298 33,8 km/h (5 Bft)
07.01.2012 01:31 3,2 C 66 % 0,0 l/m 19,5 km/h (3 Bft) W-SW 243 32,2 km/h (5 Bft)
07.01.2012 01:32 3,3 C 66 % 0,0 l/m 14,9 km/h (3 Bft) NW 308 24,1 km/h (4 Bft)
07.01.2012 01:33 3,3 C 66 % 0,0 l/m 19,2 km/h (3 Bft) NW 304 25,7 km/h (4 Bft)
07.01.2012 01:34 3,3 C 66 % 0,0 l/m 16,7 km/h (3 Bft) NW 305 24,1 km/h (4 Bft)
07.01.2012 01:35 3,2 C 66 % 0,0 l/m 14,5 km/h (3 Bft) W-NW 301 25,7 km/h (4 Bft)
07.01.2012 01:36 3,3 C 66 % 0,0 l/m 22,0 km/h (4 Bft) NW 304 33,8 km/h (5 Bft)
07.01.2012 01:37 3,3 C 66 % 0,0 l/m 19,9 km/h (4 Bft) W-NW 293 27,4 km/h (4 Bft)
07.01.2012 01:38 3,3 C 66 % 0,0 l/m 16,4 km/h (3 Bft) NW 310 25,7 km/h (4 Bft)
07.01.2012 01:39 3,3 C 66 % 0,0 l/m 13,9 km/h (3 Bft) W-SW 256 17,7 km/h (3 Bft)
07.01.2012 01:40 3,3 C 66 % 0,0 l/m 20,4 km/h (4 Bft) W-NW 293 32,2 km/h (5 Bft)
07.01.2012 01:41 3,3 C 66 % 0,0 l/m 19,3 km/h (3 Bft) NW 308 29,0 km/h (5 Bft)
07.01.2012 01:42 3,3 C 66 % 0,0 l/m 16,1 km/h (3 Bft) W-SW 256 25,7 km/h (4 Bft)
07.01.2012 01:43 3,3 C 66 % 0,0 l/m 11,1 km/h (2 Bft) W-NW 288 25,7 km/h (4 Bft)
07.01.2012 01:44 3,3 C 66 % 0,0 l/m 10,2 km/h (2 Bft) W-NW 289 27,4 km/h (4 Bft)
07.01.2012 01:45 3,2 C 66 % 0,0 l/m 16,0 km/h (3 Bft) NW 308 24,1 km/h (4 Bft)
07.01.2012 01:46 3,2 C 66 % 0,0 l/m 14,4 km/h (3 Bft) W-NW 295 20,9 km/h (4 Bft)
07.01.2012 01:47 3,2 C 66 % 0,0 l/m 9,4 km/h (2 Bft) W 273 24,1 km/h (4 Bft)
07.01.2012 01:48 3,2 C 66 % 0,0 l/m 12,3 km/h (3 Bft) NW 326 22,5 km/h (4 Bft)
07.01.2012 01:49 3,2 C 66 % 0,0 l/m 26,6 km/h (4 Bft) W-NW 290 33,8 km/h (5 Bft)
07.01.2012 01:50 3,2 C 66 % 0,0 l/m 18,9 km/h (3 Bft) N-NW 336 24,1 km/h (4 Bft)
07.01.2012 01:51 3,2 C 66 % 0,0 l/m 15,6 km/h (3 Bft) W-SW 239 25,7 km/h (4 Bft)
07.01.2012 01:52 3,2 C 66 % 0,0 l/m 18,8 km/h (3 Bft) W-NW 302 30,6 km/h (5 Bft)
07.01.2012 01:53 3,2 C 66 % 0,0 l/m 26,0 km/h (4 Bft) W-NW 300 40,2 km/h (6 Bft)
07.01.2012 01:54 3,2 C 66 % 0,0 l/m 20,2 km/h (4 Bft) W 267 40,2 km/h (6 Bft)
07.01.2012 01:55 3,2 C 66 % 0,0 l/m 18,5 km/h (3 Bft) W 262 32,2 km/h (5 Bft)
07.01.2012 01:56 3,3 C 66 % 0,0 l/m 23,0 km/h (4 Bft) W-NW 283 38,6 km/h (5 Bft)
07.01.2012 01:57 3,3 C 66 % 0,0 l/m 17,5 km/h (3 Bft) W-NW 284 25,7 km/h (4 Bft)
07.01.2012 01:58 3,3 C 66 % 0,0 l/m 18,0 km/h (3 Bft) W-NW 293 25,7 km/h (4 Bft)
07.01.2012 01:59 3,3 C 66 % 0,0 l/m 17,8 km/h (3 Bft) NW 310 30,6 km/h (5 Bft)
07.01.2012 02:00 3,3 C 66 % 0,0 l/m 18,3 km/h (3 Bft) W-NW 302 29,0 km/h (5 Bft)
07.01.2012 02:01 3,2 C 66 % 0,0 l/m 20,2 km/h (4 Bft) NW 314 30,6 km/h (5 Bft)
07.01.2012 02:02 3,2 C 66 % 0,0 l/m 24,1 km/h (4 Bft) W-NW 297 37,0 km/h (5 Bft)
07.01.2012 02:03 3,3 C 66 % 0,0 l/m 29,0 km/h (5 Bft) N-NW 341 45,1 km/h (6 Bft)
07.01.2012 02:04 3,3 C 66 % 0,0 l/m 27,0 km/h (4 Bft) W-NW 295 38,6 km/h (5 Bft)
07.01.2012 02:05 3,3 C 66 % 0,0 l/m 18,8 km/h (3 Bft) NW 322 32,2 km/h (5 Bft)
07.01.2012 02:06 3,3 C 66 % 0,0 l/m 28,7 km/h (4 Bft) W-NW 297 40,2 km/h (6 Bft)
07.01.2012 02:07 3,3 C 66 % 0,0 l/m 20,0 km/h (4 Bft) W 276 35,4 km/h (5 Bft)
07.01.2012 02:08 3,3 C 66 % 0,0 l/m 16,1 km/h (3 Bft) NW 316 25,7 km/h (4 Bft)
07.01.2012 02:09 3,3 C 66 % 0,0 l/m 16,9 km/h (3 Bft) W-SW 239 29,0 km/h (5 Bft)
07.01.2012 02:10 3,3 C 66 % 0,0 l/m 17,2 km/h (3 Bft) W-NW 291 27,4 km/h (4 Bft)
07.01.2012 02:11 3,3 C 66 % 0,0 l/m 19,8 km/h (3 Bft) W-NW 302 29,0 km/h (5 Bft)
07.01.2012 02:12 3,3 C 66 % 0,0 l/m 20,5 km/h (4 Bft) W-SW 253 27,4 km/h (4 Bft)
07.01.2012 02:13 3,3 C 66 % 0,0 l/m 14,0 km/h (3 Bft) W-SW 255 22,5 km/h (4 Bft)
07.01.2012 02:14 3,3 C 66 % 0,0 l/m 17,0 km/h (3 Bft) W-NW 296 37,0 km/h (5 Bft)
07.01.2012 02:15 3,3 C 66 % 0,0 l/m 12,4 km/h (3 Bft) N-NW 342 19,3 km/h (3 Bft)
07.01.2012 02:16 3,2 C 66 % 0,0 l/m 15,9 km/h (3 Bft) NO 51 30,6 km/h (5 Bft)
07.01.2012 02:17 3,3 C 66 % 0,0 l/m 19,9 km/h (4 Bft) W-NW 297 33,8 km/h (5 Bft)
07.01.2012 02:18 3,3 C 66 % 0,0 l/m 29,2 km/h (5 Bft) SW 215 43,5 km/h (6 Bft)
07.01.2012 02:19 3,3 C 66 % 0,0 l/m 18,3 km/h (3 Bft) NO 43 30,6 km/h (5 Bft)
07.01.2012 02:20 3,3 C 66 % 0,0 l/m 18,4 km/h (3 Bft) W-NW 293 48,3 km/h (6 Bft)
07.01.2012 02:21 3,3 C 66 % 0,0 l/m 28,2 km/h (4 Bft) SW 221 38,6 km/h (5 Bft)
07.01.2012 02:22 3,3 C 67 % 0,0 l/m 20,5 km/h (4 Bft) W-NW 302 37,0 km/h (5 Bft)
07.01.2012 02:23 3,2 C 67 % 0,0 l/m 24,8 km/h (4 Bft) W-NW 300 37,0 km/h (5 Bft)
07.01.2012 02:24 3,2 C 67 % 0,0 l/m 23,2 km/h (4 Bft) SO 133 38,6 km/h (5 Bft)
07.01.2012 02:25 3,2 C 67 % 0,0 l/m 27,7 km/h (4 Bft) W-NW 291 51,5 km/h (7 Bft)
07.01.2012 02:26 3,3 C 67 % 0,0 l/m 22,0 km/h (4 Bft) N-NW 340 40,2 km/h (6 Bft)
07.01.2012 02:27 3,2 C 67 % 0,0 l/m 20,4 km/h (4 Bft) W-NW 300 35,4 km/h (5 Bft)
07.01.2012 02:28 3,2 C 67 % 0,0 l/m 21,9 km/h (4 Bft) N-NW 328 32,2 km/h (5 Bft)
07.01.2012 02:29 3,2 C 67 % 0,0 l/m 20,1 km/h (4 Bft) W 281 41,8 km/h (6 Bft)
07.01.2012 02:30 3,2 C 67 % 0,0 l/m 21,8 km/h (4 Bft) W-NW 296 45,1 km/h (6 Bft)
07.01.2012 02:31 3,2 C 67 % 0,0 l/m 30,3 km/h (5 Bft) NW 307 41,8 km/h (6 Bft)
07.01.2012 02:32 3,2 C 67 % 0,0 l/m 22,7 km/h (4 Bft) NW 312 35,4 km/h (5 Bft)
07.01.2012 02:33 3,2 C 67 % 0,0 l/m 14,6 km/h (3 Bft) O 86 24,1 km/h (4 Bft)
07.01.2012 02:34 3,2 C 67 % 0,0 l/m 16,3 km/h (3 Bft) NW 321 32,2 km/h (5 Bft)
07.01.2012 02:35 3,2 C 67 % 0,0 l/m 16,6 km/h (3 Bft) NW 312 27,4 km/h (4 Bft)
07.01.2012 02:36 3,2 C 67 % 0,0 l/m 23,5 km/h (4 Bft) W-NW 302 37,0 km/h (5 Bft)
07.01.2012 02:37 3,2 C 68 % 0,0 l/m 25,8 km/h (4 Bft) NW 304 41,8 km/h (6 Bft)
07.01.2012 02:38 3,2 C 68 % 0,0 l/m 22,6 km/h (4 Bft) W-NW 284 35,4 km/h (5 Bft)
07.01.2012 02:39 3,2 C 68 % 0,0 l/m 28,4 km/h (4 Bft) W-NW 288 40,2 km/h (6 Bft)
07.01.2012 02:40 3,2 C 68 % 0,0 l/m 24,4 km/h (4 Bft) W 278 33,8 km/h (5 Bft)
07.01.2012 02:41 3,2 C 68 % 0,0 l/m 27,1 km/h (4 Bft) NW 321 37,0 km/h (5 Bft)
07.01.2012 02:42 3,2 C 68 % 0,0 l/m 18,0 km/h (3 Bft) NW 326 33,8 km/h (5 Bft)
07.01.2012 02:43 3,2 C 67 % 0,0 l/m 24,8 km/h (4 Bft) W 281 37,0 km/h (5 Bft)
07.01.2012 02:44 3,2 C 67 % 0,0 l/m 30,9 km/h (5 Bft) W-NW 303 40,2 km/h (6 Bft)
07.01.2012 02:45 3,2 C 67 % 0,0 l/m 33,1 km/h (5 Bft) W-NW 297 43,5 km/h (6 Bft)
07.01.2012 02:46 3,2 C 67 % 0,0 l/m 24,8 km/h (4 Bft) NW 321 35,4 km/h (5 Bft)
07.01.2012 02:47 3,2 C 67 % 0,0 l/m 26,4 km/h (4 Bft) W-NW 299 40,2 km/h (6 Bft)
07.01.2012 02:48 3,2 C 67 % 0,0 l/m 21,5 km/h (4 Bft) NW 307 32,2 km/h (5 Bft)
07.01.2012 02:49 3,2 C 67 % 0,0 l/m 26,5 km/h (4 Bft) W 276 43,5 km/h (6 Bft)
07.01.2012 02:50 3,2 C 67 % 0,0 l/m 23,9 km/h (4 Bft) NW 321 41,8 km/h (6 Bft)
07.01.2012 02:51 3,2 C 67 % 0,0 l/m 24,5 km/h (4 Bft) W 270 40,2 km/h (6 Bft)
07.01.2012 02:52 3,2 C 67 % 0,0 l/m 32,4 km/h (5 Bft) W-NW 293 46,7 km/h (6 Bft)
07.01.2012 02:53 3,2 C 67 % 0,0 l/m 24,1 km/h (4 Bft) W-NW 291 40,2 km/h (6 Bft)
07.01.2012 02:54 3,3 C 67 % 0,0 l/m 34,6 km/h (5 Bft) N 352 48,3 km/h (6 Bft)
07.01.2012 02:55 3,3 C 67 % 0,0 l/m 29,2 km/h (5 Bft) W 276 45,1 km/h (6 Bft)
07.01.2012 02:56 3,3 C 66 % 0,0 l/m 37,1 km/h (5 Bft) W-NW 300 53,1 km/h (7 Bft)
07.01.2012 02:57 3,3 C 66 % 0,0 l/m 28,2 km/h (4 Bft) NW 304 45,1 km/h (6 Bft)
07.01.2012 02:58 3,3 C 66 % 0,0 l/m 33,9 km/h (5 Bft) S-SO 159 46,7 km/h (6 Bft)
07.01.2012 02:59 3,3 C 66 % 0,0 l/m 28,4 km/h (4 Bft) W-NW 285 38,6 km/h (5 Bft)
07.01.2012 03:00 3,4 C 66 % 0,0 l/m 30,5 km/h (5 Bft) W 276 41,8 km/h (6 Bft)
07.01.2012 03:01 3,4 C 66 % 0,0 l/m 28,9 km/h (5 Bft) W-NW 297 43,5 km/h (6 Bft)
07.01.2012 03:02 3,3 C 66 % 0,0 l/m 28,0 km/h (4 Bft) W 281 37,0 km/h (5 Bft)
07.01.2012 03:03 3,3 C 66 % 0,0 l/m 24,6 km/h (4 Bft) NW 311 40,2 km/h (6 Bft)
07.01.2012 03:04 3,3 C 66 % 0,0 l/m 30,5 km/h (5 Bft) NW 304 46,7 km/h (6 Bft)
07.01.2012 03:05 3,3 C 66 % 0,0 l/m 22,4 km/h (4 Bft) NW 316 37,0 km/h (5 Bft)
07.01.2012 03:06 3,3 C 66 % 0,0 l/m 20,5 km/h (4 Bft) W 267 30,6 km/h (5 Bft)
07.01.2012 03:07 3,3 C 66 % 0,0 l/m 27,6 km/h (4 Bft) W-NW 288 43,5 km/h (6 Bft)
07.01.2012 03:08 3,3 C 66 % 0,0 l/m 26,3 km/h (4 Bft) W 281 45,1 km/h (6 Bft)
07.01.2012 03:09 3,3 C 66 % 0,0 l/m 34,8 km/h (5 Bft) W-NW 294 43,5 km/h (6 Bft)
07.01.2012 03:10 3,3 C 66 % 0,0 l/m 28,4 km/h (4 Bft) NW 308 41,8 km/h (6 Bft)
07.01.2012 03:11 3,3 C 66 % 0,0 l/m 30,6 km/h (5 Bft) W-NW 297 43,5 km/h (6 Bft)
07.01.2012 03:12 3,4 C 65 % 0,0 l/m 35,3 km/h (5 Bft) NW 305 48,3 km/h (6 Bft)
07.01.2012 03:13 3,4 C 65 % 0,0 l/m 25,7 km/h (4 Bft) W-NW 291 46,7 km/h (6 Bft)
07.01.2012 03:14 3,4 C 65 % 0,0 l/m 28,2 km/h (4 Bft) NW 317 53,1 km/h (7 Bft)
07.01.2012 03:15 3,4 C 65 % 0,0 l/m 30,0 km/h (5 Bft) W-NW 286 43,5 km/h (6 Bft)
07.01.2012 03:16 3,4 C 65 % 0,0 l/m 31,6 km/h (5 Bft) W-SW 242 48,3 km/h (6 Bft)
07.01.2012 03:17 3,4 C 65 % 0,0 l/m 32,9 km/h (5 Bft) NW 310 51,5 km/h (7 Bft)
07.01.2012 03:18 3,3 C 65 % 0,0 l/m 19,2 km/h (3 Bft) W-NW 302 32,2 km/h (5 Bft)
07.01.2012 03:19 3,3 C 66 % 0,0 l/m 26,4 km/h (4 Bft) W-NW 284 43,5 km/h (6 Bft)
07.01.2012 03:20 3,3 C 66 % 0,0 l/m 32,5 km/h (5 Bft) W-NW 294 53,1 km/h (7 Bft)
07.01.2012 03:21 3,3 C 66 % 0,0 l/m 38,4 km/h (5 Bft) W-NW 297 53,1 km/h (7 Bft)
07.01.2012 03:22 3,3 C 66 % 0,0 l/m 28,2 km/h (4 Bft) W-NW 300 45,1 km/h (6 Bft)
07.01.2012 03:23 3,3 C 66 % 0,0 l/m 28,6 km/h (4 Bft) W-NW 303 46,7 km/h (6 Bft)
07.01.2012 03:24 3,3 C 66 % 0,0 l/m 31,9 km/h (5 Bft) W-NW 301 45,1 km/h (6 Bft)
07.01.2012 03:25 3,3 C 66 % 0,0 l/m 26,7 km/h (4 Bft) NW 305 37,0 km/h (5 Bft)
07.01.2012 03:26 3,3 C 66 % 0,0 l/m 35,7 km/h (5 Bft) NW 312 48,3 km/h (6 Bft)
07.01.2012 03:27 3,3 C 66 % 0,0 l/m 29,0 km/h (5 Bft) NW 321 45,1 km/h (6 Bft)
07.01.2012 03:28 3,3 C 66 % 0,0 l/m 26,4 km/h (4 Bft) N 357 37,0 km/h (5 Bft)
07.01.2012 03:29 3,3 C 66 % 0,0 l/m 28,3 km/h (4 Bft) O-SO 116 43,5 km/h (6 Bft)
07.01.2012 03:30 3,2 C 66 % 0,0 l/m 30,3 km/h (5 Bft) NW 311 40,2 km/h (6 Bft)
07.01.2012 03:31 3,2 C 67 % 0,0 l/m 29,0 km/h (5 Bft) NW 321 43,5 km/h (6 Bft)
07.01.2012 03:32 3,2 C 67 % 0,0 l/m 30,6 km/h (5 Bft) NW 326 41,8 km/h (6 Bft)
07.01.2012 03:33 3,2 C 67 % 0,0 l/m 26,5 km/h (4 Bft) W-NW 293 35,4 km/h (5 Bft)
07.01.2012 03:34 3,2 C 67 % 0,0 l/m 20,5 km/h (4 Bft) W-NW 294 35,4 km/h (5 Bft)
07.01.2012 03:35 3,1 C 67 % 0,0 l/m 26,0 km/h (4 Bft) N-NW 333 46,7 km/h (6 Bft)
07.01.2012 03:36 3,1 C 67 % 0,0 l/m 24,9 km/h (4 Bft) W-NW 287 41,8 km/h (6 Bft)
07.01.2012 03:37 3,1 C 67 % 0,0 l/m 32,1 km/h (5 Bft) NW 308 48,3 km/h (6 Bft)
07.01.2012 03:38 3,1 C 67 % 0,0 l/m 23,5 km/h (4 Bft) W-NW 284 35,4 km/h (5 Bft)
07.01.2012 03:39 3,1 C 67 % 0,0 l/m 24,6 km/h (4 Bft) W 271 43,5 km/h (6 Bft)
07.01.2012 03:40 3,1 C 67 % 0,0 l/m 24,3 km/h (4 Bft) NW 308 40,2 km/h (6 Bft)
07.01.2012 03:41 3,1 C 67 % 0,0 l/m 20,0 km/h (4 Bft) NW 319 33,8 km/h (5 Bft)
07.01.2012 03:42 3,1 C 68 % 0,0 l/m 27,2 km/h (4 Bft) NW 308 41,8 km/h (6 Bft)
07.01.2012 03:43 3,0 C 68 % 0,0 l/m 17,7 km/h (3 Bft) N-NW 332 30,6 km/h (5 Bft)
07.01.2012 03:44 3,0 C 68 % 0,0 l/m 16,8 km/h (3 Bft) N-NO 20 30,6 km/h (5 Bft)
07.01.2012 03:45 2,9 C 68 % 0,0 l/m 30,4 km/h (5 Bft) W 263 45,1 km/h (6 Bft)
07.01.2012 03:46 3,0 C 68 % 0,0 l/m 27,5 km/h (4 Bft) NW 325 43,5 km/h (6 Bft)
07.01.2012 03:47 2,9 C 68 % 0,0 l/m 21,2 km/h (4 Bft) N 351 40,2 km/h (6 Bft)
07.01.2012 03:48 2,9 C 68 % 0,0 l/m 23,1 km/h (4 Bft) N 359 40,2 km/h (6 Bft)
07.01.2012 03:49 2,9 C 68 % 0,0 l/m 23,7 km/h (4 Bft) W-NW 302 41,8 km/h (6 Bft)
07.01.2012 03:50 2,9 C 68 % 0,0 l/m 27,2 km/h (4 Bft) NW 309 37,0 km/h (5 Bft)
07.01.2012 03:51 2,9 C 68 % 0,0 l/m 31,1 km/h (5 Bft) W-NW 301 43,5 km/h (6 Bft)
07.01.2012 03:52 2,9 C 68 % 0,0 l/m 30,7 km/h (5 Bft) W 263 40,2 km/h (6 Bft)
07.01.2012 03:53 2,9 C 68 % 0,0 l/m 31,6 km/h (5 Bft) NW 304 48,3 km/h (6 Bft)
07.01.2012 03:54 2,9 C 68 % 0,0 l/m 30,3 km/h (5 Bft) W-NW 298 43,5 km/h (6 Bft)
07.01.2012 03:55 2,9 C 68 % 0,0 l/m 28,7 km/h (4 Bft) W-NW 284 40,2 km/h (6 Bft)
07.01.2012 03:56 2,9 C 68 % 0,0 l/m 25,4 km/h (4 Bft) W-NW 298 38,6 km/h (5 Bft)
07.01.2012 03:57 2,9 C 68 % 0,0 l/m 28,9 km/h (5 Bft) SW 222 41,8 km/h (6 Bft)
07.01.2012 03:58 2,9 C 68 % 0,0 l/m 27,4 km/h (4 Bft) W-NW 297 46,7 km/h (6 Bft)
07.01.2012 03:59 2,9 C 68 % 0,0 l/m 29,1 km/h (5 Bft) W 265 41,8 km/h (6 Bft)
07.01.2012 04:00 2,9 C 68 % 0,0 l/m 27,8 km/h (4 Bft) NW 305 45,1 km/h (6 Bft)
07.01.2012 04:01 2,9 C 68 % 0,0 l/m 30,8 km/h (5 Bft) W 266 46,7 km/h (6 Bft)
07.01.2012 04:02 2,9 C 68 % 0,0 l/m 26,4 km/h (4 Bft) W-NW 297 37,0 km/h (5 Bft)
07.01.2012 04:03 2,9 C 68 % 0,0 l/m 23,5 km/h (4 Bft) W-NW 294 35,4 km/h (5 Bft)
07.01.2012 04:04 2,9 C 68 % 0,0 l/m 23,6 km/h (4 Bft) NW 309 46,7 km/h (6 Bft)
07.01.2012 04:05 2,9 C 68 % 0,0 l/m 23,5 km/h (4 Bft) NW 308 40,2 km/h (6 Bft)
07.01.2012 04:06 2,9 C 68 % 0,0 l/m 21,2 km/h (4 Bft) W-NW 290 29,0 km/h (5 Bft)
07.01.2012 04:07 2,8 C 69 % 0,0 l/m 30,8 km/h (5 Bft) W-NW 298 48,3 km/h (6 Bft)
07.01.2012 04:08 2,8 C 69 % 0,0 l/m 27,5 km/h (4 Bft) NW 319 40,2 km/h (6 Bft)
07.01.2012 04:09 2,8 C 69 % 0,0 l/m 16,4 km/h (3 Bft) W-NW 302 25,7 km/h (4 Bft)
07.01.2012 04:10 2,8 C 69 % 0,0 l/m 21,7 km/h (4 Bft) N-NW 345 38,6 km/h (5 Bft)
07.01.2012 04:11 2,8 C 69 % 0,0 l/m 23,2 km/h (4 Bft) W-NW 283 37,0 km/h (5 Bft)
07.01.2012 04:12 2,8 C 69 % 0,0 l/m 24,7 km/h (4 Bft) W 277 37,0 km/h (5 Bft)
07.01.2012 04:13 2,8 C 69 % 0,0 l/m 29,2 km/h (5 Bft) W 266 43,5 km/h (6 Bft)
07.01.2012 04:14 2,8 C 70 % 0,0 l/m 23,3 km/h (4 Bft) NW 306 35,4 km/h (5 Bft)
07.01.2012 04:15 2,8 C 70 % 0,0 l/m 23,9 km/h (4 Bft) W-NW 302 37,0 km/h (5 Bft)
07.01.2012 04:16 2,8 C 70 % 0,0 l/m 14,8 km/h (3 Bft) W 264 29,0 km/h (5 Bft)
07.01.2012 04:17 2,8 C 70 % 0,0 l/m 24,1 km/h (4 Bft) W 260 35,4 km/h (5 Bft)
07.01.2012 04:18 2,7 C 70 % 0,0 l/m 16,8 km/h (3 Bft) NW 316 27,4 km/h (4 Bft)
07.01.2012 04:19 2,7 C 70 % 0,0 l/m 13,4 km/h (3 Bft) NW 315 20,9 km/h (4 Bft)
07.01.2012 04:20 2,7 C 70 % 0,0 l/m 12,5 km/h (3 Bft) NW 316 19,3 km/h (3 Bft)
07.01.2012 04:21 2,6 C 71 % 0,0 l/m 21,8 km/h (4 Bft) W-NW 283 32,2 km/h (5 Bft)
07.01.2012 04:22 2,6 C 71 % 0,0 l/m 20,9 km/h (4 Bft) W-NW 302 33,8 km/h (5 Bft)
07.01.2012 04:23 2,6 C 71 % 0,0 l/m 26,2 km/h (4 Bft) N 6 43,5 km/h (6 Bft)
07.01.2012 04:24 2,5 C 71 % 0,0 l/m 20,5 km/h (4 Bft) W 281 32,2 km/h (5 Bft)
07.01.2012 04:25 2,5 C 72 % 0,0 l/m 23,9 km/h (4 Bft) N-NW 337 38,6 km/h (5 Bft)
07.01.2012 04:26 2,5 C 72 % 0,0 l/m 19,2 km/h (3 Bft) W 264 29,0 km/h (5 Bft)
07.01.2012 04:27 2,4 C 72 % 0,0 l/m 23,5 km/h (4 Bft) NW 319 35,4 km/h (5 Bft)
07.01.2012 04:28 2,4 C 72 % 0,0 l/m 22,9 km/h (4 Bft) NW 323 35,4 km/h (5 Bft)
07.01.2012 04:29 2,4 C 73 % 0,0 l/m 24,6 km/h (4 Bft) W 278 32,2 km/h (5 Bft)
07.01.2012 04:30 2,4 C 73 % 0,0 l/m 20,5 km/h (4 Bft) W-NW 284 29,0 km/h (5 Bft)
07.01.2012 04:31 2,4 C 73 % 0,0 l/m 23,8 km/h (4 Bft) W-NW 298 33,8 km/h (5 Bft)
07.01.2012 04:32 2,4 C 73 % 0,0 l/m 16,8 km/h (3 Bft) NW 313 29,0 km/h (5 Bft)
07.01.2012 04:33 2,3 C 73 % 0,0 l/m 23,9 km/h (4 Bft) NW 319 37,0 km/h (5 Bft)
07.01.2012 04:34 2,3 C 73 % 0,0 l/m 18,8 km/h (3 Bft) W 263 27,4 km/h (4 Bft)
07.01.2012 04:35 2,3 C 73 % 0,0 l/m 16,3 km/h (3 Bft) W-NW 293 32,2 km/h (5 Bft)
07.01.2012 04:36 2,3 C 73 % 0,0 l/m 19,5 km/h (3 Bft) N-NW 338 32,2 km/h (5 Bft)
07.01.2012 04:37 2,3 C 73 % 0,0 l/m 24,6 km/h (4 Bft) W-NW 296 37,0 km/h (5 Bft)
07.01.2012 04:38 2,3 C 73 % 0,0 l/m 23,5 km/h (4 Bft) W-NW 300 30,6 km/h (5 Bft)
07.01.2012 04:39 2,3 C 73 % 0,0 l/m 20,8 km/h (4 Bft) W 277 29,0 km/h (5 Bft)
07.01.2012 04:40 2,4 C 73 % 0,0 l/m 20,2 km/h (4 Bft) W-NW 288 29,0 km/h (5 Bft)
07.01.2012 04:41 2,4 C 73 % 0,0 l/m 23,6 km/h (4 Bft) NW 308 35,4 km/h (5 Bft)
07.01.2012 04:42 2,4 C 73 % 0,0 l/m 26,7 km/h (4 Bft) W-NW 300 33,8 km/h (5 Bft)
07.01.2012 04:43 2,4 C 73 % 0,0 l/m 21,1 km/h (4 Bft) W-NW 302 33,8 km/h (5 Bft)
07.01.2012 04:44 2,4 C 73 % 0,0 l/m 21,2 km/h (4 Bft) W-NW 295 30,6 km/h (5 Bft)
07.01.2012 04:45 2,5 C 73 % 0,0 l/m 24,0 km/h (4 Bft) W-NW 301 38,6 km/h (5 Bft)
07.01.2012 04:46 2,6 C 73 % 0,0 l/m 23,2 km/h (4 Bft) W-NW 296 35,4 km/h (5 Bft)
07.01.2012 04:47 2,6 C 73 % 0,0 l/m 25,8 km/h (4 Bft) W-NW 295 40,2 km/h (6 Bft)
07.01.2012 04:48 2,6 C 73 % 0,0 l/m 25,2 km/h (4 Bft) W-NW 297 40,2 km/h (6 Bft)
07.01.2012 04:49 2,6 C 73 % 0,0 l/m 25,7 km/h (4 Bft) W-NW 302 37,0 km/h (5 Bft)
07.01.2012 04:50 2,7 C 73 % 0,0 l/m 20,9 km/h (4 Bft) NW 313 25,7 km/h (4 Bft)
07.01.2012 04:51 2,7 C 73 % 0,0 l/m 23,1 km/h (4 Bft) W 273 37,0 km/h (5 Bft)
07.01.2012 04:52 2,7 C 73 % 0,0 l/m 22,8 km/h (4 Bft) NW 316 35,4 km/h (5 Bft)
07.01.2012 04:53 2,7 C 73 % 0,0 l/m 20,3 km/h (4 Bft) W-NW 293 33,8 km/h (5 Bft)
07.01.2012 04:54 2,7 C 73 % 0,0 l/m 23,7 km/h (4 Bft) NW 312 35,4 km/h (5 Bft)
07.01.2012 04:55 2,8 C 73 % 0,0 l/m 25,6 km/h (4 Bft) W 262 37,0 km/h (5 Bft)
07.01.2012 04:56 2,8 C 73 % 0,0 l/m 24,9 km/h (4 Bft) W-NW 294 37,0 km/h (5 Bft)
07.01.2012 04:57 2,8 C 72 % 0,0 l/m 30,4 km/h (5 Bft) N-NW 337 40,2 km/h (6 Bft)
07.01.2012 04:58 2,8 C 72 % 0,0 l/m 23,0 km/h (4 Bft) W-SW 240 35,4 km/h (5 Bft)
07.01.2012 04:59 2,9 C 72 % 0,0 l/m 21,3 km/h (4 Bft) W 277 30,6 km/h (5 Bft)
07.01.2012 05:00 2,9 C 72 % 0,0 l/m 26,4 km/h (4 Bft) NW 308 45,1 km/h (6 Bft)
07.01.2012 05:01 2,9 C 72 % 0,0 l/m 26,3 km/h (4 Bft) W-NW 284 33,8 km/h (5 Bft)
07.01.2012 05:02 2,9 C 72 % 0,0 l/m 25,1 km/h (4 Bft) W-NW 302 37,0 km/h (5 Bft)
07.01.2012 05:03 2,9 C 72 % 0,0 l/m 22,9 km/h (4 Bft) W-NW 296 37,0 km/h (5 Bft)
07.01.2012 05:04 2,9 C 72 % 0,0 l/m 25,1 km/h (4 Bft) NW 308 43,5 km/h (6 Bft)
07.01.2012 05:05 2,9 C 72 % 0,0 l/m 26,2 km/h (4 Bft) N 354 37,0 km/h (5 Bft)
07.01.2012 05:06 2,9 C 72 % 0,0 l/m 21,8 km/h (4 Bft) W-NW 298 30,6 km/h (5 Bft)
07.01.2012 05:07 2,9 C 72 % 0,0 l/m 24,9 km/h (4 Bft) NW 307 38,6 km/h (5 Bft)
07.01.2012 05:08 3,0 C 72 % 0,0 l/m 22,9 km/h (4 Bft) N-NW 338 30,6 km/h (5 Bft)
07.01.2012 05:09 2,9 C 72 % 0,0 l/m 16,2 km/h (3 Bft) W-NW 301 22,5 km/h (4 Bft)
07.01.2012 05:10 2,9 C 72 % 0,0 l/m 20,6 km/h (4 Bft) NW 304 35,4 km/h (5 Bft)
07.01.2012 05:11 2,9 C 72 % 0,0 l/m 22,1 km/h (4 Bft) W-SW 250 30,6 km/h (5 Bft)
07.01.2012 05:12 2,9 C 73 % 0,0 l/m 19,0 km/h (3 Bft) NW 315 29,0 km/h (5 Bft)
07.01.2012 05:13 2,9 C 73 % 0,0 l/m 9,7 km/h (2 Bft) S-SW 201 19,3 km/h (3 Bft)
07.01.2012 05:14 2,9 C 73 % 0,0 l/m 25,8 km/h (4 Bft) W 276 33,8 km/h (5 Bft)
07.01.2012 05:15 2,9 C 73 % 0,0 l/m 17,3 km/h (3 Bft) W-NW 291 29,0 km/h (5 Bft)
07.01.2012 05:16 2,9 C 73 % 0,0 l/m 18,8 km/h (3 Bft) NW 311 24,1 km/h (4 Bft)
07.01.2012 05:17 2,9 C 73 % 0,0 l/m 18,3 km/h (3 Bft) W-NW 285 22,5 km/h (4 Bft)
07.01.2012 05:18 2,9 C 73 % 0,0 l/m 11,1 km/h (2 Bft) W-NW 284 22,5 km/h (4 Bft)
07.01.2012 05:19 2,9 C 73 % 0,0 l/m 14,0 km/h (3 Bft) W-SW 245 20,9 km/h (4 Bft)
07.01.2012 05:20 2,8 C 73 % 0,0 l/m 11,2 km/h (2 Bft) SW 215 16,1 km/h (3 Bft)
07.01.2012 05:21 2,8 C 73 % 0,0 l/m 15,9 km/h (3 Bft) NW 311 22,5 km/h (4 Bft)
07.01.2012 05:22 2,8 C 73 % 0,0 l/m 17,1 km/h (3 Bft) W-SW 240 27,4 km/h (4 Bft)
07.01.2012 05:23 2,8 C 73 % 0,0 l/m 18,0 km/h (3 Bft) W 278 32,2 km/h (5 Bft)
07.01.2012 05:24 2,8 C 73 % 0,0 l/m 17,6 km/h (3 Bft) W-SW 248 29,0 km/h (5 Bft)
07.01.2012 05:25 2,8 C 73 % 0,0 l/m 19,0 km/h (3 Bft) W-SW 253 27,4 km/h (4 Bft)
07.01.2012 05:26 2,8 C 73 % 0,0 l/m 12,9 km/h (3 Bft) W-NW 301 20,9 km/h (4 Bft)
07.01.2012 05:27 2,9 C 73 % 0,0 l/m 20,6 km/h (4 Bft) NW 309 29,0 km/h (5 Bft)
07.01.2012 05:28 2,8 C 73 % 0,0 l/m 14,3 km/h (3 Bft) W-NW 296 25,7 km/h (4 Bft)
07.01.2012 05:29 2,9 C 73 % 0,0 l/m 16,9 km/h (3 Bft) NW 325 32,2 km/h (5 Bft)
07.01.2012 05:30 2,9 C 73 % 0,0 l/m 18,6 km/h (3 Bft) NW 308 29,0 km/h (5 Bft)
07.01.2012 05:31 2,9 C 73 % 0,0 l/m 19,7 km/h (3 Bft) W-NW 297 27,4 km/h (4 Bft)
07.01.2012 05:32 2,9 C 73 % 0,0 l/m 17,5 km/h (3 Bft) W 280 25,7 km/h (4 Bft)
07.01.2012 05:33 2,9 C 73 % 0,0 l/m 23,7 km/h (4 Bft) W-NW 300 29,0 km/h (5 Bft)
07.01.2012 05:34 2,9 C 73 % 0,0 l/m 11,9 km/h (2 Bft) NW 308 24,1 km/h (4 Bft)
07.01.2012 05:35 2,9 C 73 % 0,0 l/m 17,3 km/h (3 Bft) W 281 29,0 km/h (5 Bft)
07.01.2012 05:36 2,9 C 73 % 0,0 l/m 13,4 km/h (3 Bft) NW 305 25,7 km/h (4 Bft)
07.01.2012 05:37 2,9 C 73 % 0,0 l/m 17,6 km/h (3 Bft) W 276 38,6 km/h (5 Bft)
07.01.2012 05:38 2,9 C 73 % 0,0 l/m 12,2 km/h (2 Bft) W-NW 291 24,1 km/h (4 Bft)
07.01.2012 05:39 2,9 C 73 % 0,0 l/m 14,8 km/h (3 Bft) N-NW 339 25,7 km/h (4 Bft)
07.01.2012 05:40 3,0 C 73 % 0,0 l/m 20,9 km/h (4 Bft) W 260 29,0 km/h (5 Bft)
07.01.2012 05:41 3,0 C 73 % 0,0 l/m 17,8 km/h (3 Bft) W-NW 297 29,0 km/h (5 Bft)
07.01.2012 05:42 3,0 C 73 % 0,0 l/m 13,1 km/h (3 Bft) W-NW 288 17,7 km/h (3 Bft)
07.01.2012 05:43 3,1 C 73 % 0,0 l/m 18,1 km/h (3 Bft) W-NW 301 27,4 km/h (4 Bft)
07.01.2012 05:44 3,1 C 73 % 0,0 l/m 13,7 km/h (3 Bft) W-NW 302 20,9 km/h (4 Bft)
07.01.2012 05:45 3,1 C 73 % 0,0 l/m 14,4 km/h (3 Bft) W-NW 286 24,1 km/h (4 Bft)
07.01.2012 05:46 3,1 C 73 % 0,0 l/m 19,2 km/h (3 Bft) NW 308 33,8 km/h (5 Bft)
07.01.2012 05:47 3,1 C 72 % 0,0 l/m 18,4 km/h (3 Bft) W-NW 300 27,4 km/h (4 Bft)
07.01.2012 05:48 3,2 C 72 % 0,0 l/m 16,6 km/h (3 Bft) W 278 24,1 km/h (4 Bft)
07.01.2012 05:49 3,2 C 72 % 0,0 l/m 14,8 km/h (3 Bft) W-NW 288 24,1 km/h (4 Bft)
07.01.2012 05:50 3,2 C 72 % 0,0 l/m 19,6 km/h (3 Bft) NW 308 27,4 km/h (4 Bft)
07.01.2012 05:51 3,2 C 72 % 0,0 l/m 16,8 km/h (3 Bft) W-NW 299 25,7 km/h (4 Bft)
07.01.2012 05:52 3,2 C 72 % 0,0 l/m 15,0 km/h (3 Bft) N-NW 344 32,2 km/h (5 Bft)
07.01.2012 05:53 3,3 C 72 % 0,0 l/m 16,9 km/h (3 Bft) NW 312 25,7 km/h (4 Bft)
07.01.2012 05:54 3,3 C 72 % 0,0 l/m 16,0 km/h (3 Bft) W-SW 241 27,4 km/h (4 Bft)
07.01.2012 05:55 3,3 C 72 % 0,0 l/m 13,3 km/h (3 Bft) W-NW 300 27,4 km/h (4 Bft)
07.01.2012 05:56 3,3 C 72 % 0,0 l/m 17,4 km/h (3 Bft) W 280 24,1 km/h (4 Bft)
07.01.2012 05:57 3,3 C 72 % 0,0 l/m 12,8 km/h (3 Bft) N-NW 332 19,3 km/h (3 Bft)
07.01.2012 05:58 3,3 C 72 % 0,0 l/m 19,6 km/h (3 Bft) NW 307 38,6 km/h (5 Bft)
07.01.2012 05:59 3,3 C 72 % 0,0 l/m 20,2 km/h (4 Bft) NW 321 29,0 km/h (5 Bft)
07.01.2012 06:00 3,4 C 72 % 0,0 l/m 15,9 km/h (3 Bft) W-SW 242 22,5 km/h (4 Bft)
07.01.2012 06:01 3,3 C 72 % 0,0 l/m 13,0 km/h (3 Bft) W-NW 297 19,3 km/h (3 Bft)
07.01.2012 06:02 3,3 C 72 % 0,0 l/m 16,8 km/h (3 Bft) W-NW 291 24,1 km/h (4 Bft)
07.01.2012 06:03 3,3 C 72 % 0,0 l/m 13,9 km/h (3 Bft) N-NO 12 22,5 km/h (4 Bft)
07.01.2012 06:04 3,3 C 72 % 0,0 l/m 16,8 km/h (3 Bft) SW 217 24,1 km/h (4 Bft)
07.01.2012 06:05 3,4 C 72 % 0,0 l/m 15,8 km/h (3 Bft) NW 313 30,6 km/h (5 Bft)
07.01.2012 06:06 3,4 C 72 % 0,0 l/m 17,0 km/h (3 Bft) NW 307 32,2 km/h (5 Bft)
07.01.2012 06:07 3,4 C 72 % 0,0 l/m 21,9 km/h (4 Bft) W-NW 295 27,4 km/h (4 Bft)
07.01.2012 06:08 3,4 C 72 % 0,0 l/m 18,0 km/h (3 Bft) W-NW 283 27,4 km/h (4 Bft)
07.01.2012 06:09 3,4 C 72 % 0,0 l/m 20,7 km/h (4 Bft) NW 308 29,0 km/h (5 Bft)
07.01.2012 06:10 3,4 C 72 % 0,0 l/m 19,0 km/h (3 Bft) W-NW 285 24,1 km/h (4 Bft)
07.01.2012 06:11 3,4 C 72 % 0,0 l/m 12,5 km/h (3 Bft) W-NW 293 17,7 km/h (3 Bft)
07.01.2012 06:12 3,4 C 72 % 0,0 l/m 13,1 km/h (3 Bft) W-NW 301 20,9 km/h (4 Bft)
07.01.2012 06:13 3,4 C 72 % 0,0 l/m 18,7 km/h (3 Bft) W-NW 301 25,7 km/h (4 Bft)
07.01.2012 06:14 3,4 C 72 % 0,0 l/m 11,6 km/h (2 Bft) W-SW 246 20,9 km/h (4 Bft)
07.01.2012 06:15 3,4 C 73 % 0,0 l/m 17,4 km/h (3 Bft) NW 308 30,6 km/h (5 Bft)
07.01.2012 06:16 3,4 C 73 % 0,0 l/m 13,9 km/h (3 Bft) W-NW 296 22,5 km/h (4 Bft)
07.01.2012 06:17 3,4 C 73 % 0,0 l/m 12,6 km/h (3 Bft) N-NW 332 22,5 km/h (4 Bft)
07.01.2012 06:18 3,4 C 73 % 0,0 l/m 16,8 km/h (3 Bft) W-NW 295 30,6 km/h (5 Bft)
07.01.2012 06:19 3,4 C 73 % 0,0 l/m 12,8 km/h (3 Bft) W-NW 289 24,1 km/h (4 Bft)
07.01.2012 06:20 3,4 C 73 % 0,0 l/m 15,1 km/h (3 Bft) W-NW 283 22,5 km/h (4 Bft)
07.01.2012 06:21 3,4 C 73 % 0,0 l/m 9,3 km/h (2 Bft) W 262 20,9 km/h (4 Bft)
07.01.2012 06:22 3,4 C 73 % 0,0 l/m 22,3 km/h (4 Bft) W-NW 295 30,6 km/h (5 Bft)
07.01.2012 06:23 3,4 C 73 % 0,0 l/m 12,2 km/h (2 Bft) N-NW 339 30,6 km/h (5 Bft)
07.01.2012 06:24 3,4 C 73 % 0,0 l/m 15,7 km/h (3 Bft) W-NW 295 29,0 km/h (5 Bft)
07.01.2012 06:25 3,4 C 73 % 0,0 l/m 14,7 km/h (3 Bft) W-NW 302 24,1 km/h (4 Bft)
07.01.2012 06:26 3,4 C 73 % 0,0 l/m 15,5 km/h (3 Bft) S-SW 205 27,4 km/h (4 Bft)
07.01.2012 06:27 3,4 C 73 % 0,0 l/m 17,4 km/h (3 Bft) W-NW 293 29,0 km/h (5 Bft)
07.01.2012 06:28 3,5 C 73 % 0,0 l/m 14,6 km/h (3 Bft) W-NW 297 33,8 km/h (5 Bft)
07.01.2012 06:29 3,6 C 72 % 0,0 l/m 26,3 km/h (4 Bft) N-NW 340 33,8 km/h (5 Bft)
07.01.2012 06:30 3,6 C 72 % 0,0 l/m 17,4 km/h (3 Bft) SW 235 32,2 km/h (5 Bft)
07.01.2012 06:31 3,7 C 72 % 0,0 l/m 19,9 km/h (4 Bft) S-SO 150 33,8 km/h (5 Bft)
07.01.2012 06:32 3,7 C 71 % 0,0 l/m 22,5 km/h (4 Bft) NW 312 37,0 km/h (5 Bft)
07.01.2012 06:33 3,8 C 71 % 0,0 l/m 23,6 km/h (4 Bft) W-NW 297 33,8 km/h (5 Bft)
07.01.2012 06:34 3,8 C 71 % 0,0 l/m 14,5 km/h (3 Bft) NW 315 25,7 km/h (4 Bft)
07.01.2012 06:35 3,8 C 71 % 0,0 l/m 19,6 km/h (3 Bft) N 358 27,4 km/h (4 Bft)
07.01.2012 06:36 3,8 C 71 % 0,0 l/m 13,7 km/h (3 Bft) W-NW 291 22,5 km/h (4 Bft)
07.01.2012 06:37 3,8 C 71 % 0,0 l/m 16,9 km/h (3 Bft) W 280 30,6 km/h (5 Bft)
07.01.2012 06:38 3,8 C 71 % 0,0 l/m 11,8 km/h (2 Bft) N-NW 345 17,7 km/h (3 Bft)
07.01.2012 06:39 3,8 C 72 % 0,0 l/m 13,2 km/h (3 Bft) S-SW 198 20,9 km/h (4 Bft)
07.01.2012 06:40 3,8 C 72 % 0,0 l/m 13,3 km/h (3 Bft) N-NW 328 20,9 km/h (4 Bft)
07.01.2012 06:41 3,8 C 72 % 0,0 l/m 15,3 km/h (3 Bft) W-NW 295 22,5 km/h (4 Bft)
07.01.2012 06:42 3,8 C 72 % 0,0 l/m 21,5 km/h (4 Bft) W-NW 293 33,8 km/h (5 Bft)
07.01.2012 06:43 3,8 C 71 % 0,0 l/m 20,6 km/h (4 Bft) NW 308 33,8 km/h (5 Bft)
07.01.2012 06:44 3,9 C 71 % 0,0 l/m 23,3 km/h (4 Bft) NW 304 30,6 km/h (5 Bft)
07.01.2012 06:45 3,9 C 71 % 0,0 l/m 17,4 km/h (3 Bft) W-NW 295 30,6 km/h (5 Bft)
07.01.2012 06:46 3,9 C 71 % 0,0 l/m 18,4 km/h (3 Bft) NW 312 30,6 km/h (5 Bft)
07.01.2012 06:47 3,9 C 71 % 0,0 l/m 23,4 km/h (4 Bft) W-NW 297 27,4 km/h (4 Bft)
07.01.2012 06:48 3,9 C 71 % 0,0 l/m 19,3 km/h (3 Bft) W-NW 295 29,0 km/h (5 Bft)
07.01.2012 06:49 3,9 C 71 % 0,0 l/m 23,5 km/h (4 Bft) W-NW 293 40,2 km/h (6 Bft)
07.01.2012 06:50 3,9 C 71 % 0,0 l/m 19,6 km/h (3 Bft) W-NW 300 25,7 km/h (4 Bft)
07.01.2012 06:51 4,0 C 71 % 0,0 l/m 22,3 km/h (4 Bft) W 264 30,6 km/h (5 Bft)
07.01.2012 06:52 3,9 C 71 % 0,0 l/m 22,5 km/h (4 Bft) W-NW 288 35,4 km/h (5 Bft)
07.01.2012 06:53 3,9 C 71 % 0,0 l/m 22,3 km/h (4 Bft) W-SW 250 30,6 km/h (5 Bft)
07.01.2012 06:54 4,0 C 71 % 0,0 l/m 25,8 km/h (4 Bft) NW 304 37,0 km/h (5 Bft)
07.01.2012 06:55 4,0 C 71 % 0,0 l/m 24,6 km/h (4 Bft) W-SW 257 37,0 km/h (5 Bft)
07.01.2012 06:56 4,0 C 71 % 0,0 l/m 18,9 km/h (3 Bft) NW 305 29,0 km/h (5 Bft)
07.01.2012 06:57 4,0 C 71 % 0,0 l/m 23,8 km/h (4 Bft) NW 304 33,8 km/h (5 Bft)
07.01.2012 06:58 4,0 C 71 % 0,0 l/m 19,6 km/h (3 Bft) W-NW 293 25,7 km/h (4 Bft)
07.01.2012 06:59 4,0 C 71 % 0,0 l/m 13,1 km/h (3 Bft) W-NW 287 24,1 km/h (4 Bft)
07.01.2012 07:00 4,0 C 71 % 0,0 l/m 17,9 km/h (3 Bft) W-NW 287 24,1 km/h (4 Bft)
07.01.2012 07:01 4,0 C 71 % 0,0 l/m 14,0 km/h (3 Bft) W-NW 295 20,9 km/h (4 Bft)
07.01.2012 07:02 3,9 C 71 % 0,0 l/m 19,4 km/h (3 Bft) W-NW 293 25,7 km/h (4 Bft)
07.01.2012 07:03 3,9 C 71 % 0,0 l/m 14,6 km/h (3 Bft) N 351 22,5 km/h (4 Bft)
07.01.2012 07:04 3,9 C 71 % 0,0 l/m 12,5 km/h (3 Bft) W-NW 301 20,9 km/h (4 Bft)
07.01.2012 07:05 3,9 C 71 % 0,0 l/m 15,4 km/h (3 Bft) SW 221 24,1 km/h (4 Bft)
07.01.2012 07:06 3,9 C 71 % 0,0 l/m 17,5 km/h (3 Bft) W-NW 282 29,0 km/h (5 Bft)
07.01.2012 07:07 3,9 C 71 % 0,0 l/m 16,1 km/h (3 Bft) NW 306 24,1 km/h (4 Bft)
07.01.2012 07:08 3,9 C 71 % 0,0 l/m 15,5 km/h (3 Bft) W-NW 297 20,9 km/h (4 Bft)
07.01.2012 07:09 3,9 C 71 % 0,0 l/m 13,8 km/h (3 Bft) W-NW 296 20,9 km/h (4 Bft)
07.01.2012 07:10 3,9 C 71 % 0,0 l/m 20,5 km/h (4 Bft) W 273 27,4 km/h (4 Bft)
07.01.2012 07:11 3,9 C 71 % 0,0 l/m 13,9 km/h (3 Bft) W 269 22,5 km/h (4 Bft)
07.01.2012 07:12 3,9 C 71 % 0,0 l/m 10,5 km/h (2 Bft) W-NW 293 17,7 km/h (3 Bft)
07.01.2012 07:13 3,9 C 71 % 0,0 l/m 14,6 km/h (3 Bft) W-NW 293 20,9 km/h (4 Bft)
07.01.2012 07:14 3,9 C 71 % 0,0 l/m 13,0 km/h (3 Bft) W-NW 293 19,3 km/h (3 Bft)
07.01.2012 07:15 3,9 C 71 % 0,0 l/m 18,3 km/h (3 Bft) W-NW 302 24,1 km/h (4 Bft)
07.01.2012 07:16 3,9 C 71 % 0,0 l/m 12,4 km/h (3 Bft) W-NW 298 19,3 km/h (3 Bft)
07.01.2012 07:17 3,9 C 71 % 0,0 l/m 14,5 km/h (3 Bft) W 281 20,9 km/h (4 Bft)
07.01.2012 07:18 3,9 C 71 % 0,0 l/m 12,4 km/h (3 Bft) W-NW 300 17,7 km/h (3 Bft)
07.01.2012 07:19 3,9 C 71 % 0,0 l/m 13,4 km/h (3 Bft) W-NW 293 19,3 km/h (3 Bft)
07.01.2012 07:20 3,9 C 71 % 0,0 l/m 19,6 km/h (3 Bft) W-SW 255 20,9 km/h (4 Bft)
07.01.2012 07:21 3,9 C 71 % 0,0 l/m 15,5 km/h (3 Bft) N-NW 338 19,3 km/h (3 Bft)
07.01.2012 07:22 3,9 C 71 % 0,0 l/m 11,0 km/h (2 Bft) NW 308 20,9 km/h (4 Bft)
07.01.2012 07:23 3,9 C 71 % 0,0 l/m 10,3 km/h (2 Bft) W 260 16,1 km/h (3 Bft)
07.01.2012 07:24 3,9 C 71 % 0,0 l/m 12,5 km/h (3 Bft) W-NW 283 19,3 km/h (3 Bft)
07.01.2012 07:25 3,9 C 71 % 0,0 l/m 12,1 km/h (2 Bft) W-NW 300 22,5 km/h (4 Bft)
07.01.2012 07:26 3,9 C 71 % 0,0 l/m 14,8 km/h (3 Bft) W-NW 289 20,9 km/h (4 Bft)
07.01.2012 07:27 3,9 C 71 % 0,0 l/m 14,1 km/h (3 Bft) W 260 20,9 km/h (4 Bft)
07.01.2012 07:28 3,9 C 71 % 0,0 l/m 8,0 km/h (2 Bft) NW 304 14,5 km/h (3 Bft)
07.01.2012 07:29 3,9 C 71 % 0,0 l/m 15,2 km/h (3 Bft) W-NW 290 22,5 km/h (4 Bft)
07.01.2012 07:30 3,9 C 71 % 0,0 l/m 15,5 km/h (3 Bft) NW 312 19,3 km/h (3 Bft)
07.01.2012 07:31 3,9 C 71 % 0,0 l/m 17,9 km/h (3 Bft) W-NW 291 24,1 km/h (4 Bft)
07.01.2012 07:32 3,9 C 71 % 0,0 l/m 14,5 km/h (3 Bft) W-NW 295 20,9 km/h (4 Bft)
07.01.2012 07:33 3,9 C 71 % 0,0 l/m 10,9 km/h (2 Bft) W-NW 295 19,3 km/h (3 Bft)
07.01.2012 07:34 3,9 C 71 % 0,0 l/m 13,9 km/h (3 Bft) N-NW 332 20,9 km/h (4 Bft)
07.01.2012 07:35 3,9 C 71 % 0,0 l/m 13,2 km/h (3 Bft) W-NW 301 22,5 km/h (4 Bft)
07.01.2012 07:36 3,9 C 71 % 0,0 l/m 12,6 km/h (3 Bft) NO 51 20,9 km/h (4 Bft)
07.01.2012 07:37 3,9 C 71 % 0,0 l/m 11,3 km/h (2 Bft) NW 312 17,7 km/h (3 Bft)
07.01.2012 07:38 3,9 C 71 % 0,0 l/m 10,5 km/h (2 Bft) NW 304 19,3 km/h (3 Bft)
07.01.2012 07:39 3,9 C 70 % 0,0 l/m 12,3 km/h (3 Bft) W-SW 243 25,7 km/h (4 Bft)
07.01.2012 07:40 3,9 C 70 % 0,0 l/m 12,0 km/h (2 Bft) W-NW 283 17,7 km/h (3 Bft)
07.01.2012 07:41 3,9 C 71 % 0,0 l/m 11,1 km/h (2 Bft) W-NW 298 14,5 km/h (3 Bft)
07.01.2012 07:42 3,9 C 71 % 0,0 l/m 9,8 km/h (2 Bft) NW 314 24,1 km/h (4 Bft)
07.01.2012 07:43 3,8 C 71 % 0,0 l/m 12,5 km/h (3 Bft) W-NW 287 20,9 km/h (4 Bft)
07.01.2012 07:44 3,8 C 71 % 0,0 l/m 13,5 km/h (3 Bft) NW 304 25,7 km/h (4 Bft)
07.01.2012 07:45 3,8 C 71 % 0,0 l/m 13,7 km/h (3 Bft) S 191 20,9 km/h (4 Bft)
07.01.2012 07:46 3,8 C 71 % 0,0 l/m 10,9 km/h (2 Bft) W-NW 301 16,1 km/h (3 Bft)
07.01.2012 07:47 3,9 C 70 % 0,0 l/m 18,4 km/h (3 Bft) NW 306 25,7 km/h (4 Bft)
07.01.2012 07:48 3,9 C 70 % 0,0 l/m 18,8 km/h (3 Bft) W-NW 289 29,0 km/h (5 Bft)
07.01.2012 07:49 3,9 C 70 % 0,0 l/m 16,9 km/h (3 Bft) W 260 22,5 km/h (4 Bft)
07.01.2012 07:50 3,9 C 70 % 0,0 l/m 13,3 km/h (3 Bft) NW 314 19,3 km/h (3 Bft)
07.01.2012 07:51 3,9 C 70 % 0,0 l/m 7,5 km/h (2 Bft) W 263 14,5 km/h (3 Bft)
07.01.2012 07:52 3,9 C 70 % 0,0 l/m 10,8 km/h (2 Bft) W-NW 282 19,3 km/h (3 Bft)
07.01.2012 07:53 3,9 C 70 % 0,0 l/m 12,1 km/h (2 Bft) W-NW 300 22,5 km/h (4 Bft)
07.01.2012 07:54 3,9 C 70 % 0,0 l/m 14,3 km/h (3 Bft) NW 304 19,3 km/h (3 Bft)
07.01.2012 07:55 3,9 C 70 % 0,0 l/m 15,1 km/h (3 Bft) W-SW 257 22,5 km/h (4 Bft)
07.01.2012 07:56 3,9 C 70 % 0,0 l/m 12,4 km/h (3 Bft) W-NW 289 20,9 km/h (4 Bft)
07.01.2012 07:57 3,9 C 70 % 0,0 l/m 10,2 km/h (2 Bft) W-NW 294 17,7 km/h (3 Bft)
07.01.2012 07:58 3,9 C 70 % 0,0 l/m 10,7 km/h (2 Bft) W-NW 300 17,7 km/h (3 Bft)
07.01.2012 07:59 3,9 C 70 % 0,0 l/m 13,3 km/h (3 Bft) NW 304 20,9 km/h (4 Bft)
07.01.2012 08:00 3,9 C 70 % 0,0 l/m 16,0 km/h (3 Bft) W-SW 257 24,1 km/h (4 Bft)
07.01.2012 08:01 3,9 C 70 % 0,0 l/m 10,3 km/h (2 Bft) NW 319 19,3 km/h (3 Bft)
07.01.2012 08:02 3,9 C 70 % 0,0 l/m 8,2 km/h (2 Bft) W-SW 244 16,1 km/h (3 Bft)
07.01.2012 08:03 3,9 C 70 % 0,0 l/m 12,8 km/h (3 Bft) W-SW 244 20,9 km/h (4 Bft)
07.01.2012 08:04 3,9 C 70 % 0,0 l/m 10,7 km/h (2 Bft) W 274 17,7 km/h (3 Bft)
07.01.2012 08:05 3,9 C 70 % 0,0 l/m 7,9 km/h (2 Bft) W-NW 285 11,3 km/h (2 Bft)
07.01.2012 08:06 3,9 C 70 % 0,0 l/m 10,9 km/h (2 Bft) W-NW 296 24,1 km/h (4 Bft)
07.01.2012 08:07 3,8 C 70 % 0,0 l/m 4,9 km/h (1 Bft) W-NW 291 8,0 km/h (2 Bft)
07.01.2012 08:08 3,8 C 70 % 0,0 l/m 10,7 km/h (2 Bft) S 187 19,3 km/h (3 Bft)
07.01.2012 08:09 3,8 C 71 % 0,0 l/m 9,8 km/h (2 Bft) W-NW 297 17,7 km/h (3 Bft)
07.01.2012 08:10 3,8 C 71 % 0,0 l/m 15,1 km/h (3 Bft) W-NW 301 19,3 km/h (3 Bft)
07.01.2012 08:11 3,8 C 71 % 0,0 l/m 12,7 km/h (3 Bft) NW 306 17,7 km/h (3 Bft)
07.01.2012 08:12 3,8 C 71 % 0,0 l/m 10,5 km/h (2 Bft) SW 222 16,1 km/h (3 Bft)
07.01.2012 08:13 3,8 C 71 % 0,0 l/m 11,6 km/h (2 Bft) W-NW 295 22,5 km/h (4 Bft)
07.01.2012 08:14 3,8 C 71 % 0,0 l/m 16,8 km/h (3 Bft) W-NW 283 20,9 km/h (4 Bft)
07.01.2012 08:15 3,8 C 71 % 0,0 l/m 12,8 km/h (3 Bft) W-NW 288 20,9 km/h (4 Bft)
07.01.2012 08:16 3,8 C 71 % 0,0 l/m 13,4 km/h (3 Bft) W-NW 288 17,7 km/h (3 Bft)
07.01.2012 08:17 3,8 C 71 % 0,0 l/m 11,5 km/h (2 Bft) W 277 17,7 km/h (3 Bft)
07.01.2012 08:18 3,8 C 71 % 0,0 l/m 15,5 km/h (3 Bft) S-SW 203 27,4 km/h (4 Bft)
07.01.2012 08:19 3,8 C 71 % 0,0 l/m 12,4 km/h (3 Bft) N-NW 345 17,7 km/h (3 Bft)
07.01.2012 08:20 3,8 C 71 % 0,0 l/m 11,4 km/h (2 Bft) W-SW 246 17,7 km/h (3 Bft)
07.01.2012 08:21 3,8 C 71 % 0,0 l/m 9,3 km/h (2 Bft) NW 308 14,5 km/h (3 Bft)
07.01.2012 08:22 3,8 C 71 % 0,0 l/m 8,3 km/h (2 Bft) W-NW 294 14,5 km/h (3 Bft)
07.01.2012 08:23 3,8 C 71 % 0,0 l/m 11,6 km/h (2 Bft) W-NW 291 17,7 km/h (3 Bft)
07.01.2012 08:24 3,8 C 71 % 0,0 l/m 15,0 km/h (3 Bft) NO 49 24,1 km/h (4 Bft)
07.01.2012 08:25 3,9 C 71 % 0,0 l/m 17,8 km/h (3 Bft) W-SW 252 25,7 km/h (4 Bft)
07.01.2012 08:26 3,9 C 71 % 0,0 l/m 12,9 km/h (3 Bft) W-NW 291 24,1 km/h (4 Bft)
07.01.2012 08:27 3,9 C 71 % 0,0 l/m 20,2 km/h (4 Bft) N-NO 16 29,0 km/h (5 Bft)
07.01.2012 08:28 4,0 C 71 % 0,0 l/m 15,5 km/h (3 Bft) NW 321 30,6 km/h (5 Bft)
07.01.2012 08:29 4,1 C 71 % 0,0 l/m 15,3 km/h (3 Bft) NW 317 27,4 km/h (4 Bft)
07.01.2012 08:30 4,1 C 71 % 0,0 l/m 17,8 km/h (3 Bft) N-NW 338 30,6 km/h (5 Bft)
07.01.2012 08:31 4,1 C 71 % 0,0 l/m 17,8 km/h (3 Bft) W-NW 294 33,8 km/h (5 Bft)
07.01.2012 08:32 4,2 C 71 % 0,0 l/m 10,0 km/h (2 Bft) SW 215 19,3 km/h (3 Bft)
07.01.2012 08:33 4,2 C 71 % 0,0 l/m 17,9 km/h (3 Bft) W-NW 284 27,4 km/h (4 Bft)
07.01.2012 08:34 4,3 C 71 % 0,0 l/m 17,7 km/h (3 Bft) W 281 24,1 km/h (4 Bft)
07.01.2012 08:35 4,3 C 71 % 0,0 l/m 12,4 km/h (3 Bft) W-NW 298 19,3 km/h (3 Bft)
07.01.2012 08:36 4,3 C 71 % 0,0 l/m 16,2 km/h (3 Bft) N-NW 345 29,0 km/h (5 Bft)
07.01.2012 08:37 4,3 C 71 % 0,0 l/m 19,6 km/h (3 Bft) W-NW 293 30,6 km/h (5 Bft)
07.01.2012 08:38 4,3 C 71 % 0,0 l/m 13,7 km/h (3 Bft) NW 304 19,3 km/h (3 Bft)
07.01.2012 08:39 4,4 C 70 % 0,0 l/m 18,3 km/h (3 Bft) W-NW 291 29,0 km/h (5 Bft)
07.01.2012 08:40 4,4 C 71 % 0,0 l/m 12,2 km/h (2 Bft) NO 40 17,7 km/h (3 Bft)
07.01.2012 08:41 4,4 C 71 % 0,0 l/m 11,2 km/h (2 Bft) W 267 22,5 km/h (4 Bft)
07.01.2012 08:42 4,4 C 70 % 0,0 l/m 16,8 km/h (3 Bft) W-NW 290 25,7 km/h (4 Bft)
07.01.2012 08:43 4,5 C 70 % 0,0 l/m 10,6 km/h (2 Bft) NW 313 19,3 km/h (3 Bft)
07.01.2012 08:44 4,5 C 70 % 0,0 l/m 10,0 km/h (2 Bft) W 277 14,5 km/h (3 Bft)
07.01.2012 08:45 4,5 C 70 % 0,0 l/m 14,4 km/h (3 Bft) W-NW 286 24,1 km/h (4 Bft)
07.01.2012 08:46 4,5 C 70 % 0,0 l/m 13,3 km/h (3 Bft) N-NO 22 19,3 km/h (3 Bft)
07.01.2012 08:47 4,5 C 70 % 0,0 l/m 9,4 km/h (2 Bft) W-NW 285 17,7 km/h (3 Bft)
07.01.2012 08:48 4,5 C 70 % 0,0 l/m 6,7 km/h (2 Bft) S-SW 193 14,5 km/h (3 Bft)
07.01.2012 08:49 4,6 C 70 % 0,0 l/m 11,4 km/h (2 Bft) SW 235 16,1 km/h (3 Bft)
07.01.2012 08:50 4,6 C 70 % 0,0 l/m 8,7 km/h (2 Bft) W-NW 293 12,9 km/h (3 Bft)
07.01.2012 08:51 4,6 C 70 % 0,0 l/m 14,4 km/h (3 Bft) W 278 17,7 km/h (3 Bft)
07.01.2012 08:52 4,6 C 70 % 0,0 l/m 9,7 km/h (2 Bft) N-NW 330 14,5 km/h (3 Bft)
07.01.2012 08:53 4,6 C 70 % 0,0 l/m 8,5 km/h (2 Bft) W-NW 290 11,3 km/h (2 Bft)
07.01.2012 08:54 4,6 C 70 % 0,0 l/m 12,7 km/h (3 Bft) W-NW 294 16,1 km/h (3 Bft)
07.01.2012 08:55 4,6 C 70 % 0,0 l/m 10,0 km/h (2 Bft) W 278 16,1 km/h (3 Bft)
07.01.2012 08:56 4,6 C 70 % 0,0 l/m 20,6 km/h (4 Bft) NW 316 25,7 km/h (4 Bft)
07.01.2012 08:57 4,6 C 70 % 0,0 l/m 11,2 km/h (2 Bft) W-NW 295 17,7 km/h (3 Bft)
07.01.2012 08:58 4,6 C 70 % 0,0 l/m 10,3 km/h (2 Bft) NW 307 16,1 km/h (3 Bft)
07.01.2012 08:59 4,6 C 70 % 0,0 l/m 7,2 km/h (2 Bft) W-NW 297 14,5 km/h (3 Bft)
07.01.2012 09:00 4,6 C 70 % 0,0 l/m 11,2 km/h (2 Bft) W-NW 285 16,1 km/h (3 Bft)
07.01.2012 09:01 4,6 C 70 % 0,0 l/m 11,5 km/h (2 Bft) W 267 19,3 km/h (3 Bft)
07.01.2012 09:02 4,6 C 70 % 0,0 l/m 10,4 km/h (2 Bft) N-NO 29 17,7 km/h (3 Bft)
07.01.2012 09:03 4,6 C 70 % 0,0 l/m 11,6 km/h (2 Bft) NW 325 24,1 km/h (4 Bft)
07.01.2012 09:04 4,6 C 70 % 0,0 l/m 10,1 km/h (2 Bft) W-NW 284 17,7 km/h (3 Bft)
07.01.2012 09:05 4,6 C 70 % 0,0 l/m 9,3 km/h (2 Bft) W-NW 293 12,9 km/h (3 Bft)
07.01.2012 09:06 4,6 C 70 % 0,0 l/m 11,3 km/h (2 Bft) NW 312 16,1 km/h (3 Bft)
07.01.2012 09:07 4,5 C 70 % 0,0 l/m 9,4 km/h (2 Bft) W 276 14,5 km/h (3 Bft)
07.01.2012 09:08 4,5 C 70 % 0,0 l/m 6,3 km/h (2 Bft) W-NW 293 14,5 km/h (3 Bft)
07.01.2012 09:09 4,5 C 70 % 0,0 l/m 8,3 km/h (2 Bft) SW 222 12,9 km/h (3 Bft)
07.01.2012 09:10 4,5 C 70 % 0,0 l/m 14,0 km/h (3 Bft) NW 316 24,1 km/h (4 Bft)
07.01.2012 09:11 4,6 C 70 % 0,0 l/m 10,8 km/h (2 Bft) W-NW 290 20,9 km/h (4 Bft)
07.01.2012 09:12 4,6 C 70 % 0,0 l/m 10,2 km/h (2 Bft) NW 314 16,1 km/h (3 Bft)
07.01.2012 09:13 4,6 C 70 % 0,0 l/m 11,1 km/h (2 Bft) NW 312 19,3 km/h (3 Bft)
07.01.2012 09:14 4,6 C 70 % 0,0 l/m 10,9 km/h (2 Bft) W-NW 298 20,9 km/h (4 Bft)
07.01.2012 09:15 4,6 C 70 % 0,0 l/m 10,0 km/h (2 Bft) W-NW 288 17,7 km/h (3 Bft)
07.01.2012 09:16 4,6 C 70 % 0,0 l/m 9,8 km/h (2 Bft) N-NW 330 20,9 km/h (4 Bft)
07.01.2012 09:17 4,6 C 70 % 0,0 l/m 18,4 km/h (3 Bft) W-NW 288 25,7 km/h (4 Bft)
07.01.2012 09:18 4,6 C 70 % 0,0 l/m 10,4 km/h (2 Bft) NW 312 14,5 km/h (3 Bft)
07.01.2012 09:19 4,6 C 70 % 0,0 l/m 9,2 km/h (2 Bft) NW 312 16,1 km/h (3 Bft)
07.01.2012 09:20 4,6 C 70 % 0,0 l/m 5,4 km/h (1 Bft) NW 321 8,0 km/h (2 Bft)
07.01.2012 09:21 4,6 C 70 % 0,0 l/m 10,8 km/h (2 Bft) SO 139 17,7 km/h (3 Bft)
07.01.2012 09:22 4,6 C 70 % 0,0 l/m 5,7 km/h (1 Bft) NW 314 12,9 km/h (3 Bft)
07.01.2012 09:23 4,6 C 70 % 0,0 l/m 9,9 km/h (2 Bft) W-NW 295 16,1 km/h (3 Bft)
07.01.2012 09:24 4,6 C 70 % 0,0 l/m 16,0 km/h (3 Bft) S-SW 200 25,7 km/h (4 Bft)
07.01.2012 09:25 4,7 C 70 % 0,0 l/m 8,1 km/h (2 Bft) NW 317 19,3 km/h (3 Bft)
07.01.2012 09:26 4,7 C 70 % 0,0 l/m 14,2 km/h (3 Bft) NW 312 19,3 km/h (3 Bft)
07.01.2012 09:27 4,7 C 70 % 0,0 l/m 12,0 km/h (2 Bft) NW 312 19,3 km/h (3 Bft)
07.01.2012 09:28 4,7 C 70 % 0,0 l/m 16,6 km/h (3 Bft) W-SW 245 25,7 km/h (4 Bft)
07.01.2012 09:29 4,7 C 70 % 0,0 l/m 17,5 km/h (3 Bft) W 269 22,5 km/h (4 Bft)
07.01.2012 09:30 4,7 C 70 % 0,0 l/m 17,2 km/h (3 Bft) W-NW 300 24,1 km/h (4 Bft)
07.01.2012 09:31 4,7 C 70 % 0,0 l/m 15,2 km/h (3 Bft) W-NW 297 20,9 km/h (4 Bft)
07.01.2012 09:32 4,7 C 70 % 0,0 l/m 9,9 km/h (2 Bft) NW 307 16,1 km/h (3 Bft)
07.01.2012 09:33 4,7 C 70 % 0,0 l/m 7,2 km/h (2 Bft) W-NW 290 12,9 km/h (3 Bft)
07.01.2012 09:34 4,7 C 70 % 0,0 l/m 13,3 km/h (3 Bft) W-SW 244 25,7 km/h (4 Bft)
07.01.2012 09:35 4,7 C 70 % 0,0 l/m 18,9 km/h (3 Bft) W-SW 256 25,7 km/h (4 Bft)
07.01.2012 09:36 4,7 C 70 % 0,0 l/m 16,7 km/h (3 Bft) W-NW 300 29,0 km/h (5 Bft)
07.01.2012 09:37 4,7 C 70 % 0,0 l/m 14,7 km/h (3 Bft) N-NW 346 25,7 km/h (4 Bft)
07.01.2012 09:38 4,7 C 70 % 0,0 l/m 11,9 km/h (2 Bft) W-NW 297 25,7 km/h (4 Bft)
07.01.2012 09:39 4,7 C 70 % 0,0 l/m 17,2 km/h (3 Bft) W-NW 293 27,4 km/h (4 Bft)
07.01.2012 09:40 4,8 C 69 % 0,0 l/m 15,5 km/h (3 Bft) W-SW 257 25,7 km/h (4 Bft)
07.01.2012 09:41 4,8 C 69 % 0,0 l/m 19,7 km/h (3 Bft) W-NW 297 30,6 km/h (5 Bft)
07.01.2012 09:42 4,8 C 69 % 0,0 l/m 17,4 km/h (3 Bft) W 266 24,1 km/h (4 Bft)
07.01.2012 09:43 4,8 C 69 % 0,0 l/m 15,1 km/h (3 Bft) NW 317 27,4 km/h (4 Bft)
07.01.2012 09:44 4,8 C 69 % 0,0 l/m 14,0 km/h (3 Bft) O-NO 72 22,5 km/h (4 Bft)
07.01.2012 09:45 4,8 C 69 % 0,0 l/m 14,6 km/h (3 Bft) NW 308 25,7 km/h (4 Bft)
07.01.2012 09:46 4,8 C 69 % 0,0 l/m 21,1 km/h (4 Bft) W-NW 288 30,6 km/h (5 Bft)
07.01.2012 09:47 4,8 C 69 % 0,0 l/m 20,2 km/h (4 Bft) W-NW 295 29,0 km/h (5 Bft)
07.01.2012 09:48 4,8 C 69 % 0,0 l/m 19,2 km/h (3 Bft) NW 307 27,4 km/h (4 Bft)
07.01.2012 09:49 4,8 C 69 % 0,0 l/m 24,3 km/h (4 Bft) W-NW 291 30,6 km/h (5 Bft)
07.01.2012 09:50 4,8 C 69 % 0,0 l/m 19,6 km/h (3 Bft) NW 308 33,8 km/h (5 Bft)
07.01.2012 09:51 4,8 C 68 % 0,0 l/m 24,2 km/h (4 Bft) NW 309 35,4 km/h (5 Bft)
07.01.2012 09:52 4,9 C 68 % 0,0 l/m 19,4 km/h (3 Bft) NW 305 32,2 km/h (5 Bft)
07.01.2012 09:53 4,9 C 69 % 0,0 l/m 19,3 km/h (3 Bft) W-NW 284 27,4 km/h (4 Bft)
07.01.2012 09:54 4,9 C 69 % 0,0 l/m 14,8 km/h (3 Bft) W-NW 297 24,1 km/h (4 Bft)
07.01.2012 09:55 4,9 C 68 % 0,0 l/m 22,2 km/h (4 Bft) W-NW 293 29,0 km/h (5 Bft)
07.01.2012 09:56 4,9 C 68 % 0,0 l/m 18,3 km/h (3 Bft) W-NW 290 25,7 km/h (4 Bft)
07.01.2012 09:57 4,9 C 69 % 0,0 l/m 18,4 km/h (3 Bft) W-NW 293 22,5 km/h (4 Bft)
07.01.2012 09:58 4,9 C 69 % 0,0 l/m 17,8 km/h (3 Bft) N-NW 333 24,1 km/h (4 Bft)
07.01.2012 09:59 4,9 C 69 % 0,0 l/m 11,6 km/h (2 Bft) W-NW 297 20,9 km/h (4 Bft)
07.01.2012 10:00 4,9 C 69 % 0,0 l/m 13,6 km/h (3 Bft) W-NW 297 19,3 km/h (3 Bft)
07.01.2012 10:01 4,9 C 69 % 0,0 l/m 12,4 km/h (3 Bft) W-NW 297 20,9 km/h (4 Bft)
07.01.2012 10:02 4,9 C 69 % 0,0 l/m 20,3 km/h (4 Bft) W 278 30,6 km/h (5 Bft)
07.01.2012 10:03 4,9 C 69 % 0,0 l/m 15,0 km/h (3 Bft) W-NW 290 22,5 km/h (4 Bft)
07.01.2012 10:04 4,9 C 69 % 0,0 l/m 7,4 km/h (2 Bft) W-SW 242 12,9 km/h (3 Bft)
07.01.2012 10:05 4,9 C 68 % 0,0 l/m 17,4 km/h (3 Bft) W 276 33,8 km/h (5 Bft)
07.01.2012 10:06 4,9 C 68 % 0,0 l/m 21,6 km/h (4 Bft) NW 312 30,6 km/h (5 Bft)
07.01.2012 10:07 5,0 C 68 % 0,0 l/m 13,5 km/h (3 Bft) W-NW 291 19,3 km/h (3 Bft)
07.01.2012 10:08 5,0 C 68 % 0,0 l/m 19,7 km/h (3 Bft) W 269 30,6 km/h (5 Bft)
07.01.2012 10:09 5,0 C 69 % 0,0 l/m 19,2 km/h (3 Bft) W 273 35,4 km/h (5 Bft)
07.01.2012 10:10 5,0 C 68 % 0,0 l/m 20,9 km/h (4 Bft) NW 306 33,8 km/h (5 Bft)
07.01.2012 10:11 5,0 C 69 % 0,0 l/m 16,6 km/h (3 Bft) W-NW 294 33,8 km/h (5 Bft)
07.01.2012 10:12 5,1 C 69 % 0,0 l/m 18,6 km/h (3 Bft) NW 318 25,7 km/h (4 Bft)
07.01.2012 10:13 5,1 C 69 % 0,0 l/m 21,7 km/h (4 Bft) W-NW 283 29,0 km/h (5 Bft)
07.01.2012 10:14 5,0 C 68 % 0,0 l/m 15,1 km/h (3 Bft) NO 39 25,7 km/h (4 Bft)
07.01.2012 10:15 5,1 C 68 % 0,0 l/m 10,6 km/h (2 Bft) NW 305 24,1 km/h (4 Bft)
07.01.2012 10:16 5,1 C 68 % 0,0 l/m 17,3 km/h (3 Bft) NW 314 25,7 km/h (4 Bft)
07.01.2012 10:17 5,1 C 68 % 0,0 l/m 18,7 km/h (3 Bft) W-NW 284 27,4 km/h (4 Bft)
07.01.2012 10:18 5,1 C 68 % 0,0 l/m 21,5 km/h (4 Bft) W 276 38,6 km/h (5 Bft)
07.01.2012 10:19 5,1 C 68 % 0,0 l/m 19,5 km/h (3 Bft) W 280 30,6 km/h (5 Bft)
07.01.2012 10:20 5,1 C 68 % 0,0 l/m 16,6 km/h (3 Bft) W 277 25,7 km/h (4 Bft)
07.01.2012 10:21 5,1 C 68 % 0,0 l/m 10,6 km/h (2 Bft) W 273 17,7 km/h (3 Bft)
07.01.2012 10:22 5,1 C 68 % 0,0 l/m 14,7 km/h (3 Bft) W 266 25,7 km/h (4 Bft)
07.01.2012 10:23 5,1 C 68 % 0,0 l/m 14,3 km/h (3 Bft) S-SO 148 24,1 km/h (4 Bft)
07.01.2012 10:24 5,1 C 68 % 0,0 l/m 19,8 km/h (3 Bft) W-NW 293 32,2 km/h (5 Bft)
07.01.2012 10:25 5,1 C 68 % 0,0 l/m 17,6 km/h (3 Bft) NW 311 30,6 km/h (5 Bft)
07.01.2012 10:26 5,1 C 67 % 0,0 l/m 17,3 km/h (3 Bft) W-NW 300 27,4 km/h (4 Bft)
07.01.2012 10:27 5,1 C 67 % 0,0 l/m 19,3 km/h (3 Bft) W-NW 293 27,4 km/h (4 Bft)
07.01.2012 10:28 5,1 C 67 % 0,0 l/m 18,7 km/h (3 Bft) W 263 30,6 km/h (5 Bft)
07.01.2012 10:29 5,1 C 67 % 0,0 l/m 20,5 km/h (4 Bft) NW 305 27,4 km/h (4 Bft)
07.01.2012 10:30 5,1 C 67 % 0,0 l/m 13,6 km/h (3 Bft) NW 318 20,9 km/h (4 Bft)
07.01.2012 10:31 5,1 C 67 % 0,0 l/m 18,3 km/h (3 Bft) W-NW 293 32,2 km/h (5 Bft)
07.01.2012 10:32 5,1 C 67 % 0,0 l/m 12,1 km/h (2 Bft) W-NW 300 20,9 km/h (4 Bft)
07.01.2012 10:33 5,2 C 67 % 0,0 l/m 8,7 km/h (2 Bft) NW 307 22,5 km/h (4 Bft)
07.01.2012 10:34 5,2 C 67 % 0,0 l/m 15,2 km/h (3 Bft) W-NW 288 25,7 km/h (4 Bft)
07.01.2012 10:35 5,2 C 67 % 0,0 l/m 19,7 km/h (3 Bft) NW 312 33,8 km/h (5 Bft)
07.01.2012 10:36 5,2 C 67 % 0,0 l/m 17,1 km/h (3 Bft) W 280 24,1 km/h (4 Bft)
07.01.2012 10:37 5,2 C 67 % 0,0 l/m 18,9 km/h (3 Bft) W-NW 296 25,7 km/h (4 Bft)
07.01.2012 10:38 5,2 C 67 % 0,0 l/m 15,2 km/h (3 Bft) W-NW 298 19,3 km/h (3 Bft)
07.01.2012 10:39 5,2 C 67 % 0,0 l/m 21,7 km/h (4 Bft) N-NW 330 27,4 km/h (4 Bft)
07.01.2012 10:40 5,2 C 65 % 0,0 l/m 27,3 km/h (4 Bft) W-NW 300 37,0 km/h (5 Bft)
07.01.2012 10:41 5,2 C 65 % 0,0 l/m 21,0 km/h (4 Bft) W 278 30,6 km/h (5 Bft)
07.01.2012 10:42 5,2 C 66 % 0,0 l/m 13,9 km/h (3 Bft) W-NW 300 24,1 km/h (4 Bft)
07.01.2012 10:43 5,2 C 66 % 0,0 l/m 27,4 km/h (4 Bft) N-NO 21 40,2 km/h (6 Bft)
07.01.2012 10:44 5,2 C 66 % 0,0 l/m 23,3 km/h (4 Bft) W-NW 298 29,0 km/h (5 Bft)
07.01.2012 10:45 5,2 C 66 % 0,0 l/m 17,0 km/h (3 Bft) W-NW 290 29,0 km/h (5 Bft)
07.01.2012 10:46 5,3 C 66 % 0,0 l/m 19,9 km/h (4 Bft) N-NW 332 29,0 km/h (5 Bft)
07.01.2012 10:47 5,3 C 66 % 0,0 l/m 23,3 km/h (4 Bft) W-NW 301 32,2 km/h (5 Bft)
07.01.2012 10:48 5,3 C 66 % 0,0 l/m 19,7 km/h (3 Bft) NW 318 30,6 km/h (5 Bft)
07.01.2012 10:49 5,3 C 66 % 0,0 l/m 7,2 km/h (2 Bft) N-NW 341 11,3 km/h (2 Bft)
07.01.2012 10:50 5,4 C 66 % 0,0 l/m 11,4 km/h (2 Bft) W-NW 297 24,1 km/h (4 Bft)
07.01.2012 10:51 5,4 C 65 % 0,0 l/m 16,1 km/h (3 Bft) W-NW 288 25,7 km/h (4 Bft)
07.01.2012 10:52 5,4 C 65 % 0,0 l/m 14,5 km/h (3 Bft) W-NW 295 17,7 km/h (3 Bft)
07.01.2012 10:53 5,4 C 65 % 0,0 l/m 16,3 km/h (3 Bft) W 281 24,1 km/h (4 Bft)
07.01.2012 10:54 5,4 C 65 % 0,0 l/m 14,3 km/h (3 Bft) W-NW 284 24,1 km/h (4 Bft)
07.01.2012 10:55 5,4 C 65 % 0,0 l/m 18,7 km/h (3 Bft) W 276 30,6 km/h (5 Bft)
07.01.2012 10:56 5,4 C 64 % 0,0 l/m 12,8 km/h (3 Bft) NW 321 22,5 km/h (4 Bft)
07.01.2012 10:57 5,4 C 64 % 0,0 l/m 14,2 km/h (3 Bft) W-NW 302 19,3 km/h (3 Bft)
07.01.2012 10:58 5,5 C 64 % 0,0 l/m 14,1 km/h (3 Bft) W-NW 282 22,5 km/h (4 Bft)
07.01.2012 10:59 5,6 C 65 % 0,0 l/m 15,4 km/h (3 Bft) NW 305 24,1 km/h (4 Bft)
07.01.2012 11:00 5,6 C 64 % 0,0 l/m 17,7 km/h (3 Bft) W 274 29,0 km/h (5 Bft)
07.01.2012 11:01 5,6 C 64 % 0,0 l/m 20,3 km/h (4 Bft) W-SW 238 27,4 km/h (4 Bft)
07.01.2012 11:02 5,7 C 65 % 0,0 l/m 13,5 km/h (3 Bft) W-NW 301 22,5 km/h (4 Bft)
07.01.2012 11:03 5,7 C 65 % 0,0 l/m 6,8 km/h (2 Bft) NW 314 14,5 km/h (3 Bft)
07.01.2012 11:04 5,8 C 65 % 0,0 l/m 13,9 km/h (3 Bft) W-NW 302 25,7 km/h (4 Bft)
07.01.2012 11:05 5,8 C 64 % 0,0 l/m 8,8 km/h (2 Bft) W 280 17,7 km/h (3 Bft)
07.01.2012 11:06 5,9 C 64 % 0,0 l/m 21,2 km/h (4 Bft) W-NW 288 35,4 km/h (5 Bft)
07.01.2012 11:07 5,9 C 62 % 0,0 l/m 11,3 km/h (2 Bft) W-SW 248 19,3 km/h (3 Bft)
07.01.2012 11:08 5,9 C 62 % 0,0 l/m 11,5 km/h (2 Bft) NW 305 19,3 km/h (3 Bft)
07.01.2012 11:09 6,0 C 62 % 0,0 l/m 14,2 km/h (3 Bft) W-NW 302 22,5 km/h (4 Bft)
07.01.2012 11:10 6,0 C 61 % 0,0 l/m 10,9 km/h (2 Bft) NW 321 22,5 km/h (4 Bft)
07.01.2012 11:11 6,0 C 60 % 0,0 l/m 20,2 km/h (4 Bft) W-NW 288 30,6 km/h (5 Bft)
07.01.2012 11:12 6,1 C 61 % 0,0 l/m 16,3 km/h (3 Bft) W 266 29,0 km/h (5 Bft)
07.01.2012 11:13 6,1 C 60 % 0,0 l/m 14,9 km/h (3 Bft) W-NW 294 25,7 km/h (4 Bft)
07.01.2012 11:14 6,1 C 61 % 0,0 l/m 15,2 km/h (3 Bft) NW 304 24,1 km/h (4 Bft)
07.01.2012 11:15 6,1 C 61 % 0,0 l/m 10,5 km/h (2 Bft) W-NW 297 17,7 km/h (3 Bft)
07.01.2012 11:16 6,1 C 61 % 0,0 l/m 6,9 km/h (2 Bft) W-NW 291 9,7 km/h (2 Bft)
07.01.2012 11:17 6,1 C 61 % 0,0 l/m 14,5 km/h (3 Bft) NW 312 19,3 km/h (3 Bft)
07.01.2012 11:18 6,2 C 60 % 0,0 l/m 10,0 km/h (2 Bft) NW 325 16,1 km/h (3 Bft)
07.01.2012 11:19 6,2 C 60 % 0,0 l/m 8,5 km/h (2 Bft) W-NW 300 19,3 km/h (3 Bft)
07.01.2012 11:20 6,2 C 60 % 0,0 l/m 8,4 km/h (2 Bft) N-NO 26 17,7 km/h (3 Bft)
07.01.2012 11:21 6,2 C 61 % 0,0 l/m 13,1 km/h (3 Bft) NW 305 22,5 km/h (4 Bft)
07.01.2012 11:22 6,2 C 59 % 0,0 l/m 18,1 km/h (3 Bft) W 276 29,0 km/h (5 Bft)
07.01.2012 11:23 6,2 C 59 % 0,0 l/m 11,6 km/h (2 Bft) W-NW 288 17,7 km/h (3 Bft)
07.01.2012 11:24 6,3 C 59 % 0,0 l/m 8,6 km/h (2 Bft) NW 316 19,3 km/h (3 Bft)
07.01.2012 11:25 6,3 C 57 % 0,0 l/m 15,2 km/h (3 Bft) NO 40 22,5 km/h (4 Bft)
07.01.2012 11:26 6,3 C 57 % 0,0 l/m 18,3 km/h (3 Bft) NW 314 27,4 km/h (4 Bft)
07.01.2012 11:27 6,3 C 57 % 0,0 l/m 29,9 km/h (5 Bft) W-NW 288 38,6 km/h (5 Bft)
07.01.2012 11:28 6,3 C 55 % 0,0 l/m 17,3 km/h (3 Bft) NW 312 37,0 km/h (5 Bft)
07.01.2012 11:29 6,3 C 56 % 0,0 l/m 22,1 km/h (4 Bft) W-NW 294 29,0 km/h (5 Bft)
07.01.2012 11:30 6,3 C 56 % 0,0 l/m 20,0 km/h (4 Bft) W-NW 286 29,0 km/h (5 Bft)
07.01.2012 11:31 6,3 C 56 % 0,0 l/m 21,0 km/h (4 Bft) W-NW 284 30,6 km/h (5 Bft)
07.01.2012 11:32 6,4 C 56 % 0,0 l/m 19,6 km/h (3 Bft) W 265 24,1 km/h (4 Bft)
07.01.2012 11:33 6,4 C 56 % 0,0 l/m 19,8 km/h (3 Bft) W 280 27,4 km/h (4 Bft)
07.01.2012 11:34 6,5 C 56 % 0,0 l/m 17,9 km/h (3 Bft) W 276 25,7 km/h (4 Bft)
07.01.2012 11:35 6,6 C 56 % 0,0 l/m 13,3 km/h (3 Bft) W 260 17,7 km/h (3 Bft)
07.01.2012 11:36 6,6 C 56 % 0,0 l/m 15,4 km/h (3 Bft) SO 137 24,1 km/h (4 Bft)
07.01.2012 11:37 6,7 C 55 % 0,0 l/m 13,6 km/h (3 Bft) W 280 22,5 km/h (4 Bft)
07.01.2012 11:38 6,7 C 55 % 0,0 l/m 16,3 km/h (3 Bft) NW 304 24,1 km/h (4 Bft)
07.01.2012 11:39 6,8 C 55 % 0,0 l/m 16,6 km/h (3 Bft) NW 326 25,7 km/h (4 Bft)
07.01.2012 11:40 6,8 C 55 % 0,0 l/m 16,4 km/h (3 Bft) NW 305 30,6 km/h (5 Bft)
07.01.2012 11:41 6,8 C 54 % 0,0 l/m 14,3 km/h (3 Bft) W-NW 287 25,7 km/h (4 Bft)
07.01.2012 11:42 6,8 C 54 % 0,0 l/m 13,2 km/h (3 Bft) W-NW 301 19,3 km/h (3 Bft)
07.01.2012 11:43 6,9 C 54 % 0,0 l/m 18,6 km/h (3 Bft) N-NO 20 24,1 km/h (4 Bft)
07.01.2012 11:44 6,9 C 54 % 0,0 l/m 7,9 km/h (2 Bft) W 276 19,3 km/h (3 Bft)
07.01.2012 11:45 6,9 C 53 % 0,0 l/m 10,6 km/h (2 Bft) NW 307 24,1 km/h (4 Bft)
07.01.2012 11:46 6,8 C 52 % 0,0 l/m 14,4 km/h (3 Bft) O 101 29,0 km/h (5 Bft)
07.01.2012 11:47 6,8 C 53 % 0,0 l/m 9,6 km/h (2 Bft) W 281 16,1 km/h (3 Bft)
07.01.2012 11:48 6,8 C 53 % 0,0 l/m 9,2 km/h (2 Bft) NW 314 12,9 km/h (3 Bft)
07.01.2012 11:49 6,8 C 53 % 0,0 l/m 12,5 km/h (3 Bft) NW 312 19,3 km/h (3 Bft)
07.01.2012 11:50 6,7 C 53 % 0,0 l/m 12,8 km/h (3 Bft) W-SW 247 16,1 km/h (3 Bft)
07.01.2012 11:51 6,7 C 53 % 0,0 l/m 11,7 km/h (2 Bft) NW 314 19,3 km/h (3 Bft)
07.01.2012 11:52 6,7 C 52 % 0,0 l/m 14,2 km/h (3 Bft) W 278 25,7 km/h (4 Bft)
07.01.2012 11:53 6,7 C 53 % 0,0 l/m 9,6 km/h (2 Bft) SO 132 22,5 km/h (4 Bft)
07.01.2012 11:54 6,7 C 54 % 0,0 l/m 4,2 km/h (1 Bft) W 259 8,0 km/h (2 Bft)
07.01.2012 11:55 6,7 C 54 % 0,0 l/m 7,4 km/h (2 Bft) NW 306 14,5 km/h (3 Bft)
07.01.2012 11:56 6,7 C 53 % 0,0 l/m 14,1 km/h (3 Bft) W-SW 243 17,7 km/h (3 Bft)
07.01.2012 11:57 6,6 C 54 % 0,0 l/m 14,3 km/h (3 Bft) W-SW 238 19,3 km/h (3 Bft)
07.01.2012 11:58 6,6 C 54 % 0,0 l/m 9,7 km/h (2 Bft) W 276 16,1 km/h (3 Bft)
07.01.2012 11:59 6,6 C 54 % 0,0 l/m 10,4 km/h (2 Bft) W-NW 300 16,1 km/h (3 Bft)
07.01.2012 12:00 6,6 C 54 % 0,0 l/m 9,9 km/h (2 Bft) NW 313 12,9 km/h (3 Bft)
07.01.2012 12:01 6,6 C 53 % 0,0 l/m 13,2 km/h (3 Bft) W-NW 290 24,1 km/h (4 Bft)
07.01.2012 12:02 6,6 C 54 % 0,0 l/m 10,8 km/h (2 Bft) N-NW 328 17,7 km/h (3 Bft)
07.01.2012 12:03 6,6 C 53 % 0,0 l/m 13,9 km/h (3 Bft) W-NW 290 20,9 km/h (4 Bft)
07.01.2012 12:04 6,6 C 53 % 0,0 l/m 12,6 km/h (3 Bft) W-NW 300 17,7 km/h (3 Bft)
07.01.2012 12:05 6,6 C 53 % 0,0 l/m 14,7 km/h (3 Bft) W-NW 284 19,3 km/h (3 Bft)
07.01.2012 12:06 6,6 C 53 % 0,0 l/m 11,7 km/h (2 Bft) NW 315 16,1 km/h (3 Bft)
07.01.2012 12:07 6,6 C 52 % 0,0 l/m 12,7 km/h (3 Bft) W-SW 238 19,3 km/h (3 Bft)
07.01.2012 12:08 6,6 C 53 % 0,0 l/m 9,4 km/h (2 Bft) W-NW 293 12,9 km/h (3 Bft)
07.01.2012 12:09 6,6 C 52 % 0,0 l/m 7,3 km/h (2 Bft) NW 314 11,3 km/h (2 Bft)
07.01.2012 12:10 6,6 C 52 % 0,0 l/m 10,5 km/h (2 Bft) NW 313 19,3 km/h (3 Bft)
07.01.2012 12:11 6,6 C 52 % 0,0 l/m 10,5 km/h (2 Bft) W 280 19,3 km/h (3 Bft)
07.01.2012 12:12 6,6 C 52 % 0,0 l/m 10,8 km/h (2 Bft) W-NW 301 19,3 km/h (3 Bft)
07.01.2012 12:13 6,6 C 51 % 0,0 l/m 13,2 km/h (3 Bft) W-SW 240 16,1 km/h (3 Bft)
07.01.2012 12:14 6,6 C 52 % 0,0 l/m 9,9 km/h (2 Bft) W-SW 246 14,5 km/h (3 Bft)
07.01.2012 12:15 6,6 C 52 % 0,0 l/m 10,3 km/h (2 Bft) SW 217 14,5 km/h (3 Bft)
07.01.2012 12:16 6,6 C 51 % 0,0 l/m 15,8 km/h (3 Bft) W-SW 249 19,3 km/h (3 Bft)
07.01.2012 12:17 6,6 C 51 % 0,0 l/m 10,7 km/h (2 Bft) N-NW 341 17,7 km/h (3 Bft)
07.01.2012 12:18 6,6 C 51 % 0,0 l/m 7,8 km/h (2 Bft) W 263 16,1 km/h (3 Bft)
07.01.2012 12:19 6,6 C 51 % 0,0 l/m 15,3 km/h (3 Bft) W 273 20,9 km/h (4 Bft)
07.01.2012 12:20 6,6 C 51 % 0,0 l/m 14,2 km/h (3 Bft) SW 236 19,3 km/h (3 Bft)
07.01.2012 12:21 6,6 C 51 % 0,0 l/m 7,0 km/h (2 Bft) W-NW 289 16,1 km/h (3 Bft)
07.01.2012 12:22 6,6 C 51 % 0,0 l/m 16,6 km/h (3 Bft) W-SW 250 32,2 km/h (5 Bft)
07.01.2012 12:23 6,6 C 50 % 0,0 l/m 21,6 km/h (4 Bft) W 264 32,2 km/h (5 Bft)
07.01.2012 12:24 6,6 C 49 % 0,0 l/m 28,3 km/h (4 Bft) W 280 40,2 km/h (6 Bft)
07.01.2012 12:25 6,6 C 50 % 0,0 l/m 19,8 km/h (3 Bft) W-NW 302 29,0 km/h (5 Bft)
07.01.2012 12:26 6,6 C 50 % 0,0 l/m 18,1 km/h (3 Bft) SW 217 27,4 km/h (4 Bft)
07.01.2012 12:27 6,6 C 50 % 0,0 l/m 17,9 km/h (3 Bft) N 5 27,4 km/h (4 Bft)
07.01.2012 12:28 6,6 C 49 % 0,0 l/m 19,6 km/h (3 Bft) W-SW 240 27,4 km/h (4 Bft)
07.01.2012 12:29 6,5 C 49 % 0,0 l/m 20,2 km/h (4 Bft) W 264 27,4 km/h (4 Bft)
07.01.2012 12:30 6,5 C 49 % 0,0 l/m 12,4 km/h (3 Bft) W-SW 248 22,5 km/h (4 Bft)
07.01.2012 12:31 6,5 C 50 % 0,0 l/m 13,3 km/h (3 Bft) W-NW 293 22,5 km/h (4 Bft)
07.01.2012 12:32 6,5 C 49 % 0,0 l/m 17,7 km/h (3 Bft) S-SW 203 29,0 km/h (5 Bft)
07.01.2012 12:33 6,5 C 50 % 0,0 l/m 14,3 km/h (3 Bft) W-NW 300 24,1 km/h (4 Bft)
07.01.2012 12:34 6,5 C 50 % 0,0 l/m 17,0 km/h (3 Bft) W 277 25,7 km/h (4 Bft)
07.01.2012 12:35 6,5 C 50 % 0,0 l/m 14,5 km/h (3 Bft) SO 142 22,5 km/h (4 Bft)
07.01.2012 12:36 6,4 C 50 % 0,0 l/m 14,3 km/h (3 Bft) SW 229 24,1 km/h (4 Bft)
07.01.2012 12:37 6,4 C 50 % 0,0 l/m 13,2 km/h (3 Bft) W 267 19,3 km/h (3 Bft)
07.01.2012 12:38 6,4 C 50 % 0,0 l/m 15,0 km/h (3 Bft) W-SW 248 25,7 km/h (4 Bft)
07.01.2012 12:39 6,4 C 50 % 0,0 l/m 8,0 km/h (2 Bft) W 280 20,9 km/h (4 Bft)
07.01.2012 12:40 6,4 C 50 % 0,0 l/m 12,1 km/h (2 Bft) O-NO 74 22,5 km/h (4 Bft)
07.01.2012 12:41 6,4 C 50 % 0,0 l/m 7,9 km/h (2 Bft) SW 232 17,7 km/h (3 Bft)
07.01.2012 12:42 6,4 C 50 % 0,0 l/m 9,8 km/h (2 Bft) W-NW 288 12,9 km/h (3 Bft)
07.01.2012 12:43 6,4 C 50 % 0,0 l/m 9,7 km/h (2 Bft) S 191 14,5 km/h (3 Bft)
07.01.2012 12:44 6,4 C 50 % 0,0 l/m 9,7 km/h (2 Bft) S-SO 165 19,3 km/h (3 Bft)
07.01.2012 12:45 6,4 C 50 % 0,0 l/m 8,8 km/h (2 Bft) W 274 19,3 km/h (3 Bft)
07.01.2012 12:46 6,4 C 51 % 0,0 l/m 13,7 km/h (3 Bft) W-NW 295 22,5 km/h (4 Bft)
07.01.2012 12:47 6,4 C 50 % 0,0 l/m 14,6 km/h (3 Bft) W-SW 249 24,1 km/h (4 Bft)
07.01.2012 12:48 6,4 C 50 % 0,0 l/m 13,6 km/h (3 Bft) SW 228 19,3 km/h (3 Bft)
07.01.2012 12:49 6,4 C 50 % 0,0 l/m 16,0 km/h (3 Bft) W-SW 250 24,1 km/h (4 Bft)
07.01.2012 12:50 6,4 C 50 % 0,0 l/m 12,2 km/h (2 Bft) W-NW 284 19,3 km/h (3 Bft)
07.01.2012 12:51 6,4 C 50 % 0,0 l/m 12,7 km/h (3 Bft) W-SW 253 20,9 km/h (4 Bft)
07.01.2012 12:52 6,4 C 50 % 0,0 l/m 12,7 km/h (3 Bft) O 81 22,5 km/h (4 Bft)
07.01.2012 12:53 6,4 C 50 % 0,0 l/m 11,8 km/h (2 Bft) W-SW 252 19,3 km/h (3 Bft)
07.01.2012 12:54 6,4 C 51 % 0,0 l/m 7,9 km/h (2 Bft) W-NW 286 20,9 km/h (4 Bft)
07.01.2012 12:55 6,4 C 50 % 0,0 l/m 11,3 km/h (2 Bft) W-NW 288 22,5 km/h (4 Bft)
07.01.2012 12:56 6,4 C 51 % 0,0 l/m 9,7 km/h (2 Bft) W-NW 301 19,3 km/h (3 Bft)
07.01.2012 12:57 6,4 C 51 % 0,0 l/m 8,5 km/h (2 Bft) SW 228 14,5 km/h (3 Bft)
07.01.2012 12:58 6,4 C 51 % 0,0 l/m 11,3 km/h (2 Bft) W-SW 241 16,1 km/h (3 Bft)
07.01.2012 12:59 6,3 C 51 % 0,0 l/m 7,6 km/h (2 Bft) W 274 11,3 km/h (2 Bft)
07.01.2012 13:00 6,3 C 51 % 0,0 l/m 8,7 km/h (2 Bft) W-NW 289 12,9 km/h (3 Bft)
07.01.2012 13:01 6,3 C 51 % 0,0 l/m 6,4 km/h (2 Bft) W-NW 293 12,9 km/h (3 Bft)
07.01.2012 13:02 6,3 C 51 % 0,0 l/m 10,9 km/h (2 Bft) W 271 19,3 km/h (3 Bft)
07.01.2012 13:03 6,3 C 51 % 0,0 l/m 10,9 km/h (2 Bft) W-NW 291 17,7 km/h (3 Bft)
07.01.2012 13:04 6,3 C 51 % 0,0 l/m 7,4 km/h (2 Bft) NO 37 14,5 km/h (3 Bft)
07.01.2012 13:05 6,3 C 51 % 0,0 l/m 5,2 km/h (1 Bft) W-NW 293 8,0 km/h (2 Bft)
07.01.2012 13:06 6,3 C 52 % 0,0 l/m 5,0 km/h (1 Bft) W 267 16,1 km/h (3 Bft)
07.01.2012 13:07 6,3 C 52 % 0,0 l/m 7,5 km/h (2 Bft) NW 309 14,5 km/h (3 Bft)
07.01.2012 13:08 6,3 C 52 % 0,0 l/m 6,3 km/h (2 Bft) W 280 16,1 km/h (3 Bft)
07.01.2012 13:09 6,3 C 52 % 0,0 l/m 12,6 km/h (3 Bft) W-NW 284 22,5 km/h (4 Bft)
07.01.2012 13:10 6,3 C 51 % 0,0 l/m 9,1 km/h (2 Bft) W-SW 256 16,1 km/h (3 Bft)
07.01.2012 13:11 6,3 C 51 % 0,0 l/m 13,3 km/h (3 Bft) N-NO 13 17,7 km/h (3 Bft)
07.01.2012 13:12 6,3 C 51 % 0,0 l/m 7,4 km/h (2 Bft) W-SW 240 14,5 km/h (3 Bft)
07.01.2012 13:13 6,3 C 52 % 0,0 l/m 10,3 km/h (2 Bft) W 266 19,3 km/h (3 Bft)
07.01.2012 13:14 6,3 C 51 % 0,0 l/m 15,3 km/h (3 Bft) N-NW 337 20,9 km/h (4 Bft)
07.01.2012 13:15 6,3 C 51 % 0,0 l/m 13,0 km/h (3 Bft) W 280 19,3 km/h (3 Bft)
07.01.2012 13:16 6,3 C 51 % 0,0 l/m 8,4 km/h (2 Bft) N 353 12,9 km/h (3 Bft)
07.01.2012 13:17 6,3 C 51 % 0,0 l/m 14,6 km/h (3 Bft) W 261 22,5 km/h (4 Bft)
07.01.2012 13:18 6,3 C 51 % 0,0 l/m 12,1 km/h (2 Bft) W-SW 239 20,9 km/h (4 Bft)
07.01.2012 13:19 6,3 C 51 % 0,0 l/m 9,5 km/h (2 Bft) SW 232 16,1 km/h (3 Bft)
07.01.2012 13:20 6,3 C 51 % 0,0 l/m 12,6 km/h (3 Bft) W-SW 252 17,7 km/h (3 Bft)
07.01.2012 13:21 6,3 C 51 % 0,0 l/m 14,4 km/h (3 Bft) W-SW 256 20,9 km/h (4 Bft)
07.01.2012 13:22 6,3 C 51 % 0,0 l/m 9,8 km/h (2 Bft) SW 226 16,1 km/h (3 Bft)
07.01.2012 13:23 6,3 C 51 % 0,0 l/m 12,1 km/h (2 Bft) W-NW 287 17,7 km/h (3 Bft)
07.01.2012 13:24 6,3 C 51 % 0,0 l/m 9,7 km/h (2 Bft) W-SW 250 19,3 km/h (3 Bft)
07.01.2012 13:25 6,3 C 51 % 0,0 l/m 13,3 km/h (3 Bft) W 263 17,7 km/h (3 Bft)
07.01.2012 13:26 6,3 C 51 % 0,0 l/m 10,9 km/h (2 Bft) W-NW 284 17,7 km/h (3 Bft)
07.01.2012 13:27 6,3 C 51 % 0,0 l/m 8,9 km/h (2 Bft) W-NW 285 14,5 km/h (3 Bft)
07.01.2012 13:28 6,3 C 51 % 0,0 l/m 11,9 km/h (2 Bft) S-SW 198 16,1 km/h (3 Bft)
07.01.2012 13:29 6,3 C 51 % 0,0 l/m 10,1 km/h (2 Bft) W 263 24,1 km/h (4 Bft)
07.01.2012 13:30 6,3 C 51 % 0,0 l/m 12,6 km/h (3 Bft) O 95 20,9 km/h (4 Bft)
07.01.2012 13:31 6,3 C 51 % 0,0 l/m 10,7 km/h (2 Bft) W-NW 290 20,9 km/h (4 Bft)
07.01.2012 13:32 6,3 C 50 % 0,0 l/m 18,0 km/h (3 Bft) W-SW 240 22,5 km/h (4 Bft)
07.01.2012 13:33 6,3 C 50 % 0,0 l/m 10,0 km/h (2 Bft) W 271 14,5 km/h (3 Bft)
07.01.2012 13:34 6,3 C 50 % 0,0 l/m 10,1 km/h (2 Bft) SW 219 17,7 km/h (3 Bft)
07.01.2012 13:35 6,3 C 50 % 0,0 l/m 13,9 km/h (3 Bft) W-SW 249 19,3 km/h (3 Bft)
07.01.2012 13:36 6,3 C 50 % 0,0 l/m 10,4 km/h (2 Bft) W 261 17,7 km/h (3 Bft)
07.01.2012 13:37 6,3 C 50 % 0,0 l/m 11,7 km/h (2 Bft) W-SW 243 17,7 km/h (3 Bft)
07.01.2012 13:38 6,3 C 50 % 0,0 l/m 7,2 km/h (2 Bft) W 271 11,3 km/h (2 Bft)
07.01.2012 13:39 6,3 C 50 % 0,0 l/m 7,3 km/h (2 Bft) W-NW 300 14,5 km/h (3 Bft)
07.01.2012 13:40 6,3 C 50 % 0,0 l/m 5,6 km/h (1 Bft) W 263 9,7 km/h (2 Bft)
07.01.2012 13:41 6,3 C 50 % 0,0 l/m 10,5 km/h (2 Bft) W-SW 242 17,7 km/h (3 Bft)
07.01.2012 13:42 6,3 C 50 % 0,0 l/m 9,9 km/h (2 Bft) W 259 12,9 km/h (3 Bft)
07.01.2012 13:43 6,3 C 50 % 0,0 l/m 9,8 km/h (2 Bft) W 273 14,5 km/h (3 Bft)
07.01.2012 13:44 6,3 C 50 % 0,0 l/m 5,6 km/h (1 Bft) W 271 11,3 km/h (2 Bft)
07.01.2012 13:45 6,3 C 50 % 0,0 l/m 11,3 km/h (2 Bft) W-NW 293 17,7 km/h (3 Bft)
07.01.2012 13:46 6,3 C 51 % 0,0 l/m 9,1 km/h (2 Bft) W 278 22,5 km/h (4 Bft)
07.01.2012 13:47 6,3 C 51 % 0,0 l/m 12,9 km/h (3 Bft) W-SW 248 20,9 km/h (4 Bft)
07.01.2012 13:48 6,3 C 51 % 0,0 l/m 9,3 km/h (2 Bft) W-SW 253 20,9 km/h (4 Bft)
07.01.2012 13:49 6,3 C 50 % 0,0 l/m 15,6 km/h (3 Bft) SW 222 22,5 km/h (4 Bft)
07.01.2012 13:50 6,3 C 50 % 0,0 l/m 18,3 km/h (3 Bft) W-SW 245 29,0 km/h (5 Bft)
07.01.2012 13:51 6,3 C 50 % 0,0 l/m 19,8 km/h (3 Bft) NW 309 29,0 km/h (5 Bft)
07.01.2012 13:52 6,3 C 50 % 0,0 l/m 14,8 km/h (3 Bft) W-SW 256 20,9 km/h (4 Bft)
07.01.2012 13:53 6,3 C 50 % 0,0 l/m 13,9 km/h (3 Bft) W-SW 245 19,3 km/h (3 Bft)
07.01.2012 13:54 6,3 C 50 % 0,0 l/m 8,9 km/h (2 Bft) NW 321 14,5 km/h (3 Bft)
07.01.2012 13:55 6,3 C 50 % 0,0 l/m 13,9 km/h (3 Bft) W 277 22,5 km/h (4 Bft)
07.01.2012 13:56 6,2 C 50 % 0,0 l/m 9,1 km/h (2 Bft) W-NW 291 17,7 km/h (3 Bft)
07.01.2012 13:57 6,2 C 51 % 0,0 l/m 8,1 km/h (2 Bft) S-SW 205 17,7 km/h (3 Bft)
07.01.2012 13:58 6,2 C 51 % 0,0 l/m 9,6 km/h (2 Bft) W-SW 243 22,5 km/h (4 Bft)
07.01.2012 13:59 6,2 C 51 % 0,0 l/m 9,9 km/h (2 Bft) S-SW 204 19,3 km/h (3 Bft)
07.01.2012 14:00 6,2 C 52 % 0,0 l/m 15,7 km/h (3 Bft) SW 219 20,9 km/h (4 Bft)
07.01.2012 14:01 6,2 C 52 % 0,0 l/m 20,6 km/h (4 Bft) W-SW 245 27,4 km/h (4 Bft)
07.01.2012 14:02 6,1 C 53 % 0,0 l/m 17,5 km/h (3 Bft) W 262 27,4 km/h (4 Bft)
07.01.2012 14:03 6,1 C 53 % 0,0 l/m 13,2 km/h (3 Bft) W-NW 295 24,1 km/h (4 Bft)
07.01.2012 14:04 6,1 C 53 % 0,0 l/m 14,0 km/h (3 Bft) W 281 25,7 km/h (4 Bft)
07.01.2012 14:05 6,0 C 53 % 0,0 l/m 11,6 km/h (2 Bft) SW 215 19,3 km/h (3 Bft)
07.01.2012 14:06 6,0 C 53 % 0,0 l/m 15,1 km/h (3 Bft) W-SW 242 24,1 km/h (4 Bft)
07.01.2012 14:07 6,0 C 53 % 0,0 l/m 12,2 km/h (2 Bft) W-SW 255 22,5 km/h (4 Bft)
07.01.2012 14:08 5,9 C 54 % 0,0 l/m 6,6 km/h (2 Bft) W 273 12,9 km/h (3 Bft)
07.01.2012 14:09 5,9 C 54 % 0,0 l/m 6,8 km/h (2 Bft) W 274 16,1 km/h (3 Bft)
07.01.2012 14:10 5,9 C 54 % 0,0 l/m 14,8 km/h (3 Bft) W-SW 246 17,7 km/h (3 Bft)
07.01.2012 14:11 5,9 C 54 % 0,0 l/m 14,3 km/h (3 Bft) W 263 24,1 km/h (4 Bft)
07.01.2012 14:12 5,9 C 54 % 0,0 l/m 8,0 km/h (2 Bft) W 264 16,1 km/h (3 Bft)
07.01.2012 14:13 5,8 C 54 % 0,0 l/m 13,4 km/h (3 Bft) N 9 22,5 km/h (4 Bft)
07.01.2012 14:14 5,8 C 54 % 0,0 l/m 17,1 km/h (3 Bft) W 264 25,7 km/h (4 Bft)
07.01.2012 14:15 5,8 C 54 % 0,0 l/m 19,7 km/h (3 Bft) W-NW 284 25,7 km/h (4 Bft)
07.01.2012 14:16 5,8 C 55 % 0,0 l/m 10,2 km/h (2 Bft) W-NW 284 14,5 km/h (3 Bft)
07.01.2012 14:17 5,8 C 55 % 0,0 l/m 12,2 km/h (2 Bft) W-SW 246 17,7 km/h (3 Bft)
07.01.2012 14:18 5,8 C 56 % 0,0 l/m 13,8 km/h (3 Bft) W 271 20,9 km/h (4 Bft)
07.01.2012 14:19 5,7 C 56 % 0,0 l/m 12,8 km/h (3 Bft) W-SW 256 17,7 km/h (3 Bft)
07.01.2012 14:20 5,7 C 56 % 0,0 l/m 13,8 km/h (3 Bft) W-SW 257 22,5 km/h (4 Bft)
07.01.2012 14:21 5,7 C 56 % 0,0 l/m 12,8 km/h (3 Bft) W 273 19,3 km/h (3 Bft)
07.01.2012 14:22 5,7 C 56 % 0,0 l/m 13,9 km/h (3 Bft) W-SW 245 25,7 km/h (4 Bft)
07.01.2012 14:23 5,7 C 56 % 0,0 l/m 14,6 km/h (3 Bft) NW 319 19,3 km/h (3 Bft)
07.01.2012 14:24 5,7 C 56 % 0,0 l/m 12,7 km/h (3 Bft) W-SW 253 20,9 km/h (4 Bft)
07.01.2012 14:25 5,7 C 56 % 0,0 l/m 13,3 km/h (3 Bft) O 86 22,5 km/h (4 Bft)
07.01.2012 14:26 5,7 C 56 % 0,0 l/m 10,0 km/h (2 Bft) W-SW 252 22,5 km/h (4 Bft)
07.01.2012 14:27 5,7 C 56 % 0,0 l/m 14,0 km/h (3 Bft) W-SW 250 22,5 km/h (4 Bft)
07.01.2012 14:28 5,7 C 56 % 0,0 l/m 11,3 km/h (2 Bft) NW 304 17,7 km/h (3 Bft)
07.01.2012 14:29 5,7 C 56 % 0,0 l/m 11,3 km/h (2 Bft) W-SW 242 19,3 km/h (3 Bft)
07.01.2012 14:30 5,7 C 56 % 0,0 l/m 12,5 km/h (3 Bft) W-SW 239 17,7 km/h (3 Bft)
07.01.2012 14:31 5,7 C 57 % 0,0 l/m 12,8 km/h (3 Bft) W 264 22,5 km/h (4 Bft)
07.01.2012 14:32 5,7 C 57 % 0,0 l/m 12,5 km/h (3 Bft) W 260 22,5 km/h (4 Bft)
07.01.2012 14:33 5,7 C 57 % 0,0 l/m 15,2 km/h (3 Bft) W-SW 243 19,3 km/h (3 Bft)
07.01.2012 14:34 5,7 C 57 % 0,0 l/m 8,0 km/h (2 Bft) W 264 17,7 km/h (3 Bft)
07.01.2012 14:35 5,6 C 57 % 0,0 l/m 9,3 km/h (2 Bft) NW 319 17,7 km/h (3 Bft)
07.01.2012 14:36 5,6 C 57 % 0,0 l/m 7,6 km/h (2 Bft) W-SW 240 11,3 km/h (2 Bft)
07.01.2012 14:37 5,6 C 57 % 0,0 l/m 10,2 km/h (2 Bft) W 259 17,7 km/h (3 Bft)
07.01.2012 14:38 5,6 C 57 % 0,0 l/m 11,5 km/h (2 Bft) W-SW 253 14,5 km/h (3 Bft)
07.01.2012 14:39 5,6 C 57 % 0,0 l/m 7,0 km/h (2 Bft) W-SW 240 11,3 km/h (2 Bft)
07.01.2012 14:40 5,6 C 57 % 0,0 l/m 4,2 km/h (1 Bft) W-NW 295 6,4 km/h (2 Bft)
07.01.2012 14:41 5,5 C 57 % 0,0 l/m 5,4 km/h (1 Bft) W 263 12,9 km/h (3 Bft)
07.01.2012 14:42 5,5 C 58 % 0,0 l/m 4,2 km/h (1 Bft) NW 321 8,0 km/h (2 Bft)
07.01.2012 14:43 5,5 C 58 % 0,0 l/m 4,4 km/h (1 Bft) W 280 9,7 km/h (2 Bft)
07.01.2012 14:44 5,5 C 58 % 0,0 l/m 2,8 km/h (1 Bft) W-SW 238 4,8 km/h (1 Bft)
07.01.2012 14:45 5,5 C 58 % 0,0 l/m 4,4 km/h (1 Bft) W 271 8,0 km/h (2 Bft)
07.01.2012 14:46 5,4 C 58 % 0,0 l/m 4,0 km/h (1 Bft) W 261 6,4 km/h (2 Bft)
07.01.2012 14:47 5,4 C 58 % 0,0 l/m 4,8 km/h (1 Bft) W 273 9,7 km/h (2 Bft)
07.01.2012 14:48 5,4 C 58 % 0,0 l/m 5,1 km/h (1 Bft) W-NW 300 8,0 km/h (2 Bft)
07.01.2012 14:49 5,4 C 58 % 0,0 l/m 2,2 km/h (1 Bft) SW 225 3,2 km/h (1 Bft)
07.01.2012 14:50 5,4 C 58 % 0,0 l/m 2,8 km/h (1 Bft) S 172 4,8 km/h (1 Bft)
07.01.2012 14:51 5,4 C 58 % 0,0 l/m 2,4 km/h (1 Bft) W-SW 255 6,4 km/h (2 Bft)
07.01.2012 14:52 5,4 C 58 % 0,0 l/m 4,9 km/h (1 Bft) W-NW 286 8,0 km/h (2 Bft)
07.01.2012 14:53 5,4 C 58 % 0,0 l/m 3,7 km/h (1 Bft) W-SW 248 4,8 km/h (1 Bft)
07.01.2012 14:54 5,4 C 58 % 0,0 l/m 1,5 km/h (1 Bft) W-NW 297 3,2 km/h (1 Bft)
07.01.2012 14:55 5,4 C 58 % 0,0 l/m 3,2 km/h (1 Bft) W-SW 257 4,8 km/h (1 Bft)
07.01.2012 14:56 5,4 C 58 % 0,0 l/m 2,1 km/h (1 Bft) W-SW 250 4,8 km/h (1 Bft)
07.01.2012 14:57 5,4 C 58 % 0,0 l/m 3,0 km/h (1 Bft) W-SW 257 4,8 km/h (1 Bft)
07.01.2012 14:58 5,4 C 58 % 0,0 l/m 2,4 km/h (1 Bft) W 262 3,2 km/h (1 Bft)
07.01.2012 14:59 5,4 C 58 % 0,0 l/m 0,2 km/h (0 Bft) NW 321 1,6 km/h (1 Bft)
07.01.2012 15:00 5,4 C 58 % 0,0 l/m 0,7 km/h (0 Bft) S-SW 204 1,6 km/h (1 Bft)
07.01.2012 15:01 5,4 C 58 % 0,0 l/m 1,4 km/h (1 Bft) W-SW 245 4,8 km/h (1 Bft)
07.01.2012 15:02 5,4 C 58 % 0,0 l/m 2,3 km/h (1 Bft) W 276 6,4 km/h (2 Bft)
07.01.2012 15:03 5,4 C 57 % 0,0 l/m 3,2 km/h (1 Bft) W 276 4,8 km/h (1 Bft)
07.01.2012 15:04 5,4 C 57 % 0,0 l/m 1,8 km/h (1 Bft) W 267 3,2 km/h (1 Bft)
07.01.2012 15:05 5,4 C 57 % 0,0 l/m 0,8 km/h (0 Bft) N-NW 338 1,6 km/h (1 Bft)
07.01.2012 15:06 5,4 C 57 % 0,0 l/m 0,2 km/h (0 Bft) NW 321 1,6 km/h (1 Bft)
07.01.2012 15:07 5,4 C 57 % 0,0 l/m 0,0 km/h (0 Bft) NW 321 0,0 km/h (0 Bft)
07.01.2012 15:08 5,4 C 56 % 0,0 l/m 1,8 km/h (1 Bft) W-NW 297 3,2 km/h (1 Bft)
07.01.2012 15:09 5,4 C 57 % 0,0 l/m 0,8 km/h (0 Bft) S-SW 195 1,6 km/h (1 Bft)
07.01.2012 15:10 5,4 C 57 % 0,0 l/m 1,2 km/h (1 Bft) W 277 3,2 km/h (1 Bft)
07.01.2012 15:11 5,4 C 57 % 0,0 l/m 0,3 km/h (0 Bft) W 277 1,6 km/h (1 Bft)
07.01.2012 15:12 5,4 C 57 % 0,0 l/m 0,0 km/h (0 Bft) W 277 0,0 km/h (0 Bft)
07.01.2012 15:13 5,4 C 57 % 0,0 l/m 0,0 km/h (0 Bft) SW 226 0,0 km/h (0 Bft)
07.01.2012 15:14 5,4 C 56 % 0,0 l/m 0,0 km/h (0 Bft) SW 222 0,0 km/h (0 Bft)
07.01.2012 15:15 5,4 C 57 % 0,0 l/m 0,0 km/h (0 Bft) SW 214 0,0 km/h (0 Bft)
07.01.2012 15:16 5,4 C 57 % 0,0 l/m 0,4 km/h (0 Bft) SO 145 1,6 km/h (1 Bft)
07.01.2012 15:17 5,4 C 57 % 0,0 l/m 1,4 km/h (1 Bft) SO 145 1,6 km/h (1 Bft)
07.01.2012 15:18 5,4 C 57 % 0,0 l/m 1,9 km/h (1 Bft) SW 224 3,2 km/h (1 Bft)
07.01.2012 15:19 5,4 C 57 % 0,0 l/m 2,3 km/h (1 Bft) SW 232 3,2 km/h (1 Bft)
07.01.2012 15:20 5,4 C 57 % 0,0 l/m 0,9 km/h (0 Bft) W-SW 237 1,6 km/h (1 Bft)
07.01.2012 15:21 5,4 C 57 % 0,0 l/m 1,9 km/h (1 Bft) SW 222 3,2 km/h (1 Bft)
07.01.2012 15:22 5,4 C 57 % 0,0 l/m 2,9 km/h (1 Bft) SW 214 3,2 km/h (1 Bft)
07.01.2012 15:23 5,4 C 57 % 0,0 l/m 3,0 km/h (1 Bft) S-SW 209 3,2 km/h (1 Bft)
07.01.2012 15:24 5,4 C 57 % 0,0 l/m 2,8 km/h (1 Bft) S-SW 201 3,2 km/h (1 Bft)
07.01.2012 15:25 5,4 C 57 % 0,0 l/m 2,9 km/h (1 Bft) S-SO 167 4,8 km/h (1 Bft)
07.01.2012 15:26 5,4 C 58 % 0,0 l/m 3,7 km/h (1 Bft) S-SO 155 4,8 km/h (1 Bft)
07.01.2012 15:27 5,4 C 58 % 0,0 l/m 4,3 km/h (1 Bft) S-SO 155 4,8 km/h (1 Bft)
07.01.2012 15:28 5,3 C 59 % 0,0 l/m 4,0 km/h (1 Bft) S-SO 151 4,8 km/h (1 Bft)
07.01.2012 15:29 5,3 C 59 % 0,0 l/m 4,4 km/h (1 Bft) S-SO 152 4,8 km/h (1 Bft)
07.01.2012 15:30 5,3 C 59 % 0,0 l/m 3,5 km/h (1 Bft) S-SO 155 4,8 km/h (1 Bft)
07.01.2012 15:31 5,3 C 59 % 0,0 l/m 3,7 km/h (1 Bft) S-SO 148 4,8 km/h (1 Bft)
07.01.2012 15:32 5,3 C 59 % 0,0 l/m 3,6 km/h (1 Bft) S-SO 149 4,8 km/h (1 Bft)
07.01.2012 15:33 5,3 C 58 % 0,0 l/m 2,6 km/h (1 Bft) S-SO 158 3,2 km/h (1 Bft)
07.01.2012 15:34 5,3 C 57 % 0,0 l/m 3,2 km/h (1 Bft) S-SO 153 3,2 km/h (1 Bft)
07.01.2012 15:35 5,3 C 58 % 0,0 l/m 2,6 km/h (1 Bft) S-SW 200 3,2 km/h (1 Bft)
07.01.2012 15:36 5,3 C 58 % 0,0 l/m 0,3 km/h (0 Bft) S-SW 200 1,6 km/h (1 Bft)
07.01.2012 15:37 5,3 C 58 % 0,0 l/m 0,0 km/h (0 Bft) S-SW 200 0,0 km/h (0 Bft)
07.01.2012 15:38 5,3 C 58 % 0,0 l/m 0,6 km/h (0 Bft) S-SW 210 1,6 km/h (1 Bft)
07.01.2012 15:39 5,3 C 57 % 0,0 l/m 0,1 km/h (0 Bft) S-SW 210 1,6 km/h (1 Bft)
07.01.2012 15:40 5,3 C 58 % 0,0 l/m 0,1 km/h (0 Bft) S-SW 210 1,6 km/h (1 Bft)
07.01.2012 15:41 5,3 C 59 % 0,0 l/m 0,0 km/h (0 Bft) S-SW 210 0,0 km/h (0 Bft)
07.01.2012 15:42 5,3 C 59 % 0,0 l/m 0,0 km/h (0 Bft) S-SW 210 0,0 km/h (0 Bft)
07.01.2012 15:43 5,3 C 58 % 0,0 l/m 0,0 km/h (0 Bft) S-SW 210 0,0 km/h (0 Bft)
07.01.2012 15:44 5,3 C 57 % 0,0 l/m 0,1 km/h (0 Bft) S-SW 210 1,6 km/h (1 Bft)
07.01.2012 15:45 5,2 C 57 % 0,0 l/m 0,6 km/h (0 Bft) W-SW 238 1,6 km/h (1 Bft)
07.01.2012 15:46 5,3 C 57 % 0,0 l/m 3,7 km/h (1 Bft) SW 236 6,4 km/h (2 Bft)
07.01.2012 15:47 5,3 C 56 % 0,0 l/m 7,8 km/h (2 Bft) W 280 11,3 km/h (2 Bft)
07.01.2012 15:48 5,3 C 57 % 0,0 l/m 8,4 km/h (2 Bft) W 274 11,3 km/h (2 Bft)
07.01.2012 15:49 5,4 C 58 % 0,0 l/m 7,7 km/h (2 Bft) W 266 14,5 km/h (3 Bft)
07.01.2012 15:50 5,4 C 56 % 0,0 l/m 8,8 km/h (2 Bft) SW 235 16,1 km/h (3 Bft)
07.01.2012 15:51 5,5 C 56 % 0,0 l/m 8,5 km/h (2 Bft) W-SW 242 12,9 km/h (3 Bft)
07.01.2012 15:52 5,6 C 56 % 0,0 l/m 7,8 km/h (2 Bft) W-NW 300 11,3 km/h (2 Bft)
07.01.2012 15:53 5,6 C 57 % 0,0 l/m 3,2 km/h (1 Bft) W 263 9,7 km/h (2 Bft)
07.01.2012 15:54 5,6 C 57 % 0,0 l/m 6,6 km/h (2 Bft) W 263 12,9 km/h (3 Bft)
07.01.2012 15:55 5,6 C 56 % 0,0 l/m 6,6 km/h (2 Bft) W 260 9,7 km/h (2 Bft)
07.01.2012 15:56 5,6 C 57 % 0,0 l/m 6,8 km/h (2 Bft) N-NO 29 9,7 km/h (2 Bft)
07.01.2012 15:57 5,6 C 57 % 0,0 l/m 6,8 km/h (2 Bft) W-SW 246 11,3 km/h (2 Bft)
07.01.2012 15:58 5,6 C 57 % 0,0 l/m 8,6 km/h (2 Bft) W-SW 239 11,3 km/h (2 Bft)
07.01.2012 15:59 5,6 C 57 % 0,0 l/m 5,8 km/h (2 Bft) S-SW 205 8,0 km/h (2 Bft)
07.01.2012 16:00 5,6 C 57 % 0,0 l/m 7,3 km/h (2 Bft) S-SW 211 9,7 km/h (2 Bft)
07.01.2012 16:01 5,6 C 57 % 0,0 l/m 8,4 km/h (2 Bft) S-SW 211 9,7 km/h (2 Bft)
07.01.2012 16:02 5,5 C 58 % 0,0 l/m 10,5 km/h (2 Bft) W-SW 238 14,5 km/h (3 Bft)
07.01.2012 16:03 5,5 C 58 % 0,0 l/m 9,9 km/h (2 Bft) W-NW 283 12,9 km/h (3 Bft)
07.01.2012 16:04 5,5 C 58 % 0,0 l/m 7,4 km/h (2 Bft) SW 231 11,3 km/h (2 Bft)
07.01.2012 16:05 5,5 C 58 % 0,0 l/m 11,4 km/h (2 Bft) W-SW 244 16,1 km/h (3 Bft)
07.01.2012 16:06 5,6 C 58 % 0,0 l/m 11,8 km/h (2 Bft) W-SW 246 16,1 km/h (3 Bft)
07.01.2012 16:07 5,6 C 58 % 0,0 l/m 12,0 km/h (2 Bft) SW 219 14,5 km/h (3 Bft)
07.01.2012 16:08 5,6 C 58 % 0,0 l/m 9,5 km/h (2 Bft) S 186 14,5 km/h (3 Bft)
07.01.2012 16:09 5,6 C 58 % 0,0 l/m 9,3 km/h (2 Bft) SW 235 14,5 km/h (3 Bft)
07.01.2012 16:10 5,6 C 58 % 0,0 l/m 11,9 km/h (2 Bft) W-SW 252 14,5 km/h (3 Bft)
07.01.2012 16:11 5,6 C 58 % 0,0 l/m 7,0 km/h (2 Bft) W-SW 242 9,7 km/h (2 Bft)
07.01.2012 16:12 5,6 C 59 % 0,0 l/m 6,9 km/h (2 Bft) SW 233 9,7 km/h (2 Bft)
07.01.2012 16:13 5,6 C 59 % 0,0 l/m 8,8 km/h (2 Bft) SW 219 11,3 km/h (2 Bft)
07.01.2012 16:14 5,6 C 59 % 0,0 l/m 8,4 km/h (2 Bft) SW 225 9,7 km/h (2 Bft)
07.01.2012 16:15 5,6 C 58 % 0,0 l/m 6,5 km/h (2 Bft) S-SW 210 8,0 km/h (2 Bft)
07.01.2012 16:16 5,6 C 59 % 0,0 l/m 8,3 km/h (2 Bft) SW 222 9,7 km/h (2 Bft)
07.01.2012 16:17 5,5 C 59 % 0,0 l/m 5,8 km/h (2 Bft) SW 222 8,0 km/h (2 Bft)
07.01.2012 16:18 5,5 C 59 % 0,0 l/m 9,2 km/h (2 Bft) SW 236 11,3 km/h (2 Bft)
07.01.2012 16:19 5,5 C 58 % 0,0 l/m 7,7 km/h (2 Bft) SW 235 11,3 km/h (2 Bft)
07.01.2012 16:20 5,5 C 59 % 0,0 l/m 5,7 km/h (1 Bft) SW 228 6,4 km/h (2 Bft)
07.01.2012 16:21 5,5 C 59 % 0,0 l/m 6,1 km/h (2 Bft) SW 232 8,0 km/h (2 Bft)
07.01.2012 16:22 5,5 C 58 % 0,0 l/m 7,2 km/h (2 Bft) S-SW 213 8,0 km/h (2 Bft)
07.01.2012 16:23 5,5 C 58 % 0,0 l/m 6,4 km/h (2 Bft) S-SW 213 8,0 km/h (2 Bft)
07.01.2012 16:24 5,5 C 58 % 0,0 l/m 5,1 km/h (1 Bft) S-SW 205 6,4 km/h (2 Bft)
07.01.2012 16:25 5,5 C 58 % 0,0 l/m 7,2 km/h (2 Bft) S-SW 204 9,7 km/h (2 Bft)
07.01.2012 16:26 5,5 C 59 % 0,0 l/m 7,8 km/h (2 Bft) S-SW 203 11,3 km/h (2 Bft)
07.01.2012 16:27 5,5 C 59 % 0,0 l/m 10,0 km/h (2 Bft) SW 219 12,9 km/h (3 Bft)
07.01.2012 16:28 5,5 C 59 % 0,0 l/m 5,6 km/h (1 Bft) S-SW 195 9,7 km/h (2 Bft)
07.01.2012 16:29 5,4 C 59 % 0,0 l/m 5,9 km/h (2 Bft) SW 215 9,7 km/h (2 Bft)
07.01.2012 16:30 5,4 C 60 % 0,0 l/m 8,4 km/h (2 Bft) S-SO 148 9,7 km/h (2 Bft)
07.01.2012 16:31 5,4 C 60 % 0,0 l/m 8,7 km/h (2 Bft) S-SW 198 12,9 km/h (3 Bft)
07.01.2012 16:32 5,4 C 60 % 0,0 l/m 5,8 km/h (2 Bft) S 180 8,0 km/h (2 Bft)
07.01.2012 16:33 5,4 C 60 % 0,0 l/m 5,8 km/h (2 Bft) S-SO 149 8,0 km/h (2 Bft)
07.01.2012 16:34 5,3 C 60 % 0,0 l/m 7,1 km/h (2 Bft) SW 236 9,7 km/h (2 Bft)
07.01.2012 16:35 5,3 C 61 % 0,0 l/m 6,5 km/h (2 Bft) SO 143 9,7 km/h (2 Bft)
07.01.2012 16:36 5,3 C 61 % 0,0 l/m 6,8 km/h (2 Bft) S-SW 207 9,7 km/h (2 Bft)
07.01.2012 16:37 5,3 C 61 % 0,0 l/m 8,9 km/h (2 Bft) SW 225 12,9 km/h (3 Bft)
07.01.2012 16:38 5,3 C 62 % 0,0 l/m 10,8 km/h (2 Bft) S-SW 213 17,7 km/h (3 Bft)
07.01.2012 16:39 5,3 C 61 % 0,0 l/m 13,8 km/h (3 Bft) W-SW 258 19,3 km/h (3 Bft)
07.01.2012 16:40 5,3 C 60 % 0,0 l/m 5,5 km/h (1 Bft) S 169 12,9 km/h (3 Bft)
07.01.2012 16:41 5,4 C 60 % 0,0 l/m 9,6 km/h (2 Bft) W-SW 256 14,5 km/h (3 Bft)
07.01.2012 16:42 5,4 C 61 % 0,0 l/m 11,2 km/h (2 Bft) S-SW 204 14,5 km/h (3 Bft)
07.01.2012 16:43 5,4 C 61 % 0,0 l/m 12,8 km/h (3 Bft) W-SW 248 17,7 km/h (3 Bft)
07.01.2012 16:44 5,4 C 61 % 0,0 l/m 13,8 km/h (3 Bft) W-SW 252 19,3 km/h (3 Bft)
07.01.2012 16:45 5,4 C 61 % 0,0 l/m 17,2 km/h (3 Bft) SW 218 20,9 km/h (4 Bft)
07.01.2012 16:46 5,4 C 61 % 0,0 l/m 9,3 km/h (2 Bft) S-SW 210 12,9 km/h (3 Bft)
07.01.2012 16:47 5,4 C 61 % 0,0 l/m 8,5 km/h (2 Bft) SW 214 11,3 km/h (2 Bft)
07.01.2012 16:48 5,4 C 61 % 0,0 l/m 8,0 km/h (2 Bft) SW 214 9,7 km/h (2 Bft)
07.01.2012 16:49 5,4 C 62 % 0,0 l/m 7,9 km/h (2 Bft) S-SW 205 9,7 km/h (2 Bft)
07.01.2012 16:50 5,3 C 62 % 0,0 l/m 9,5 km/h (2 Bft) S 189 12,9 km/h (3 Bft)
07.01.2012 16:51 5,3 C 63 % 0,0 l/m 5,2 km/h (1 Bft) S-SW 211 8,0 km/h (2 Bft)
07.01.2012 16:52 5,3 C 63 % 0,0 l/m 7,0 km/h (2 Bft) S 177 12,9 km/h (3 Bft)
07.01.2012 16:53 5,2 C 64 % 0,0 l/m 8,1 km/h (2 Bft) S-SO 156 12,9 km/h (3 Bft)
07.01.2012 16:54 5,2 C 65 % 0,0 l/m 8,7 km/h (2 Bft) S-SW 198 11,3 km/h (2 Bft)
07.01.2012 16:55 5,1 C 64 % 0,0 l/m 8,1 km/h (2 Bft) S 188 12,9 km/h (3 Bft)
07.01.2012 16:56 5,1 C 65 % 0,0 l/m 7,3 km/h (2 Bft) S-SW 204 11,3 km/h (2 Bft)
07.01.2012 16:57 5,1 C 65 % 0,0 l/m 6,4 km/h (2 Bft) SW 217 8,0 km/h (2 Bft)
07.01.2012 16:58 5,0 C 65 % 0,0 l/m 8,9 km/h (2 Bft) SW 226 9,7 km/h (2 Bft)
07.01.2012 16:59 5,0 C 65 % 0,0 l/m 8,0 km/h (2 Bft) S-SW 209 9,7 km/h (2 Bft)
07.01.2012 17:00 5,0 C 65 % 0,0 l/m 8,8 km/h (2 Bft) SW 215 12,9 km/h (3 Bft)
07.01.2012 17:01 5,0 C 65 % 0,0 l/m 9,5 km/h (2 Bft) S-SW 203 12,9 km/h (3 Bft)
07.01.2012 17:02 5,0 C 65 % 0,0 l/m 6,6 km/h (2 Bft) SW 218 11,3 km/h (2 Bft)
07.01.2012 17:03 5,0 C 65 % 0,0 l/m 5,9 km/h (2 Bft) SW 215 8,0 km/h (2 Bft)
07.01.2012 17:04 4,9 C 66 % 0,0 l/m 8,1 km/h (2 Bft) S 170 11,3 km/h (2 Bft)
07.01.2012 17:05 4,9 C 66 % 0,0 l/m 6,0 km/h (2 Bft) SW 215 8,0 km/h (2 Bft)
07.01.2012 17:06 4,9 C 66 % 0,0 l/m 8,6 km/h (2 Bft) S 174 11,3 km/h (2 Bft)
07.01.2012 17:07 4,9 C 66 % 0,0 l/m 10,1 km/h (2 Bft) SW 228 12,9 km/h (3 Bft)
07.01.2012 17:08 4,9 C 67 % 0,0 l/m 12,7 km/h (3 Bft) W 264 14,5 km/h (3 Bft)
07.01.2012 17:09 4,8 C 69 % 0,0 l/m 4,6 km/h (1 Bft) S-SO 161 8,0 km/h (2 Bft)
07.01.2012 17:10 4,8 C 69 % 0,0 l/m 8,0 km/h (2 Bft) S-SO 157 9,7 km/h (2 Bft)
07.01.2012 17:11 4,7 C 70 % 0,0 l/m 7,6 km/h (2 Bft) SW 225 11,3 km/h (2 Bft)
07.01.2012 17:12 4,7 C 70 % 0,0 l/m 5,7 km/h (1 Bft) O-NO 75 11,3 km/h (2 Bft)
07.01.2012 17:13 4,6 C 71 % 0,0 l/m 7,7 km/h (2 Bft) SW 217 19,3 km/h (3 Bft)
07.01.2012 17:14 4,5 C 72 % 0,0 l/m 16,6 km/h (3 Bft) SW 217 19,3 km/h (3 Bft)
07.01.2012 17:15 4,4 C 73 % 0,0 l/m 15,3 km/h (3 Bft) S 186 19,3 km/h (3 Bft)
07.01.2012 17:16 4,3 C 73 % 0,0 l/m 11,3 km/h (2 Bft) O-SO 109 14,5 km/h (3 Bft)
07.01.2012 17:17 4,2 C 75 % 0,0 l/m 8,7 km/h (2 Bft) W-SW 241 12,9 km/h (3 Bft)
07.01.2012 17:18 4,2 C 75 % 0,0 l/m 12,6 km/h (3 Bft) S-SW 209 20,9 km/h (4 Bft)
07.01.2012 17:19 4,1 C 76 % 0,0 l/m 19,2 km/h (3 Bft) SW 226 22,5 km/h (4 Bft)
07.01.2012 17:20 4,0 C 76 % 0,0 l/m 16,3 km/h (3 Bft) SW 224 19,3 km/h (3 Bft)
07.01.2012 17:21 3,9 C 79 % 0,0 l/m 17,9 km/h (3 Bft) W-SW 241 20,9 km/h (4 Bft)
07.01.2012 17:22 3,8 C 80 % 0,0 l/m 14,9 km/h (3 Bft) SW 226 19,3 km/h (3 Bft)
07.01.2012 17:23 3,7 C 81 % 0,2 l/m 11,5 km/h (2 Bft) S-SW 205 17,7 km/h (3 Bft)
07.01.2012 17:24 3,6 C 81 % 0,0 l/m 9,7 km/h (2 Bft) SW 218 14,5 km/h (3 Bft)
07.01.2012 17:25 3,5 C 82 % 0,0 l/m 10,6 km/h (2 Bft) SW 217 14,5 km/h (3 Bft)
07.01.2012 17:26 3,4 C 82 % 0,0 l/m 9,1 km/h (2 Bft) W 264 12,9 km/h (3 Bft)
07.01.2012 17:27 3,4 C 83 % 0,0 l/m 14,1 km/h (3 Bft) SW 229 24,1 km/h (4 Bft)
07.01.2012 17:28 3,4 C 82 % 0,0 l/m 15,5 km/h (3 Bft) S-SW 200 22,5 km/h (4 Bft)
07.01.2012 17:29 3,4 C 83 % 0,0 l/m 12,6 km/h (3 Bft) S 186 16,1 km/h (3 Bft)
07.01.2012 17:30 3,3 C 82 % 0,2 l/m 14,6 km/h (3 Bft) SW 233 19,3 km/h (3 Bft)
07.01.2012 17:31 3,3 C 83 % 0,0 l/m 14,4 km/h (3 Bft) SW 225 19,3 km/h (3 Bft)
07.01.2012 17:32 3,2 C 83 % 0,0 l/m 14,1 km/h (3 Bft) SW 226 19,3 km/h (3 Bft)
07.01.2012 17:33 3,2 C 83 % 0,0 l/m 13,9 km/h (3 Bft) W-SW 239 19,3 km/h (3 Bft)
07.01.2012 17:34 3,2 C 84 % 0,0 l/m 13,5 km/h (3 Bft) SW 221 19,3 km/h (3 Bft)
07.01.2012 17:35 3,1 C 84 % 0,0 l/m 17,5 km/h (3 Bft) SW 217 22,5 km/h (4 Bft)
07.01.2012 17:36 3,1 C 84 % 0,0 l/m 12,9 km/h (3 Bft) SW 214 17,7 km/h (3 Bft)
07.01.2012 17:37 3,0 C 85 % 0,0 l/m 11,9 km/h (2 Bft) SW 214 16,1 km/h (3 Bft)
07.01.2012 17:38 2,9 C 85 % 0,2 l/m 15,8 km/h (3 Bft) S-SW 210 19,3 km/h (3 Bft)
07.01.2012 17:39 2,9 C 85 % 0,0 l/m 14,5 km/h (3 Bft) SW 219 19,3 km/h (3 Bft)
07.01.2012 17:40 2,8 C 85 % 0,0 l/m 12,8 km/h (3 Bft) SW 228 17,7 km/h (3 Bft)
07.01.2012 17:41 2,8 C 86 % 0,0 l/m 8,2 km/h (2 Bft) S 170 12,9 km/h (3 Bft)
07.01.2012 17:42 2,7 C 86 % 0,0 l/m 13,0 km/h (3 Bft) S-SW 208 17,7 km/h (3 Bft)
07.01.2012 17:43 2,7 C 86 % 0,0 l/m 14,9 km/h (3 Bft) SW 217 17,7 km/h (3 Bft)
07.01.2012 17:44 2,7 C 87 % 0,2 l/m 15,2 km/h (3 Bft) SW 218 19,3 km/h (3 Bft)
07.01.2012 17:45 2,7 C 87 % 0,0 l/m 10,6 km/h (2 Bft) SW 222 12,9 km/h (3 Bft)
07.01.2012 17:46 2,6 C 87 % 0,0 l/m 11,2 km/h (2 Bft) SW 221 14,5 km/h (3 Bft)
07.01.2012 17:47 2,6 C 87 % 0,0 l/m 10,2 km/h (2 Bft) W-SW 240 14,5 km/h (3 Bft)
07.01.2012 17:48 2,6 C 88 % 0,0 l/m 8,1 km/h (2 Bft) S-SW 210 12,9 km/h (3 Bft)
07.01.2012 17:49 2,4 C 88 % 0,2 l/m 11,7 km/h (2 Bft) S-SW 212 14,5 km/h (3 Bft)
07.01.2012 17:50 2,4 C 88 % 0,0 l/m 10,4 km/h (2 Bft) S-SW 211 14,5 km/h (3 Bft)
07.01.2012 17:51 2,4 C 88 % 0,0 l/m 11,4 km/h (2 Bft) SW 214 14,5 km/h (3 Bft)
07.01.2012 17:52 2,3 C 89 % 0,0 l/m 8,1 km/h (2 Bft) S-SW 203 11,3 km/h (2 Bft)
07.01.2012 17:53 2,3 C 89 % 0,2 l/m 10,2 km/h (2 Bft) S-SW 204 12,9 km/h (3 Bft)
07.01.2012 17:54 2,3 C 90 % 0,0 l/m 5,6 km/h (1 Bft) S 185 11,3 km/h (2 Bft)
07.01.2012 17:55 2,2 C 90 % 0,0 l/m 8,4 km/h (2 Bft) S-SW 195 12,9 km/h (3 Bft)
07.01.2012 17:56 2,2 C 90 % 0,0 l/m 9,3 km/h (2 Bft) SW 217 14,5 km/h (3 Bft)
07.01.2012 17:57 2,2 C 90 % 0,0 l/m 7,3 km/h (2 Bft) SW 222 9,7 km/h (2 Bft)
07.01.2012 17:58 2,1 C 90 % 0,0 l/m 7,9 km/h (2 Bft) S-SW 201 11,3 km/h (2 Bft)
07.01.2012 17:59 2,1 C 90 % 0,2 l/m 9,6 km/h (2 Bft) SW 225 11,3 km/h (2 Bft)
07.01.2012 18:00 2,1 C 91 % 0,0 l/m 9,0 km/h (2 Bft) S-SW 210 12,9 km/h (3 Bft)
07.01.2012 18:01 2,1 C 91 % 0,0 l/m 9,7 km/h (2 Bft) W-SW 239 12,9 km/h (3 Bft)
07.01.2012 18:02 2,0 C 91 % 0,0 l/m 7,3 km/h (2 Bft) S-SW 200 9,7 km/h (2 Bft)
07.01.2012 18:03 2,0 C 91 % 0,0 l/m 9,1 km/h (2 Bft) W-SW 249 12,9 km/h (3 Bft)
07.01.2012 18:04 2,0 C 92 % 0,0 l/m 10,3 km/h (2 Bft) S-SW 205 14,5 km/h (3 Bft)
07.01.2012 18:05 2,0 C 92 % 0,0 l/m 10,2 km/h (2 Bft) S-SW 213 12,9 km/h (3 Bft)
07.01.2012 18:06 1,9 C 92 % 0,0 l/m 8,0 km/h (2 Bft) S-SW 210 11,3 km/h (2 Bft)
07.01.2012 18:07 1,9 C 92 % 0,0 l/m 9,4 km/h (2 Bft) SW 217 12,9 km/h (3 Bft)
07.01.2012 18:08 1,9 C 92 % 0,2 l/m 6,1 km/h (2 Bft) S-SW 195 9,7 km/h (2 Bft)
07.01.2012 18:09 1,9 C 92 % 0,0 l/m 5,8 km/h (2 Bft) SW 219 6,4 km/h (2 Bft)
07.01.2012 18:10 1,9 C 92 % 0,0 l/m 5,2 km/h (1 Bft) S-SW 203 8,0 km/h (2 Bft)
07.01.2012 18:11 1,9 C 92 % 0,0 l/m 5,2 km/h (1 Bft) S-SW 197 8,0 km/h (2 Bft)
07.01.2012 18:12 1,8 C 92 % 0,0 l/m 5,9 km/h (2 Bft) S-SW 192 8,0 km/h (2 Bft)
07.01.2012 18:13 1,8 C 92 % 0,0 l/m 5,9 km/h (2 Bft) S 169 6,4 km/h (2 Bft)
07.01.2012 18:14 1,8 C 92 % 0,0 l/m 4,4 km/h (1 Bft) SW 222 9,7 km/h (2 Bft)
07.01.2012 18:15 1,8 C 92 % 0,0 l/m 5,7 km/h (1 Bft) S 184 8,0 km/h (2 Bft)
07.01.2012 18:16 1,8 C 92 % 0,0 l/m 5,2 km/h (1 Bft) S 190 8,0 km/h (2 Bft)
07.01.2012 18:17 1,8 C 93 % 0,0 l/m 5,8 km/h (2 Bft) S-SW 194 8,0 km/h (2 Bft)
07.01.2012 18:18 1,8 C 93 % 0,0 l/m 5,3 km/h (1 Bft) S 176 8,0 km/h (2 Bft)
07.01.2012 18:19 1,8 C 93 % 0,0 l/m 5,2 km/h (1 Bft) S-SW 212 8,0 km/h (2 Bft)
07.01.2012 18:20 1,8 C 93 % 0,0 l/m 5,8 km/h (2 Bft) S 191 8,0 km/h (2 Bft)
07.01.2012 18:21 1,8 C 93 % 0,0 l/m 4,4 km/h (1 Bft) S-SO 159 6,4 km/h (2 Bft)
07.01.2012 18:22 1,8 C 93 % 0,0 l/m 5,0 km/h (1 Bft) S-SW 193 8,0 km/h (2 Bft)
07.01.2012 18:23 1,8 C 93 % 0,0 l/m 3,6 km/h (1 Bft) S-SW 207 4,8 km/h (1 Bft)
07.01.2012 18:24 1,8 C 93 % 0,0 l/m 5,5 km/h (1 Bft) SW 215 6,4 km/h (2 Bft)
07.01.2012 18:25 1,8 C 93 % 0,0 l/m 5,9 km/h (2 Bft) S-SW 203 9,7 km/h (2 Bft)
07.01.2012 18:26 1,8 C 93 % 0,2 l/m 6,5 km/h (2 Bft) W-SW 243 8,0 km/h (2 Bft)
07.01.2012 18:27 1,8 C 93 % 0,0 l/m 4,7 km/h (1 Bft) SW 228 8,0 km/h (2 Bft)
07.01.2012 18:28 1,8 C 93 % 0,0 l/m 6,8 km/h (2 Bft) W-SW 249 8,0 km/h (2 Bft)
07.01.2012 18:29 1,8 C 94 % 0,0 l/m 4,4 km/h (1 Bft) SW 235 6,4 km/h (2 Bft)
07.01.2012 18:30 1,8 C 94 % 0,0 l/m 6,5 km/h (2 Bft) SW 228 8,0 km/h (2 Bft)
07.01.2012 18:31 1,8 C 94 % 0,0 l/m 6,9 km/h (2 Bft) W 281 9,7 km/h (2 Bft)
07.01.2012 18:32 1,8 C 94 % 0,0 l/m 7,6 km/h (2 Bft) S-SO 152 9,7 km/h (2 Bft)
07.01.2012 18:33 1,8 C 94 % 0,0 l/m 5,7 km/h (1 Bft) W 280 8,0 km/h (2 Bft)
07.01.2012 18:34 1,8 C 94 % 0,0 l/m 2,4 km/h (1 Bft) W-NW 288 4,8 km/h (1 Bft)
07.01.2012 18:35 1,8 C 94 % 0,0 l/m 2,7 km/h (1 Bft) W 273 4,8 km/h (1 Bft)
07.01.2012 18:36 1,8 C 94 % 0,0 l/m 4,0 km/h (1 Bft) W-SW 254 4,8 km/h (1 Bft)
07.01.2012 18:37 1,8 C 94 % 0,2 l/m 2,9 km/h (1 Bft) W-SW 257 4,8 km/h (1 Bft)
07.01.2012 18:38 1,8 C 94 % 0,0 l/m 4,1 km/h (1 Bft) W 263 6,4 km/h (2 Bft)
07.01.2012 18:39 1,8 C 94 % 0,0 l/m 3,8 km/h (1 Bft) W-SW 253 6,4 km/h (2 Bft)
07.01.2012 18:40 1,8 C 94 % 0,0 l/m 5,4 km/h (1 Bft) W-SW 248 8,0 km/h (2 Bft)
07.01.2012 18:41 1,9 C 94 % 0,0 l/m 3,0 km/h (1 Bft) SW 233 4,8 km/h (1 Bft)
07.01.2012 18:42 1,9 C 94 % 0,0 l/m 4,3 km/h (1 Bft) W-SW 250 6,4 km/h (2 Bft)
07.01.2012 18:43 1,9 C 94 % 0,0 l/m 4,0 km/h (1 Bft) W 267 8,0 km/h (2 Bft)
07.01.2012 18:44 1,9 C 94 % 0,0 l/m 5,6 km/h (1 Bft) W-SW 249 9,7 km/h (2 Bft)
07.01.2012 18:45 1,9 C 94 % 0,2 l/m 4,6 km/h (1 Bft) W-SW 237 8,0 km/h (2 Bft)
07.01.2012 18:46 1,9 C 94 % 0,0 l/m 6,5 km/h (2 Bft) SW 236 8,0 km/h (2 Bft)
07.01.2012 18:47 1,9 C 94 % 0,0 l/m 6,7 km/h (2 Bft) SW 217 9,7 km/h (2 Bft)
07.01.2012 18:48 1,9 C 94 % 0,0 l/m 4,6 km/h (1 Bft) SW 231 6,4 km/h (2 Bft)
07.01.2012 18:49 1,9 C 94 % 0,0 l/m 4,5 km/h (1 Bft) SW 226 6,4 km/h (2 Bft)
07.01.2012 18:50 1,9 C 94 % 0,0 l/m 4,7 km/h (1 Bft) W-NW 283 6,4 km/h (2 Bft)
07.01.2012 18:51 1,9 C 94 % 0,0 l/m 4,3 km/h (1 Bft) W-SW 255 4,8 km/h (1 Bft)
07.01.2012 18:52 1,9 C 94 % 0,0 l/m 2,8 km/h (1 Bft) W-NW 283 3,2 km/h (1 Bft)
07.01.2012 18:53 1,9 C 94 % 0,2 l/m 2,2 km/h (1 Bft) W 268 3,2 km/h (1 Bft)
07.01.2012 18:54 1,9 C 94 % 0,0 l/m 3,3 km/h (1 Bft) W-NW 291 4,8 km/h (1 Bft)
07.01.2012 18:55 1,9 C 94 % 0,0 l/m 3,6 km/h (1 Bft) W-NW 282 6,4 km/h (2 Bft)
07.01.2012 18:56 1,9 C 94 % 0,0 l/m 3,2 km/h (1 Bft) W-SW 252 4,8 km/h (1 Bft)
07.01.2012 18:57 1,9 C 94 % 0,0 l/m 5,7 km/h (1 Bft) W-SW 238 8,0 km/h (2 Bft)
07.01.2012 18:58 1,9 C 94 % 0,0 l/m 6,4 km/h (2 Bft) SW 232 8,0 km/h (2 Bft)
07.01.2012 18:59 1,9 C 94 % 0,0 l/m 5,4 km/h (1 Bft) SW 235 6,4 km/h (2 Bft)
07.01.2012 19:00 1,9 C 94 % 0,0 l/m 5,6 km/h (1 Bft) W 259 6,4 km/h (2 Bft)
07.01.2012 19:01 1,9 C 94 % 0,2 l/m 3,4 km/h (1 Bft) N 10 4,8 km/h (1 Bft)
07.01.2012 19:02 1,9 C 94 % 0,0 l/m 1,5 km/h (1 Bft) W-NW 288 3,2 km/h (1 Bft)
07.01.2012 19:03 2,0 C 94 % 0,0 l/m 1,1 km/h (1 Bft) W 269 1,6 km/h (1 Bft)
07.01.2012 19:04 1,9 C 94 % 0,0 l/m 1,4 km/h (1 Bft) SW 229 1,6 km/h (1 Bft)
07.01.2012 19:05 1,9 C 94 % 0,0 l/m 1,5 km/h (1 Bft) W 263 4,8 km/h (1 Bft)
07.01.2012 19:06 2,0 C 94 % 0,0 l/m 1,7 km/h (1 Bft) W-NW 295 3,2 km/h (1 Bft)
07.01.2012 19:07 1,9 C 94 % 0,0 l/m 1,4 km/h (1 Bft) W-NW 288 4,8 km/h (1 Bft)
07.01.2012 19:08 1,9 C 94 % 0,2 l/m 0,8 km/h (0 Bft) W-SW 257 3,2 km/h (1 Bft)
07.01.2012 19:09 2,0 C 94 % 0,0 l/m 2,0 km/h (1 Bft) W-SW 240 4,8 km/h (1 Bft)
07.01.2012 19:10 1,9 C 94 % 0,0 l/m 2,1 km/h (1 Bft) W-SW 257 4,8 km/h (1 Bft)
07.01.2012 19:11 1,9 C 94 % 0,0 l/m 0,0 km/h (0 Bft) W-SW 257 0,0 km/h (0 Bft)
07.01.2012 19:12 1,9 C 94 % 0,0 l/m 1,8 km/h (1 Bft) NW 316 3,2 km/h (1 Bft)
07.01.2012 19:13 1,9 C 94 % 0,0 l/m 0,4 km/h (0 Bft) W-SW 252 1,6 km/h (1 Bft)
07.01.2012 19:14 2,0 C 94 % 0,2 l/m 0,2 km/h (0 Bft) SW 231 1,6 km/h (1 Bft)
07.01.2012 19:15 2,0 C 94 % 0,0 l/m 1,2 km/h (1 Bft) W-SW 239 1,6 km/h (1 Bft)
07.01.2012 19:16 2,0 C 94 % 0,0 l/m 0,3 km/h (0 Bft) W-SW 239 1,6 km/h (1 Bft)
07.01.2012 19:18 1,9 C 94 % 0,0 l/m 0,5 km/h (0 Bft) W-SW 256 3,2 km/h (1 Bft)
07.01.2012 19:19 1,9 C 94 % 0,2 l/m 0,0 km/h (0 Bft) W-SW 256 0,0 km/h (0 Bft)
07.01.2012 19:20 2,0 C 94 % 0,0 l/m 0,6 km/h (0 Bft) W 267 1,6 km/h (1 Bft)
07.01.2012 19:21 1,9 C 94 % 0,0 l/m 0,6 km/h (0 Bft) W-SW 252 1,6 km/h (1 Bft)
07.01.2012 19:22 2,0 C 94 % 0,0 l/m 0,3 km/h (0 Bft) W-SW 252 1,6 km/h (1 Bft)
07.01.2012 19:23 1,9 C 94 % 0,2 l/m 0,0 km/h (0 Bft) W-SW 252 0,0 km/h (0 Bft)
07.01.2012 19:24 1,9 C 94 % 0,0 l/m 0,0 km/h (0 Bft) W-SW 252 0,0 km/h (0 Bft)
07.01.2012 19:25 1,9 C 94 % 0,0 l/m 0,2 km/h (0 Bft) W-SW 252 1,6 km/h (1 Bft)
07.01.2012 19:26 1,9 C 94 % 0,0 l/m 1,4 km/h (1 Bft) W-SW 245 3,2 km/h (1 Bft)
07.01.2012 19:27 1,9 C 94 % 0,2 l/m 2,3 km/h (1 Bft) W-SW 248 3,2 km/h (1 Bft)
07.01.2012 19:28 1,9 C 94 % 0,0 l/m 1,5 km/h (1 Bft) W-SW 248 3,2 km/h (1 Bft)
07.01.2012 19:29 1,9 C 94 % 0,0 l/m 0,2 km/h (0 Bft) W-SW 248 1,6 km/h (1 Bft)
07.01.2012 19:30 1,9 C 94 % 0,0 l/m 1,3 km/h (1 Bft) W-SW 246 3,2 km/h (1 Bft)
07.01.2012 19:31 1,9 C 94 % 0,0 l/m 3,3 km/h (1 Bft) W-SW 245 4,8 km/h (1 Bft)
07.01.2012 19:32 1,9 C 95 % 0,0 l/m 1,9 km/h (1 Bft) W-SW 257 3,2 km/h (1 Bft)
07.01.2012 19:33 1,9 C 95 % 0,2 l/m 1,4 km/h (1 Bft) W 264 1,6 km/h (1 Bft)
07.01.2012 19:34 1,9 C 95 % 0,0 l/m 2,4 km/h (1 Bft) W 259 3,2 km/h (1 Bft)
07.01.2012 19:35 1,9 C 95 % 0,0 l/m 2,1 km/h (1 Bft) W 260 3,2 km/h (1 Bft)
07.01.2012 19:36 1,9 C 95 % 0,0 l/m 2,3 km/h (1 Bft) W-SW 256 3,2 km/h (1 Bft)
07.01.2012 19:37 1,9 C 95 % 0,0 l/m 3,5 km/h (1 Bft) W-SW 240 4,8 km/h (1 Bft)
07.01.2012 19:38 1,9 C 95 % 0,2 l/m 2,7 km/h (1 Bft) W-SW 239 3,2 km/h (1 Bft)
07.01.2012 19:39 1,9 C 95 % 0,0 l/m 3,0 km/h (1 Bft) W 260 3,2 km/h (1 Bft)
07.01.2012 19:40 1,9 C 95 % 0,0 l/m 2,0 km/h (1 Bft) W-SW 252 4,8 km/h (1 Bft)
07.01.2012 19:41 1,9 C 95 % 0,0 l/m 1,1 km/h (1 Bft) W-SW 243 3,2 km/h (1 Bft)
07.01.2012 19:42 1,9 C 95 % 0,2 l/m 3,5 km/h (1 Bft) W-SW 249 4,8 km/h (1 Bft)
07.01.2012 19:43 1,9 C 95 % 0,0 l/m 3,2 km/h (1 Bft) W-SW 245 3,2 km/h (1 Bft)
07.01.2012 19:44 1,9 C 95 % 0,0 l/m 2,5 km/h (1 Bft) W-SW 250 3,2 km/h (1 Bft)
07.01.2012 19:45 1,9 C 95 % 0,0 l/m 3,5 km/h (1 Bft) SW 231 4,8 km/h (1 Bft)
07.01.2012 19:46 1,9 C 95 % 0,0 l/m 7,0 km/h (2 Bft) W-SW 237 9,7 km/h (2 Bft)
07.01.2012 19:47 1,9 C 95 % 0,2 l/m 4,7 km/h (1 Bft) SW 225 6,4 km/h (2 Bft)
07.01.2012 19:48 1,9 C 95 % 0,0 l/m 5,8 km/h (2 Bft) W 264 6,4 km/h (2 Bft)
07.01.2012 19:49 1,9 C 95 % 0,0 l/m 4,7 km/h (1 Bft) SW 229 6,4 km/h (2 Bft)
07.01.2012 19:50 1,9 C 95 % 0,2 l/m 4,2 km/h (1 Bft) SW 225 6,4 km/h (2 Bft)
07.01.2012 19:51 1,9 C 95 % 0,0 l/m 3,1 km/h (1 Bft) SW 222 6,4 km/h (2 Bft)
07.01.2012 19:52 1,9 C 95 % 0,2 l/m 3,1 km/h (1 Bft) SW 235 4,8 km/h (1 Bft)
07.01.2012 19:53 1,9 C 95 % 0,0 l/m 5,0 km/h (1 Bft) SW 228 8,0 km/h (2 Bft)
07.01.2012 19:54 1,9 C 95 % 0,0 l/m 3,9 km/h (1 Bft) SW 226 4,8 km/h (1 Bft)
07.01.2012 19:55 1,9 C 95 % 0,2 l/m 4,8 km/h (1 Bft) SW 221 6,4 km/h (2 Bft)
07.01.2012 19:56 1,9 C 95 % 0,0 l/m 5,0 km/h (1 Bft) S-SW 210 6,4 km/h (2 Bft)
07.01.2012 19:57 1,9 C 95 % 0,2 l/m 5,4 km/h (1 Bft) SW 231 8,0 km/h (2 Bft)
07.01.2012 19:58 1,9 C 95 % 0,0 l/m 4,4 km/h (1 Bft) SW 235 4,8 km/h (1 Bft)
07.01.2012 19:59 1,9 C 95 % 0,0 l/m 3,1 km/h (1 Bft) SW 225 3,2 km/h (1 Bft)
07.01.2012 20:00 1,9 C 95 % 0,2 l/m 3,9 km/h (1 Bft) SW 233 6,4 km/h (2 Bft)
07.01.2012 20:01 1,9 C 95 % 0,0 l/m 4,9 km/h (1 Bft) S-SO 158 6,4 km/h (2 Bft)
07.01.2012 20:02 1,9 C 95 % 0,0 l/m 3,1 km/h (1 Bft) SW 218 6,4 km/h (2 Bft)
07.01.2012 20:03 1,9 C 95 % 0,0 l/m 4,4 km/h (1 Bft) S 188 8,0 km/h (2 Bft)
07.01.2012 20:04 1,9 C 95 % 0,2 l/m 6,4 km/h (2 Bft) W-SW 237 9,7 km/h (2 Bft)
07.01.2012 20:05 1,9 C 95 % 0,0 l/m 4,7 km/h (1 Bft) SW 218 6,4 km/h (2 Bft)
07.01.2012 20:06 1,9 C 95 % 0,0 l/m 4,2 km/h (1 Bft) S-SO 163 6,4 km/h (2 Bft)
07.01.2012 20:07 1,9 C 95 % 0,0 l/m 6,8 km/h (2 Bft) S-SO 155 9,7 km/h (2 Bft)
07.01.2012 20:08 1,9 C 95 % 0,0 l/m 5,6 km/h (1 Bft) S-SW 195 8,0 km/h (2 Bft)
07.01.2012 20:09 1,9 C 95 % 0,0 l/m 6,8 km/h (2 Bft) W-SW 253 9,7 km/h (2 Bft)
07.01.2012 20:10 2,0 C 95 % 0,0 l/m 3,2 km/h (1 Bft) W-SW 240 4,8 km/h (1 Bft)
07.01.2012 20:11 2,0 C 95 % 0,0 l/m 5,0 km/h (1 Bft) SW 217 9,7 km/h (2 Bft)
07.01.2012 20:12 2,0 C 95 % 0,0 l/m 5,1 km/h (1 Bft) S-SW 204 8,0 km/h (2 Bft)
07.01.2012 20:13 2,0 C 95 % 0,0 l/m 5,6 km/h (1 Bft) S-SW 205 8,0 km/h (2 Bft)
07.01.2012 20:14 2,1 C 95 % 0,0 l/m 4,4 km/h (1 Bft) SW 217 6,4 km/h (2 Bft)
07.01.2012 20:15 2,1 C 94 % 0,2 l/m 6,4 km/h (2 Bft) S-SW 208 8,0 km/h (2 Bft)
07.01.2012 20:16 2,1 C 94 % 0,0 l/m 4,5 km/h (1 Bft) SW 217 8,0 km/h (2 Bft)
07.01.2012 20:17 2,1 C 94 % 0,0 l/m 4,8 km/h (1 Bft) S-SW 210 6,4 km/h (2 Bft)
07.01.2012 20:18 2,1 C 94 % 0,0 l/m 3,9 km/h (1 Bft) SW 222 4,8 km/h (1 Bft)
07.01.2012 20:19 2,1 C 94 % 0,0 l/m 2,3 km/h (1 Bft) S-SW 208 4,8 km/h (1 Bft)
07.01.2012 20:20 2,1 C 94 % 0,0 l/m 2,1 km/h (1 Bft) S-SW 203 4,8 km/h (1 Bft)
07.01.2012 20:21 2,1 C 94 % 0,0 l/m 2,6 km/h (1 Bft) S-SW 204 4,8 km/h (1 Bft)
07.01.2012 20:22 2,1 C 94 % 0,0 l/m 2,1 km/h (1 Bft) SO 145 3,2 km/h (1 Bft)
07.01.2012 20:23 2,1 C 94 % 0,0 l/m 2,8 km/h (1 Bft) S 169 3,2 km/h (1 Bft)
07.01.2012 20:24 2,1 C 94 % 0,0 l/m 2,3 km/h (1 Bft) S-SW 197 3,2 km/h (1 Bft)
07.01.2012 20:25 2,1 C 94 % 0,0 l/m 2,8 km/h (1 Bft) S-SW 201 4,8 km/h (1 Bft)
07.01.2012 20:26 2,1 C 94 % 0,0 l/m 2,4 km/h (1 Bft) S-SW 205 4,8 km/h (1 Bft)
07.01.2012 20:27 2,2 C 94 % 0,0 l/m 3,0 km/h (1 Bft) S 186 4,8 km/h (1 Bft)
07.01.2012 20:28 2,1 C 94 % 0,0 l/m 2,7 km/h (1 Bft) S-SO 148 4,8 km/h (1 Bft)
07.01.2012 20:29 2,2 C 94 % 0,0 l/m 4,9 km/h (1 Bft) S-SW 201 6,4 km/h (2 Bft)
07.01.2012 20:30 2,2 C 94 % 0,0 l/m 4,3 km/h (1 Bft) S-SW 195 6,4 km/h (2 Bft)
07.01.2012 20:31 2,2 C 94 % 0,0 l/m 3,1 km/h (1 Bft) S-SO 158 4,8 km/h (1 Bft)
07.01.2012 20:32 2,2 C 94 % 0,0 l/m 4,0 km/h (1 Bft) S-SO 148 4,8 km/h (1 Bft)
07.01.2012 20:33 2,2 C 93 % 0,0 l/m 4,8 km/h (1 Bft) S-SO 150 4,8 km/h (1 Bft)
07.01.2012 20:34 2,2 C 93 % 0,0 l/m 3,6 km/h (1 Bft) SO 124 4,8 km/h (1 Bft)
07.01.2012 20:35 2,2 C 93 % 0,0 l/m 3,5 km/h (1 Bft) SO 141 4,8 km/h (1 Bft)
07.01.2012 20:36 2,2 C 93 % 0,0 l/m 3,6 km/h (1 Bft) SO 134 4,8 km/h (1 Bft)
07.01.2012 20:37 2,2 C 93 % 0,0 l/m 3,9 km/h (1 Bft) SO 141 4,8 km/h (1 Bft)
07.01.2012 20:38 2,2 C 93 % 0,0 l/m 3,4 km/h (1 Bft) S-SO 151 4,8 km/h (1 Bft)
07.01.2012 20:39 2,2 C 93 % 0,0 l/m 3,9 km/h (1 Bft) SO 143 4,8 km/h (1 Bft)
07.01.2012 20:40 2,2 C 93 % 0,0 l/m 4,7 km/h (1 Bft) S-SO 152 6,4 km/h (2 Bft)
07.01.2012 20:41 2,2 C 93 % 0,0 l/m 4,1 km/h (1 Bft) SO 135 6,4 km/h (2 Bft)
07.01.2012 20:42 2,2 C 93 % 0,0 l/m 3,5 km/h (1 Bft) SO 129 4,8 km/h (1 Bft)
07.01.2012 20:43 2,2 C 93 % 0,0 l/m 4,0 km/h (1 Bft) S-SO 156 4,8 km/h (1 Bft)
07.01.2012 20:44 2,2 C 93 % 0,0 l/m 4,3 km/h (1 Bft) S-SO 148 4,8 km/h (1 Bft)
07.01.2012 20:45 2,2 C 93 % 0,0 l/m 4,5 km/h (1 Bft) SO 132 4,8 km/h (1 Bft)
07.01.2012 20:46 2,2 C 93 % 0,0 l/m 4,2 km/h (1 Bft) S-SO 159 6,4 km/h (2 Bft)
07.01.2012 20:47 2,2 C 93 % 0,0 l/m 3,9 km/h (1 Bft) S-SO 150 6,4 km/h (2 Bft)
07.01.2012 20:48 2,2 C 93 % 0,0 l/m 4,8 km/h (1 Bft) S-SO 156 6,4 km/h (2 Bft)
07.01.2012 20:49 2,2 C 93 % 0,0 l/m 4,3 km/h (1 Bft) S-SO 153 4,8 km/h (1 Bft)
07.01.2012 20:50 2,2 C 93 % 0,0 l/m 3,6 km/h (1 Bft) SO 138 4,8 km/h (1 Bft)
07.01.2012 20:51 2,2 C 93 % 0,0 l/m 3,8 km/h (1 Bft) SO 138 4,8 km/h (1 Bft)
07.01.2012 20:52 2,2 C 93 % 0,0 l/m 4,0 km/h (1 Bft) S-SO 150 4,8 km/h (1 Bft)
07.01.2012 20:53 2,2 C 93 % 0,0 l/m 4,2 km/h (1 Bft) SO 145 6,4 km/h (2 Bft)
07.01.2012 20:54 2,3 C 93 % 0,0 l/m 4,9 km/h (1 Bft) SO 125 6,4 km/h (2 Bft)
07.01.2012 20:55 2,3 C 93 % 0,0 l/m 4,3 km/h (1 Bft) S-SO 151 4,8 km/h (1 Bft)
07.01.2012 20:56 2,3 C 93 % 0,0 l/m 4,2 km/h (1 Bft) O-SO 116 6,4 km/h (2 Bft)
07.01.2012 20:57 2,3 C 93 % 0,0 l/m 3,6 km/h (1 Bft) O-SO 118 4,8 km/h (1 Bft)
07.01.2012 20:58 2,3 C 93 % 0,0 l/m 3,3 km/h (1 Bft) SO 127 4,8 km/h (1 Bft)
07.01.2012 20:59 2,3 C 93 % 0,0 l/m 2,7 km/h (1 Bft) SO 135 3,2 km/h (1 Bft)
07.01.2012 21:00 2,3 C 93 % 0,0 l/m 1,6 km/h (1 Bft) SO 127 1,6 km/h (1 Bft)
07.01.2012 21:01 2,3 C 93 % 0,0 l/m 1,5 km/h (1 Bft) S-SO 153 1,6 km/h (1 Bft)
07.01.2012 21:02 2,3 C 93 % 0,0 l/m 0,0 km/h (0 Bft) S-SO 153 0,0 km/h (0 Bft)
07.01.2012 21:03 2,3 C 93 % 0,0 l/m 0,0 km/h (0 Bft) S-SO 153 0,0 km/h (0 Bft)
07.01.2012 21:04 2,3 C 93 % 0,0 l/m 0,0 km/h (0 Bft) S-SO 153 0,0 km/h (0 Bft)
07.01.2012 21:05 2,3 C 93 % 0,0 l/m 0,0 km/h (0 Bft) S-SO 152 0,0 km/h (0 Bft)
07.01.2012 21:06 2,3 C 93 % 0,0 l/m 1,7 km/h (1 Bft) S-SO 163 3,2 km/h (1 Bft)
07.01.2012 21:07 2,3 C 93 % 0,0 l/m 2,7 km/h (1 Bft) S-SO 149 3,2 km/h (1 Bft)
07.01.2012 21:08 2,3 C 93 % 0,0 l/m 0,1 km/h (0 Bft) S-SO 149 1,6 km/h (1 Bft)
07.01.2012 21:09 2,3 C 93 % 0,0 l/m 0,0 km/h (0 Bft) S-SO 150 0,0 km/h (0 Bft)
07.01.2012 21:10 2,3 C 93 % 0,0 l/m 1,3 km/h (1 Bft) S-SO 149 3,2 km/h (1 Bft)
07.01.2012 21:11 2,3 C 93 % 0,0 l/m 4,7 km/h (1 Bft) NO 43 6,4 km/h (2 Bft)
07.01.2012 21:12 2,3 C 93 % 0,0 l/m 3,1 km/h (1 Bft) NW 316 4,8 km/h (1 Bft)
07.01.2012 21:13 2,3 C 93 % 0,0 l/m 1,1 km/h (1 Bft) W-SW 240 1,6 km/h (1 Bft)
07.01.2012 21:14 2,3 C 93 % 0,0 l/m 0,9 km/h (0 Bft) S-SW 211 1,6 km/h (1 Bft)
07.01.2012 21:15 2,3 C 93 % 0,0 l/m 2,9 km/h (1 Bft) SO 142 4,8 km/h (1 Bft)
07.01.2012 21:16 2,3 C 93 % 0,0 l/m 2,1 km/h (1 Bft) SO 142 3,2 km/h (1 Bft)
07.01.2012 21:17 2,4 C 93 % 0,0 l/m 1,6 km/h (1 Bft) SO 143 1,6 km/h (1 Bft)
07.01.2012 21:18 2,4 C 92 % 0,0 l/m 1,1 km/h (1 Bft) SO 142 1,6 km/h (1 Bft)
07.01.2012 21:19 2,4 C 92 % 0,0 l/m 1,3 km/h (1 Bft) SO 139 1,6 km/h (1 Bft)
07.01.2012 21:20 2,4 C 92 % 0,0 l/m 0,5 km/h (0 Bft) SO 141 1,6 km/h (1 Bft)
07.01.2012 21:21 2,4 C 92 % 0,0 l/m 0,0 km/h (0 Bft) O-SO 118 0,0 km/h (0 Bft)
07.01.2012 21:22 2,4 C 92 % 0,0 l/m 0,0 km/h (0 Bft) O-SO 118 0,0 km/h (0 Bft)
07.01.2012 21:23 2,4 C 92 % 0,0 l/m 0,0 km/h (0 Bft) O-SO 118 0,0 km/h (0 Bft)
07.01.2012 21:24 2,4 C 92 % 0,0 l/m 0,3 km/h (0 Bft) W-SW 245 1,6 km/h (1 Bft)
07.01.2012 21:25 2,4 C 92 % 0,0 l/m 2,4 km/h (1 Bft) SO 126 4,8 km/h (1 Bft)
07.01.2012 21:26 2,3 C 92 % 0,0 l/m 3,2 km/h (1 Bft) S-SO 155 3,2 km/h (1 Bft)
07.01.2012 21:27 2,3 C 92 % 0,0 l/m 1,7 km/h (1 Bft) SO 141 4,8 km/h (1 Bft)
07.01.2012 21:28 2,3 C 92 % 0,0 l/m 0,0 km/h (0 Bft) SO 141 0,0 km/h (0 Bft)
07.01.2012 21:29 2,4 C 92 % 0,0 l/m 1,1 km/h (1 Bft) SW 215 1,6 km/h (1 Bft)
07.01.2012 21:30 2,4 C 92 % 0,0 l/m 1,5 km/h (1 Bft) S-SO 155 1,6 km/h (1 Bft)
07.01.2012 21:31 2,3 C 92 % 0,0 l/m 1,2 km/h (1 Bft) SO 133 1,6 km/h (1 Bft)
07.01.2012 21:32 2,3 C 92 % 0,0 l/m 1,6 km/h (1 Bft) SO 133 1,6 km/h (1 Bft)
07.01.2012 21:33 2,3 C 92 % 0,0 l/m 0,8 km/h (0 Bft) SO 134 1,6 km/h (1 Bft)
07.01.2012 21:34 2,3 C 92 % 0,0 l/m 1,2 km/h (1 Bft) SW 225 1,6 km/h (1 Bft)
07.01.2012 21:35 2,3 C 92 % 0,0 l/m 0,6 km/h (0 Bft) S 172 1,6 km/h (1 Bft)
07.01.2012 21:36 2,3 C 92 % 0,0 l/m 0,3 km/h (0 Bft) SW 214 1,6 km/h (1 Bft)
07.01.2012 21:37 2,3 C 92 % 0,0 l/m 1,4 km/h (1 Bft) S 172 3,2 km/h (1 Bft)
07.01.2012 21:38 2,3 C 92 % 0,0 l/m 1,3 km/h (1 Bft) S 170 1,6 km/h (1 Bft)
07.01.2012 21:39 2,3 C 92 % 0,0 l/m 0,5 km/h (0 Bft) S-SW 193 1,6 km/h (1 Bft)
07.01.2012 21:40 2,3 C 92 % 0,0 l/m 0,6 km/h (0 Bft) S-SO 167 1,6 km/h (1 Bft)
07.01.2012 21:41 2,3 C 92 % 0,0 l/m 0,6 km/h (0 Bft) S 169 1,6 km/h (1 Bft)
07.01.2012 21:42 2,3 C 93 % 0,0 l/m 0,0 km/h (0 Bft) S-SO 167 0,0 km/h (0 Bft)
07.01.2012 21:43 2,3 C 93 % 0,0 l/m 0,0 km/h (0 Bft) S-SO 167 0,0 km/h (0 Bft)
07.01.2012 21:44 2,3 C 93 % 0,0 l/m 0,0 km/h (0 Bft) SO 136 0,0 km/h (0 Bft)
07.01.2012 21:45 2,3 C 93 % 0,0 l/m 1,1 km/h (1 Bft) S-SO 148 3,2 km/h (1 Bft)
07.01.2012 21:46 2,3 C 93 % 0,0 l/m 0,1 km/h (0 Bft) S-SO 148 1,6 km/h (1 Bft)
07.01.2012 21:47 2,3 C 93 % 0,0 l/m 0,0 km/h (0 Bft) S-SO 148 0,0 km/h (0 Bft)
07.01.2012 21:48 2,3 C 93 % 0,0 l/m 0,9 km/h (0 Bft) S-SO 148 1,6 km/h (1 Bft)
07.01.2012 21:49 2,4 C 93 % 0,0 l/m 2,1 km/h (1 Bft) S-SW 205 4,8 km/h (1 Bft)
07.01.2012 21:50 2,4 C 93 % 0,0 l/m 2,3 km/h (1 Bft) S-SO 155 4,8 km/h (1 Bft)
07.01.2012 21:51 2,4 C 93 % 0,0 l/m 3,1 km/h (1 Bft) S-SO 158 4,8 km/h (1 Bft)
07.01.2012 21:52 2,5 C 93 % 0,0 l/m 1,5 km/h (1 Bft) SO 138 3,2 km/h (1 Bft)
07.01.2012 21:53 2,5 C 92 % 0,0 l/m 0,8 km/h (0 Bft) S 169 1,6 km/h (1 Bft)
07.01.2012 21:54 2,6 C 92 % 0,0 l/m 0,6 km/h (0 Bft) SO 144 1,6 km/h (1 Bft)
07.01.2012 21:55 2,6 C 92 % 0,0 l/m 0,0 km/h (0 Bft) SW 215 0,0 km/h (0 Bft)
07.01.2012 21:56 2,6 C 92 % 0,0 l/m 0,0 km/h (0 Bft) SO 124 0,0 km/h (0 Bft)
07.01.2012 21:57 2,6 C 92 % 0,0 l/m 0,0 km/h (0 Bft) SO 124 0,0 km/h (0 Bft)
07.01.2012 21:58 2,6 C 92 % 0,0 l/m 0,0 km/h (0 Bft) SO 124 0,0 km/h (0 Bft)
07.01.2012 21:59 2,6 C 92 % 0,0 l/m 0,0 km/h (0 Bft) S-SO 153 0,0 km/h (0 Bft)
07.01.2012 22:00 2,6 C 92 % 0,0 l/m 1,2 km/h (1 Bft) N 350 3,2 km/h (1 Bft)
07.01.2012 22:01 2,6 C 92 % 0,0 l/m 1,1 km/h (1 Bft) SO 134 3,2 km/h (1 Bft)
07.01.2012 22:02 2,7 C 91 % 0,0 l/m 0,0 km/h (0 Bft) SO 134 0,0 km/h (0 Bft)
07.01.2012 22:03 2,7 C 91 % 0,0 l/m 2,5 km/h (1 Bft) W-SW 241 6,4 km/h (2 Bft)
07.01.2012 22:04 2,7 C 91 % 0,0 l/m 1,9 km/h (1 Bft) SW 225 3,2 km/h (1 Bft)
07.01.2012 22:05 2,7 C 91 % 0,0 l/m 1,4 km/h (1 Bft) S-SW 197 3,2 km/h (1 Bft)
07.01.2012 22:06 2,6 C 91 % 0,0 l/m 1,9 km/h (1 Bft) W 264 3,2 km/h (1 Bft)
07.01.2012 22:07 2,6 C 91 % 0,0 l/m 2,5 km/h (1 Bft) W-SW 245 4,8 km/h (1 Bft)
07.01.2012 22:08 2,6 C 91 % 0,0 l/m 1,7 km/h (1 Bft) S-SW 198 3,2 km/h (1 Bft)
07.01.2012 22:09 2,6 C 91 % 0,0 l/m 4,0 km/h (1 Bft) S-SO 167 6,4 km/h (2 Bft)
07.01.2012 22:10 2,5 C 91 % 0,0 l/m 1,8 km/h (1 Bft) W-NW 289 3,2 km/h (1 Bft)
07.01.2012 22:11 2,5 C 92 % 0,0 l/m 0,3 km/h (0 Bft) W-SW 242 1,6 km/h (1 Bft)
07.01.2012 22:12 2,4 C 92 % 0,0 l/m 3,1 km/h (1 Bft) S-SW 204 4,8 km/h (1 Bft)
07.01.2012 22:13 2,4 C 92 % 0,0 l/m 2,5 km/h (1 Bft) W-NW 283 4,8 km/h (1 Bft)
07.01.2012 22:14 2,4 C 92 % 0,0 l/m 2,6 km/h (1 Bft) SW 217 4,8 km/h (1 Bft)
07.01.2012 22:15 2,4 C 92 % 0,0 l/m 5,1 km/h (1 Bft) W-SW 249 6,4 km/h (2 Bft)
07.01.2012 22:16 2,4 C 92 % 0,0 l/m 2,0 km/h (1 Bft) S 186 4,8 km/h (1 Bft)
07.01.2012 22:17 2,4 C 92 % 0,0 l/m 4,0 km/h (1 Bft) SW 217 6,4 km/h (2 Bft)
07.01.2012 22:18 2,4 C 92 % 0,0 l/m 4,5 km/h (1 Bft) SW 228 6,4 km/h (2 Bft)
07.01.2012 22:19 2,5 C 92 % 0,0 l/m 2,5 km/h (1 Bft) S-SO 147 3,2 km/h (1 Bft)
07.01.2012 22:20 2,4 C 92 % 0,0 l/m 5,1 km/h (1 Bft) W-SW 239 8,0 km/h (2 Bft)
07.01.2012 22:21 2,5 C 92 % 0,0 l/m 6,2 km/h (2 Bft) S-SW 203 8,0 km/h (2 Bft)
07.01.2012 22:22 2,5 C 92 % 0,0 l/m 2,7 km/h (1 Bft) S-SW 201 4,8 km/h (1 Bft)
07.01.2012 22:23 2,5 C 92 % 0,0 l/m 3,5 km/h (1 Bft) S-SO 157 6,4 km/h (2 Bft)
07.01.2012 22:24 2,5 C 92 % 0,0 l/m 3,9 km/h (1 Bft) SW 232 6,4 km/h (2 Bft)
07.01.2012 22:25 2,5 C 92 % 0,0 l/m 3,8 km/h (1 Bft) S 181 8,0 km/h (2 Bft)
07.01.2012 22:26 2,5 C 92 % 0,0 l/m 2,3 km/h (1 Bft) N 9 4,8 km/h (1 Bft)
07.01.2012 22:27 2,5 C 92 % 0,0 l/m 1,9 km/h (1 Bft) N-NO 27 3,2 km/h (1 Bft)
07.01.2012 22:28 2,4 C 92 % 0,0 l/m 2,6 km/h (1 Bft) SO 132 4,8 km/h (1 Bft)
07.01.2012 22:29 2,4 C 92 % 0,0 l/m 0,9 km/h (0 Bft) S 183 3,2 km/h (1 Bft)
07.01.2012 22:30 2,4 C 92 % 0,0 l/m 1,0 km/h (0 Bft) W 264 1,6 km/h (1 Bft)
07.01.2012 22:31 2,4 C 92 % 0,0 l/m 0,6 km/h (0 Bft) N-NW 338 3,2 km/h (1 Bft)
07.01.2012 22:32 2,5 C 92 % 0,0 l/m 2,2 km/h (1 Bft) SW 218 8,0 km/h (2 Bft)
07.01.2012 22:33 2,5 C 92 % 0,0 l/m 6,4 km/h (2 Bft) O 89 12,9 km/h (3 Bft)
07.01.2012 22:34 2,7 C 92 % 0,0 l/m 14,8 km/h (3 Bft) W-NW 282 27,4 km/h (4 Bft)
07.01.2012 22:35 2,9 C 92 % 0,0 l/m 11,4 km/h (2 Bft) S-SW 208 24,1 km/h (4 Bft)
07.01.2012 22:36 3,0 C 90 % 0,0 l/m 12,9 km/h (3 Bft) S-SW 207 17,7 km/h (3 Bft)
07.01.2012 22:37 3,1 C 89 % 0,0 l/m 9,6 km/h (2 Bft) S-SW 205 11,3 km/h (2 Bft)
07.01.2012 22:38 3,1 C 89 % 0,0 l/m 9,6 km/h (2 Bft) SW 219 11,3 km/h (2 Bft)
07.01.2012 22:39 3,1 C 89 % 0,0 l/m 8,4 km/h (2 Bft) W-SW 242 11,3 km/h (2 Bft)
07.01.2012 22:40 3,1 C 89 % 0,0 l/m 7,2 km/h (2 Bft) SW 218 12,9 km/h (3 Bft)
07.01.2012 22:41 3,1 C 89 % 0,0 l/m 10,3 km/h (2 Bft) W-SW 248 12,9 km/h (3 Bft)
07.01.2012 22:42 3,0 C 89 % 0,0 l/m 11,0 km/h (2 Bft) SW 235 12,9 km/h (3 Bft)
07.01.2012 22:43 3,0 C 89 % 0,0 l/m 7,6 km/h (2 Bft) SW 236 11,3 km/h (2 Bft)
07.01.2012 22:44 3,0 C 89 % 0,0 l/m 8,4 km/h (2 Bft) SW 214 11,3 km/h (2 Bft)
07.01.2012 22:45 3,0 C 89 % 0,0 l/m 8,6 km/h (2 Bft) SW 231 11,3 km/h (2 Bft)
07.01.2012 22:46 3,0 C 89 % 0,0 l/m 8,0 km/h (2 Bft) SW 217 12,9 km/h (3 Bft)
07.01.2012 22:47 2,9 C 89 % 0,0 l/m 9,4 km/h (2 Bft) SW 218 12,9 km/h (3 Bft)
07.01.2012 22:48 2,9 C 89 % 0,0 l/m 9,1 km/h (2 Bft) SW 226 11,3 km/h (2 Bft)
07.01.2012 22:49 2,9 C 89 % 0,0 l/m 9,0 km/h (2 Bft) W-SW 257 11,3 km/h (2 Bft)
07.01.2012 22:50 2,9 C 90 % 0,0 l/m 5,3 km/h (1 Bft) W-SW 255 9,7 km/h (2 Bft)
07.01.2012 22:51 2,8 C 90 % 0,0 l/m 9,5 km/h (2 Bft) W-SW 253 12,9 km/h (3 Bft)
07.01.2012 22:52 2,9 C 90 % 0,0 l/m 8,1 km/h (2 Bft) W-SW 256 11,3 km/h (2 Bft)
07.01.2012 22:53 2,9 C 90 % 0,0 l/m 5,5 km/h (1 Bft) W 278 11,3 km/h (2 Bft)
07.01.2012 22:54 2,9 C 90 % 0,0 l/m 3,1 km/h (1 Bft) W 264 4,8 km/h (1 Bft)
07.01.2012 22:55 2,9 C 90 % 0,0 l/m 5,5 km/h (1 Bft) W-NW 287 9,7 km/h (2 Bft)
07.01.2012 22:56 2,9 C 90 % 0,0 l/m 5,0 km/h (1 Bft) W-SW 243 8,0 km/h (2 Bft)
07.01.2012 22:57 2,9 C 90 % 0,0 l/m 7,6 km/h (2 Bft) SW 228 9,7 km/h (2 Bft)
07.01.2012 22:58 2,9 C 90 % 0,0 l/m 8,2 km/h (2 Bft) W-SW 250 9,7 km/h (2 Bft)
07.01.2012 22:59 2,9 C 90 % 0,0 l/m 9,3 km/h (2 Bft) W-SW 239 11,3 km/h (2 Bft)
07.01.2012 23:00 2,9 C 90 % 0,0 l/m 8,4 km/h (2 Bft) W-SW 254 11,3 km/h (2 Bft)
07.01.2012 23:01 3,0 C 90 % 0,0 l/m 8,3 km/h (2 Bft) SW 228 11,3 km/h (2 Bft)
07.01.2012 23:02 3,0 C 90 % 0,0 l/m 8,9 km/h (2 Bft) NW 316 12,9 km/h (3 Bft)
07.01.2012 23:03 3,1 C 89 % 0,0 l/m 7,8 km/h (2 Bft) W 260 12,9 km/h (3 Bft)
07.01.2012 23:04 3,1 C 89 % 0,0 l/m 8,5 km/h (2 Bft) W-NW 293 11,3 km/h (2 Bft)
07.01.2012 23:05 3,2 C 89 % 0,0 l/m 7,7 km/h (2 Bft) W 264 14,5 km/h (3 Bft)
07.01.2012 23:06 3,2 C 89 % 0,0 l/m 9,1 km/h (2 Bft) W 267 16,1 km/h (3 Bft)
07.01.2012 23:07 3,3 C 89 % 0,0 l/m 4,4 km/h (1 Bft) SW 221 12,9 km/h (3 Bft)
07.01.2012 23:08 3,3 C 89 % 0,0 l/m 9,3 km/h (2 Bft) W-SW 250 12,9 km/h (3 Bft)
07.01.2012 23:09 3,4 C 88 % 0,0 l/m 8,9 km/h (2 Bft) W-SW 256 16,1 km/h (3 Bft)
07.01.2012 23:10 3,5 C 88 % 0,0 l/m 10,0 km/h (2 Bft) W-SW 254 17,7 km/h (3 Bft)
07.01.2012 23:11 3,6 C 88 % 0,0 l/m 8,2 km/h (2 Bft) W-SW 257 12,9 km/h (3 Bft)
07.01.2012 23:12 3,6 C 87 % 0,0 l/m 10,6 km/h (2 Bft) W-SW 252 14,5 km/h (3 Bft)
07.01.2012 23:13 3,6 C 87 % 0,0 l/m 7,8 km/h (2 Bft) W-SW 237 14,5 km/h (3 Bft)
07.01.2012 23:14 3,7 C 87 % 0,0 l/m 6,8 km/h (2 Bft) W 259 11,3 km/h (2 Bft)
07.01.2012 23:15 3,7 C 87 % 0,0 l/m 6,7 km/h (2 Bft) N 356 9,7 km/h (2 Bft)
07.01.2012 23:16 3,7 C 87 % 0,0 l/m 7,7 km/h (2 Bft) W 278 12,9 km/h (3 Bft)
07.01.2012 23:17 3,7 C 87 % 0,0 l/m 11,3 km/h (2 Bft) SW 226 19,3 km/h (3 Bft)
07.01.2012 23:18 3,7 C 87 % 0,0 l/m 11,5 km/h (2 Bft) W-SW 248 16,1 km/h (3 Bft)
07.01.2012 23:19 3,8 C 87 % 0,0 l/m 13,5 km/h (3 Bft) N-NW 334 16,1 km/h (3 Bft)
07.01.2012 23:20 3,8 C 87 % 0,0 l/m 10,0 km/h (2 Bft) W-NW 283 12,9 km/h (3 Bft)
07.01.2012 23:21 3,9 C 87 % 0,0 l/m 10,0 km/h (2 Bft) W-SW 242 14,5 km/h (3 Bft)
07.01.2012 23:22 3,9 C 86 % 0,0 l/m 6,1 km/h (2 Bft) W 260 9,7 km/h (2 Bft)
07.01.2012 23:23 3,9 C 86 % 0,0 l/m 6,4 km/h (2 Bft) W 271 11,3 km/h (2 Bft)
07.01.2012 23:24 3,9 C 86 % 0,0 l/m 8,4 km/h (2 Bft) S-SO 158 12,9 km/h (3 Bft)
07.01.2012 23:25 3,9 C 86 % 0,0 l/m 9,7 km/h (2 Bft) W-SW 248 14,5 km/h (3 Bft)
07.01.2012 23:26 4,0 C 86 % 0,0 l/m 9,7 km/h (2 Bft) W-NW 287 14,5 km/h (3 Bft)
07.01.2012 23:27 4,0 C 86 % 0,0 l/m 10,1 km/h (2 Bft) NW 312 14,5 km/h (3 Bft)
07.01.2012 23:28 4,1 C 86 % 0,0 l/m 4,7 km/h (1 Bft) S 185 8,0 km/h (2 Bft)
07.01.2012 23:29 4,1 C 86 % 0,0 l/m 6,4 km/h (2 Bft) W-NW 293 9,7 km/h (2 Bft)
07.01.2012 23:30 4,1 C 86 % 0,0 l/m 9,9 km/h (2 Bft) W 269 16,1 km/h (3 Bft)
07.01.2012 23:31 4,1 C 85 % 0,0 l/m 6,6 km/h (2 Bft) W-SW 256 12,9 km/h (3 Bft)
07.01.2012 23:32 4,1 C 85 % 0,0 l/m 5,4 km/h (1 Bft) W-NW 283 8,0 km/h (2 Bft)
07.01.2012 23:33 4,2 C 85 % 0,0 l/m 6,3 km/h (2 Bft) W-SW 246 11,3 km/h (2 Bft)
07.01.2012 23:34 4,2 C 85 % 0,0 l/m 8,9 km/h (2 Bft) W 266 11,3 km/h (2 Bft)
07.01.2012 23:35 4,2 C 85 % 0,0 l/m 9,7 km/h (2 Bft) W-NW 285 14,5 km/h (3 Bft)
07.01.2012 23:36 4,2 C 85 % 0,0 l/m 11,2 km/h (2 Bft) N-NO 22 16,1 km/h (3 Bft)
07.01.2012 23:37 4,2 C 85 % 0,0 l/m 10,2 km/h (2 Bft) NW 305 16,1 km/h (3 Bft)
07.01.2012 23:38 4,2 C 85 % 0,0 l/m 12,1 km/h (2 Bft) W-SW 240 17,7 km/h (3 Bft)
07.01.2012 23:39 4,2 C 84 % 0,0 l/m 6,6 km/h (2 Bft) W-NW 302 11,3 km/h (2 Bft)
07.01.2012 23:40 4,2 C 84 % 0,0 l/m 8,4 km/h (2 Bft) W-SW 256 17,7 km/h (3 Bft)
07.01.2012 23:41 4,2 C 84 % 0,0 l/m 11,2 km/h (2 Bft) W-SW 240 17,7 km/h (3 Bft)
07.01.2012 23:42 4,2 C 84 % 0,0 l/m 11,9 km/h (2 Bft) O-NO 71 16,1 km/h (3 Bft)
07.01.2012 23:43 4,2 C 84 % 0,0 l/m 11,6 km/h (2 Bft) W 274 17,7 km/h (3 Bft)
07.01.2012 23:44 4,2 C 84 % 0,0 l/m 15,9 km/h (3 Bft) O-NO 68 20,9 km/h (4 Bft)
07.01.2012 23:45 4,2 C 84 % 0,0 l/m 15,4 km/h (3 Bft) W 274 22,5 km/h (4 Bft)
07.01.2012 23:46 4,3 C 83 % 0,0 l/m 16,7 km/h (3 Bft) S-SW 213 22,5 km/h (4 Bft)
07.01.2012 23:47 4,3 C 83 % 0,0 l/m 13,0 km/h (3 Bft) W 261 20,9 km/h (4 Bft)
07.01.2012 23:48 4,3 C 83 % 0,0 l/m 15,0 km/h (3 Bft) W-NW 285 22,5 km/h (4 Bft)
07.01.2012 23:49 4,4 C 83 % 0,0 l/m 14,5 km/h (3 Bft) W 261 20,9 km/h (4 Bft)
07.01.2012 23:50 4,4 C 83 % 0,0 l/m 13,1 km/h (3 Bft) W-NW 295 19,3 km/h (3 Bft)
07.01.2012 23:51 4,4 C 83 % 0,0 l/m 14,8 km/h (3 Bft) W-SW 252 22,5 km/h (4 Bft)
07.01.2012 23:52 4,4 C 83 % 0,0 l/m 10,8 km/h (2 Bft) W-NW 288 17,7 km/h (3 Bft)
07.01.2012 23:53 4,4 C 83 % 0,0 l/m 14,0 km/h (3 Bft) W 266 22,5 km/h (4 Bft)
07.01.2012 23:54 4,4 C 83 % 0,0 l/m 13,0 km/h (3 Bft) W-SW 237 20,9 km/h (4 Bft)
07.01.2012 23:55 4,4 C 83 % 0,0 l/m 13,8 km/h (3 Bft) W-SW 246 20,9 km/h (4 Bft)
07.01.2012 23:56 4,4 C 83 % 0,0 l/m 10,0 km/h (2 Bft) W-SW 256 16,1 km/h (3 Bft)
07.01.2012 23:57 4,4 C 83 % 0,0 l/m 11,8 km/h (2 Bft) N-NW 340 22,5 km/h (4 Bft)
07.01.2012 23:58 4,4 C 83 % 0,0 l/m 13,4 km/h (3 Bft) W-SW 245 24,1 km/h (4 Bft)
07.01.2012 23:59 4,4 C 83 % 0,0 l/m 9,3 km/h (2 Bft) W 281 14,5 km/h (3 Bft)
_ Min-Zeit 18:12 12:24 - 15:07 - - 15:07
Minimum _ 1,8 C 49 % - 0,0 km/h (0 Bft) - - 0,0 km/h (0 Bft)
_ Max-Zeit 11:43 19:32 17:23 03:21 - - 02:56
Maximum _ 6,9 C 95 % 0,2 l/m 38,4 km/h
W-NW (5 Bft)
- - 53,1 km/h
W-NW (7 Bft)
Durchschnitt _ 3,9 C 72 % #5,8 l/m 12,3 km/h (3 Bft) W-NW - 19,3 km/h (3 Bft)